<?xml version="1.0" encoding="UTF-8" standalone="no" ?>
<gpx xmlns="http://www.topografix.com/GPX/1/1" xmlns:xsi="http://www.w3.org/2001/XMLSchema-instance" xsi:schemaLocation="http://www.topografix.com/GPX/1/1 http://www.topografix.com/GPX/1/1/gpx.xsd" version="1.1" creator="VisuGPX - https://www.visugpx.com">
  <metadata>
    <name>M_RUZ_AICC22</name>
  </metadata>
  <trk>
    <name><![CDATA[13366133-Mariano RUZ]]></name>
    <trkseg>
      <trkpt lat="47.31932" lon="3.65586">
        <ele>176</ele>
        <time>2022-06-03T20:41:28Z</time>
      </trkpt>
      <trkpt lat="47.31819" lon="3.65555">
        <ele>173</ele>
        <time>2022-06-03T20:41:48Z</time>
      </trkpt>
      <trkpt lat="47.31757" lon="3.65532">
        <ele>174</ele>
        <time>2022-06-03T20:42:00Z</time>
      </trkpt>
      <trkpt lat="47.31723" lon="3.65514">
        <ele>174</ele>
        <time>2022-06-03T20:42:06Z</time>
      </trkpt>
      <trkpt lat="47.31714" lon="3.65498">
        <ele>174</ele>
        <time>2022-06-03T20:42:09Z</time>
      </trkpt>
      <trkpt lat="47.31683" lon="3.65433">
        <ele>175</ele>
        <time>2022-06-03T20:42:18Z</time>
      </trkpt>
      <trkpt lat="47.3166" lon="3.65393">
        <ele>177</ele>
        <time>2022-06-03T20:42:25Z</time>
      </trkpt>
      <trkpt lat="47.3164" lon="3.65374">
        <ele>177</ele>
        <time>2022-06-03T20:42:29Z</time>
      </trkpt>
      <trkpt lat="47.31628" lon="3.65371">
        <ele>177</ele>
        <time>2022-06-03T20:42:31Z</time>
      </trkpt>
      <trkpt lat="47.3158" lon="3.65376">
        <ele>178</ele>
        <time>2022-06-03T20:42:40Z</time>
      </trkpt>
      <trkpt lat="47.31569" lon="3.65378">
        <ele>178</ele>
        <time>2022-06-03T20:42:42Z</time>
      </trkpt>
      <trkpt lat="47.31557" lon="3.65385">
        <ele>178</ele>
        <time>2022-06-03T20:42:44Z</time>
      </trkpt>
      <trkpt lat="47.31544" lon="3.65387">
        <ele>178</ele>
        <time>2022-06-03T20:42:46Z</time>
      </trkpt>
      <trkpt lat="47.31502" lon="3.65382">
        <ele>178</ele>
        <time>2022-06-03T20:42:54Z</time>
      </trkpt>
      <trkpt lat="47.31464" lon="3.65382">
        <ele>179</ele>
        <time>2022-06-03T20:43:00Z</time>
      </trkpt>
      <trkpt lat="47.31455" lon="3.65386">
        <ele>179</ele>
        <time>2022-06-03T20:43:02Z</time>
      </trkpt>
      <trkpt lat="47.31451" lon="3.65391">
        <ele>179</ele>
        <time>2022-06-03T20:43:03Z</time>
      </trkpt>
      <trkpt lat="47.31449" lon="3.65388">
        <ele>179</ele>
        <time>2022-06-03T20:43:04Z</time>
      </trkpt>
      <trkpt lat="47.31441" lon="3.65383">
        <ele>179</ele>
        <time>2022-06-03T20:43:05Z</time>
      </trkpt>
      <trkpt lat="47.31449" lon="3.65388">
        <ele>179</ele>
        <time>2022-06-03T20:43:07Z</time>
      </trkpt>
      <trkpt lat="47.31451" lon="3.65391">
        <ele>179</ele>
        <time>2022-06-03T20:43:07Z</time>
      </trkpt>
      <trkpt lat="47.31447" lon="3.65408">
        <ele>179</ele>
        <time>2022-06-03T20:43:09Z</time>
      </trkpt>
      <trkpt lat="47.31449" lon="3.65578">
        <ele>176</ele>
        <time>2022-06-03T20:43:30Z</time>
      </trkpt>
      <trkpt lat="47.31452" lon="3.65614">
        <ele>175</ele>
        <time>2022-06-03T20:43:34Z</time>
      </trkpt>
      <trkpt lat="47.31455" lon="3.65629">
        <ele>175</ele>
        <time>2022-06-03T20:43:36Z</time>
      </trkpt>
      <trkpt lat="47.31443" lon="3.65637">
        <ele>175</ele>
        <time>2022-06-03T20:43:38Z</time>
      </trkpt>
      <trkpt lat="47.31371" lon="3.65665">
        <ele>174</ele>
        <time>2022-06-03T20:43:52Z</time>
      </trkpt>
      <trkpt lat="47.31323" lon="3.65689">
        <ele>174</ele>
        <time>2022-06-03T20:44:01Z</time>
      </trkpt>
      <trkpt lat="47.31297" lon="3.65705">
        <ele>174</ele>
        <time>2022-06-03T20:44:06Z</time>
      </trkpt>
      <trkpt lat="47.31232" lon="3.65758">
        <ele>174</ele>
        <time>2022-06-03T20:44:19Z</time>
      </trkpt>
      <trkpt lat="47.31216" lon="3.65776">
        <ele>175</ele>
        <time>2022-06-03T20:44:23Z</time>
      </trkpt>
      <trkpt lat="47.31196" lon="3.65797">
        <ele>175</ele>
        <time>2022-06-03T20:44:27Z</time>
      </trkpt>
      <trkpt lat="47.31106" lon="3.65903">
        <ele>176</ele>
        <time>2022-06-03T20:44:47Z</time>
      </trkpt>
      <trkpt lat="47.31094" lon="3.65918">
        <ele>176</ele>
        <time>2022-06-03T20:44:50Z</time>
      </trkpt>
      <trkpt lat="47.31086" lon="3.65924">
        <ele>176</ele>
        <time>2022-06-03T20:44:52Z</time>
      </trkpt>
      <trkpt lat="47.31058" lon="3.65946">
        <ele>175</ele>
        <time>2022-06-03T20:44:57Z</time>
      </trkpt>
      <trkpt lat="47.30997" lon="3.66017">
        <ele>175</ele>
        <time>2022-06-03T20:45:11Z</time>
      </trkpt>
      <trkpt lat="47.30973" lon="3.66042">
        <ele>176</ele>
        <time>2022-06-03T20:45:17Z</time>
      </trkpt>
      <trkpt lat="47.30905" lon="3.66092">
        <ele>178</ele>
        <time>2022-06-03T20:45:30Z</time>
      </trkpt>
      <trkpt lat="47.30886" lon="3.66099">
        <ele>178</ele>
        <time>2022-06-03T20:45:34Z</time>
      </trkpt>
      <trkpt lat="47.30797" lon="3.6612">
        <ele>181</ele>
        <time>2022-06-03T20:45:50Z</time>
      </trkpt>
      <trkpt lat="47.30759" lon="3.66124">
        <ele>183</ele>
        <time>2022-06-03T20:45:56Z</time>
      </trkpt>
      <trkpt lat="47.30211" lon="3.6608">
        <ele>188</ele>
        <time>2022-06-03T20:47:34Z</time>
      </trkpt>
      <trkpt lat="47.301" lon="3.66075">
        <ele>187</ele>
        <time>2022-06-03T20:47:54Z</time>
      </trkpt>
      <trkpt lat="47.29835" lon="3.66074">
        <ele>191</ele>
        <time>2022-06-03T20:48:41Z</time>
      </trkpt>
      <trkpt lat="47.29763" lon="3.66071">
        <ele>192</ele>
        <time>2022-06-03T20:48:54Z</time>
      </trkpt>
      <trkpt lat="47.29748" lon="3.66066">
        <ele>192</ele>
        <time>2022-06-03T20:48:56Z</time>
      </trkpt>
      <trkpt lat="47.29734" lon="3.66053">
        <ele>193</ele>
        <time>2022-06-03T20:48:59Z</time>
      </trkpt>
      <trkpt lat="47.29727" lon="3.66044">
        <ele>193</ele>
        <time>2022-06-03T20:49:01Z</time>
      </trkpt>
      <trkpt lat="47.29715" lon="3.66036">
        <ele>194</ele>
        <time>2022-06-03T20:49:03Z</time>
      </trkpt>
      <trkpt lat="47.29666" lon="3.66034">
        <ele>194</ele>
        <time>2022-06-03T20:49:12Z</time>
      </trkpt>
      <trkpt lat="47.29378" lon="3.65912">
        <ele>193</ele>
        <time>2022-06-03T20:50:05Z</time>
      </trkpt>
      <trkpt lat="47.29255" lon="3.65856">
        <ele>190</ele>
        <time>2022-06-03T20:50:28Z</time>
      </trkpt>
      <trkpt lat="47.29067" lon="3.6577">
        <ele>193</ele>
        <time>2022-06-03T20:51:03Z</time>
      </trkpt>
      <trkpt lat="47.29037" lon="3.6576">
        <ele>193</ele>
        <time>2022-06-03T20:51:09Z</time>
      </trkpt>
      <trkpt lat="47.28986" lon="3.65753">
        <ele>191</ele>
        <time>2022-06-03T20:51:18Z</time>
      </trkpt>
      <trkpt lat="47.28874" lon="3.65743">
        <ele>188</ele>
        <time>2022-06-03T20:51:38Z</time>
      </trkpt>
      <trkpt lat="47.28852" lon="3.65739">
        <ele>187</ele>
        <time>2022-06-03T20:51:42Z</time>
      </trkpt>
      <trkpt lat="47.28817" lon="3.65725">
        <ele>187</ele>
        <time>2022-06-03T20:51:48Z</time>
      </trkpt>
      <trkpt lat="47.28766" lon="3.65692">
        <ele>186</ele>
        <time>2022-06-03T20:51:58Z</time>
      </trkpt>
      <trkpt lat="47.28691" lon="3.65621">
        <ele>187</ele>
        <time>2022-06-03T20:52:14Z</time>
      </trkpt>
      <trkpt lat="47.28683" lon="3.65614">
        <ele>187</ele>
        <time>2022-06-03T20:52:16Z</time>
      </trkpt>
      <trkpt lat="47.28653" lon="3.65591">
        <ele>186</ele>
        <time>2022-06-03T20:52:22Z</time>
      </trkpt>
      <trkpt lat="47.28549" lon="3.6552">
        <ele>189</ele>
        <time>2022-06-03T20:52:42Z</time>
      </trkpt>
      <trkpt lat="47.28468" lon="3.65461">
        <ele>194</ele>
        <time>2022-06-03T20:52:58Z</time>
      </trkpt>
      <trkpt lat="47.28452" lon="3.65451">
        <ele>194</ele>
        <time>2022-06-03T20:53:01Z</time>
      </trkpt>
      <trkpt lat="47.28428" lon="3.65434">
        <ele>195</ele>
        <time>2022-06-03T20:53:06Z</time>
      </trkpt>
      <trkpt lat="47.28393" lon="3.65408">
        <ele>195</ele>
        <time>2022-06-03T20:53:13Z</time>
      </trkpt>
      <trkpt lat="47.28356" lon="3.65368">
        <ele>197</ele>
        <time>2022-06-03T20:53:21Z</time>
      </trkpt>
      <trkpt lat="47.28323" lon="3.65326">
        <ele>199</ele>
        <time>2022-06-03T20:53:29Z</time>
      </trkpt>
      <trkpt lat="47.28291" lon="3.65276">
        <ele>200</ele>
        <time>2022-06-03T20:53:37Z</time>
      </trkpt>
      <trkpt lat="47.28289" lon="3.65272">
        <ele>200</ele>
        <time>2022-06-03T20:53:38Z</time>
      </trkpt>
      <trkpt lat="47.28281" lon="3.65267">
        <ele>200</ele>
        <time>2022-06-03T20:53:39Z</time>
      </trkpt>
      <trkpt lat="47.28264" lon="3.65262">
        <ele>198</ele>
        <time>2022-06-03T20:53:42Z</time>
      </trkpt>
      <trkpt lat="47.28261" lon="3.65262">
        <ele>197</ele>
        <time>2022-06-03T20:53:43Z</time>
      </trkpt>
      <trkpt lat="47.28248" lon="3.65264">
        <ele>196</ele>
        <time>2022-06-03T20:53:45Z</time>
      </trkpt>
      <trkpt lat="47.28238" lon="3.65267">
        <ele>195</ele>
        <time>2022-06-03T20:53:47Z</time>
      </trkpt>
      <trkpt lat="47.28231" lon="3.65275">
        <ele>194</ele>
        <time>2022-06-03T20:53:49Z</time>
      </trkpt>
      <trkpt lat="47.28197" lon="3.65295">
        <ele>192</ele>
        <time>2022-06-03T20:53:55Z</time>
      </trkpt>
      <trkpt lat="47.28174" lon="3.65304">
        <ele>191</ele>
        <time>2022-06-03T20:53:59Z</time>
      </trkpt>
      <trkpt lat="47.28148" lon="3.65303">
        <ele>191</ele>
        <time>2022-06-03T20:54:04Z</time>
      </trkpt>
      <trkpt lat="47.28124" lon="3.65297">
        <ele>192</ele>
        <time>2022-06-03T20:54:08Z</time>
      </trkpt>
      <trkpt lat="47.28088" lon="3.65292">
        <ele>192</ele>
        <time>2022-06-03T20:54:15Z</time>
      </trkpt>
      <trkpt lat="47.28039" lon="3.65292">
        <ele>191</ele>
        <time>2022-06-03T20:54:24Z</time>
      </trkpt>
      <trkpt lat="47.2798" lon="3.65301">
        <ele>191</ele>
        <time>2022-06-03T20:54:34Z</time>
      </trkpt>
      <trkpt lat="47.27978" lon="3.65315">
        <ele>191</ele>
        <time>2022-06-03T20:54:36Z</time>
      </trkpt>
      <trkpt lat="47.27967" lon="3.65343">
        <ele>191</ele>
        <time>2022-06-03T20:54:40Z</time>
      </trkpt>
      <trkpt lat="47.27872" lon="3.65534">
        <ele>187</ele>
        <time>2022-06-03T20:55:08Z</time>
      </trkpt>
      <trkpt lat="47.27859" lon="3.65557">
        <ele>185</ele>
        <time>2022-06-03T20:55:12Z</time>
      </trkpt>
      <trkpt lat="47.27856" lon="3.65556">
        <ele>185</ele>
        <time>2022-06-03T20:55:13Z</time>
      </trkpt>
      <trkpt lat="47.27854" lon="3.65562">
        <ele>185</ele>
        <time>2022-06-03T20:55:13Z</time>
      </trkpt>
      <trkpt lat="47.27847" lon="3.65576">
        <ele>184</ele>
        <time>2022-06-03T20:55:15Z</time>
      </trkpt>
      <trkpt lat="47.27834" lon="3.65591">
        <ele>183</ele>
        <time>2022-06-03T20:55:18Z</time>
      </trkpt>
      <trkpt lat="47.27826" lon="3.65598">
        <ele>183</ele>
        <time>2022-06-03T20:55:20Z</time>
      </trkpt>
      <trkpt lat="47.2782" lon="3.65606">
        <ele>183</ele>
        <time>2022-06-03T20:55:21Z</time>
      </trkpt>
      <trkpt lat="47.27808" lon="3.6562">
        <ele>182</ele>
        <time>2022-06-03T20:55:24Z</time>
      </trkpt>
      <trkpt lat="47.278" lon="3.65629">
        <ele>182</ele>
        <time>2022-06-03T20:55:26Z</time>
      </trkpt>
      <trkpt lat="47.27763" lon="3.6567">
        <ele>182</ele>
        <time>2022-06-03T20:55:34Z</time>
      </trkpt>
      <trkpt lat="47.27739" lon="3.65695">
        <ele>181</ele>
        <time>2022-06-03T20:55:39Z</time>
      </trkpt>
      <trkpt lat="47.27723" lon="3.65718">
        <ele>181</ele>
        <time>2022-06-03T20:55:43Z</time>
      </trkpt>
      <trkpt lat="47.27715" lon="3.6575">
        <ele>180</ele>
        <time>2022-06-03T20:55:48Z</time>
      </trkpt>
      <trkpt lat="47.27724" lon="3.65905">
        <ele>181</ele>
        <time>2022-06-03T20:56:06Z</time>
      </trkpt>
      <trkpt lat="47.27708" lon="3.65887">
        <ele>180</ele>
        <time>2022-06-03T20:56:10Z</time>
      </trkpt>
      <trkpt lat="47.27553" lon="3.65672">
        <ele>181</ele>
        <time>2022-06-03T20:56:48Z</time>
      </trkpt>
      <trkpt lat="47.27545" lon="3.65661">
        <ele>182</ele>
        <time>2022-06-03T20:56:50Z</time>
      </trkpt>
      <trkpt lat="47.27536" lon="3.6565">
        <ele>182</ele>
        <time>2022-06-03T20:56:52Z</time>
      </trkpt>
      <trkpt lat="47.27524" lon="3.65643">
        <ele>182</ele>
        <time>2022-06-03T20:56:54Z</time>
      </trkpt>
      <trkpt lat="47.27385" lon="3.65591">
        <ele>182</ele>
        <time>2022-06-03T20:57:20Z</time>
      </trkpt>
      <trkpt lat="47.27368" lon="3.65589">
        <ele>182</ele>
        <time>2022-06-03T20:57:23Z</time>
      </trkpt>
      <trkpt lat="47.27333" lon="3.65592">
        <ele>183</ele>
        <time>2022-06-03T20:57:29Z</time>
      </trkpt>
      <trkpt lat="47.27176" lon="3.65577">
        <ele>183</ele>
        <time>2022-06-03T20:57:57Z</time>
      </trkpt>
      <trkpt lat="47.27153" lon="3.65569">
        <ele>183</ele>
        <time>2022-06-03T20:58:01Z</time>
      </trkpt>
      <trkpt lat="47.27085" lon="3.65524">
        <ele>182</ele>
        <time>2022-06-03T20:58:14Z</time>
      </trkpt>
      <trkpt lat="47.27057" lon="3.65515">
        <ele>184</ele>
        <time>2022-06-03T20:58:19Z</time>
      </trkpt>
      <trkpt lat="47.27031" lon="3.65503">
        <ele>185</ele>
        <time>2022-06-03T20:58:24Z</time>
      </trkpt>
      <trkpt lat="47.26921" lon="3.65415">
        <ele>192</ele>
        <time>2022-06-03T20:58:47Z</time>
      </trkpt>
      <trkpt lat="47.26908" lon="3.65407">
        <ele>192</ele>
        <time>2022-06-03T20:58:49Z</time>
      </trkpt>
      <trkpt lat="47.26827" lon="3.65381">
        <ele>192</ele>
        <time>2022-06-03T20:59:04Z</time>
      </trkpt>
      <trkpt lat="47.26785" lon="3.65364">
        <ele>193</ele>
        <time>2022-06-03T20:59:12Z</time>
      </trkpt>
      <trkpt lat="47.26727" lon="3.65352">
        <ele>194</ele>
        <time>2022-06-03T20:59:22Z</time>
      </trkpt>
      <trkpt lat="47.2665" lon="3.65315">
        <ele>196</ele>
        <time>2022-06-03T20:59:36Z</time>
      </trkpt>
      <trkpt lat="47.26629" lon="3.65304">
        <ele>196</ele>
        <time>2022-06-03T20:59:40Z</time>
      </trkpt>
      <trkpt lat="47.26549" lon="3.65286">
        <ele>198</ele>
        <time>2022-06-03T20:59:55Z</time>
      </trkpt>
      <trkpt lat="47.26503" lon="3.65258">
        <ele>197</ele>
        <time>2022-06-03T21:00:04Z</time>
      </trkpt>
      <trkpt lat="47.2649" lon="3.65247">
        <ele>197</ele>
        <time>2022-06-03T21:00:06Z</time>
      </trkpt>
      <trkpt lat="47.26468" lon="3.65218">
        <ele>195</ele>
        <time>2022-06-03T21:00:12Z</time>
      </trkpt>
      <trkpt lat="47.26452" lon="3.65197">
        <ele>194</ele>
        <time>2022-06-03T21:00:15Z</time>
      </trkpt>
      <trkpt lat="47.2644" lon="3.65185">
        <ele>194</ele>
        <time>2022-06-03T21:00:18Z</time>
      </trkpt>
      <trkpt lat="47.26377" lon="3.65142">
        <ele>194</ele>
        <time>2022-06-03T21:00:30Z</time>
      </trkpt>
      <trkpt lat="47.26346" lon="3.65129">
        <ele>194</ele>
        <time>2022-06-03T21:00:36Z</time>
      </trkpt>
      <trkpt lat="47.26295" lon="3.65114">
        <ele>193</ele>
        <time>2022-06-03T21:00:45Z</time>
      </trkpt>
      <trkpt lat="47.26258" lon="3.65103">
        <ele>194</ele>
        <time>2022-06-03T21:00:52Z</time>
      </trkpt>
      <trkpt lat="47.26203" lon="3.65083">
        <ele>195</ele>
        <time>2022-06-03T21:01:02Z</time>
      </trkpt>
      <trkpt lat="47.26168" lon="3.65079">
        <ele>196</ele>
        <time>2022-06-03T21:01:08Z</time>
      </trkpt>
      <trkpt lat="47.26151" lon="3.65082">
        <ele>196</ele>
        <time>2022-06-03T21:01:11Z</time>
      </trkpt>
      <trkpt lat="47.26145" lon="3.65123">
        <ele>198</ele>
        <time>2022-06-03T21:01:16Z</time>
      </trkpt>
      <trkpt lat="47.26137" lon="3.65142">
        <ele>198</ele>
        <time>2022-06-03T21:01:19Z</time>
      </trkpt>
      <trkpt lat="47.2613" lon="3.65151">
        <ele>199</ele>
        <time>2022-06-03T21:01:21Z</time>
      </trkpt>
      <trkpt lat="47.2611" lon="3.65168">
        <ele>200</ele>
        <time>2022-06-03T21:01:25Z</time>
      </trkpt>
      <trkpt lat="47.26105" lon="3.65177">
        <ele>200</ele>
        <time>2022-06-03T21:01:26Z</time>
      </trkpt>
      <trkpt lat="47.26093" lon="3.65207">
        <ele>202</ele>
        <time>2022-06-03T21:01:30Z</time>
      </trkpt>
      <trkpt lat="47.26081" lon="3.65221">
        <ele>202</ele>
        <time>2022-06-03T21:01:33Z</time>
      </trkpt>
      <trkpt lat="47.26067" lon="3.65233">
        <ele>203</ele>
        <time>2022-06-03T21:01:36Z</time>
      </trkpt>
      <trkpt lat="47.2606" lon="3.65234">
        <ele>203</ele>
        <time>2022-06-03T21:01:37Z</time>
      </trkpt>
      <trkpt lat="47.26048" lon="3.65232">
        <ele>203</ele>
        <time>2022-06-03T21:01:39Z</time>
      </trkpt>
      <trkpt lat="47.26013" lon="3.65218">
        <ele>203</ele>
        <time>2022-06-03T21:01:46Z</time>
      </trkpt>
      <trkpt lat="47.25992" lon="3.65206">
        <ele>203</ele>
        <time>2022-06-03T21:01:50Z</time>
      </trkpt>
      <trkpt lat="47.25976" lon="3.652">
        <ele>202</ele>
        <time>2022-06-03T21:01:53Z</time>
      </trkpt>
      <trkpt lat="47.25956" lon="3.6536">
        <ele>202</ele>
        <time>2022-06-03T21:02:13Z</time>
      </trkpt>
      <trkpt lat="47.25951" lon="3.65384">
        <ele>203</ele>
        <time>2022-06-03T21:02:16Z</time>
      </trkpt>
      <trkpt lat="47.25944" lon="3.65405">
        <ele>205</ele>
        <time>2022-06-03T21:02:18Z</time>
      </trkpt>
      <trkpt lat="47.25928" lon="3.65435">
        <ele>206</ele>
        <time>2022-06-03T21:02:23Z</time>
      </trkpt>
      <trkpt lat="47.25885" lon="3.65497">
        <ele>204</ele>
        <time>2022-06-03T21:02:34Z</time>
      </trkpt>
      <trkpt lat="47.25395" lon="3.66088">
        <ele>212</ele>
        <time>2022-06-03T21:04:26Z</time>
      </trkpt>
      <trkpt lat="47.25238" lon="3.66273">
        <ele>216</ele>
        <time>2022-06-03T21:05:02Z</time>
      </trkpt>
      <trkpt lat="47.25211" lon="3.66308">
        <ele>216</ele>
        <time>2022-06-03T21:05:09Z</time>
      </trkpt>
      <trkpt lat="47.25185" lon="3.66351">
        <ele>216</ele>
        <time>2022-06-03T21:05:15Z</time>
      </trkpt>
      <trkpt lat="47.25165" lon="3.664">
        <ele>218</ele>
        <time>2022-06-03T21:05:22Z</time>
      </trkpt>
      <trkpt lat="47.25147" lon="3.66458">
        <ele>220</ele>
        <time>2022-06-03T21:05:30Z</time>
      </trkpt>
      <trkpt lat="47.25136" lon="3.66525">
        <ele>222</ele>
        <time>2022-06-03T21:05:38Z</time>
      </trkpt>
      <trkpt lat="47.25133" lon="3.66584">
        <ele>223</ele>
        <time>2022-06-03T21:05:46Z</time>
      </trkpt>
      <trkpt lat="47.25136" lon="3.66639">
        <ele>223</ele>
        <time>2022-06-03T21:05:52Z</time>
      </trkpt>
      <trkpt lat="47.25143" lon="3.66688">
        <ele>224</ele>
        <time>2022-06-03T21:05:58Z</time>
      </trkpt>
      <trkpt lat="47.25394" lon="3.67825">
        <ele>212</ele>
        <time>2022-06-03T21:08:23Z</time>
      </trkpt>
      <trkpt lat="47.25399" lon="3.67846">
        <ele>211</ele>
        <time>2022-06-03T21:08:25Z</time>
      </trkpt>
      <trkpt lat="47.25429" lon="3.67932">
        <ele>211</ele>
        <time>2022-06-03T21:08:37Z</time>
      </trkpt>
      <trkpt lat="47.25431" lon="3.67941">
        <ele>211</ele>
        <time>2022-06-03T21:08:38Z</time>
      </trkpt>
      <trkpt lat="47.25427" lon="3.67943">
        <ele>211</ele>
        <time>2022-06-03T21:08:39Z</time>
      </trkpt>
      <trkpt lat="47.25424" lon="3.67953">
        <ele>211</ele>
        <time>2022-06-03T21:08:40Z</time>
      </trkpt>
      <trkpt lat="47.25424" lon="3.67958">
        <ele>211</ele>
        <time>2022-06-03T21:08:41Z</time>
      </trkpt>
      <trkpt lat="47.25429" lon="3.67967">
        <ele>210</ele>
        <time>2022-06-03T21:08:42Z</time>
      </trkpt>
      <trkpt lat="47.25436" lon="3.67967">
        <ele>210</ele>
        <time>2022-06-03T21:08:44Z</time>
      </trkpt>
      <trkpt lat="47.25439" lon="3.67965">
        <ele>210</ele>
        <time>2022-06-03T21:08:44Z</time>
      </trkpt>
      <trkpt lat="47.25451" lon="3.67988">
        <ele>209</ele>
        <time>2022-06-03T21:08:48Z</time>
      </trkpt>
      <trkpt lat="47.25471" lon="3.68019">
        <ele>208</ele>
        <time>2022-06-03T21:08:53Z</time>
      </trkpt>
      <trkpt lat="47.25534" lon="3.68124">
        <ele>206</ele>
        <time>2022-06-03T21:09:10Z</time>
      </trkpt>
      <trkpt lat="47.2553" lon="3.68126">
        <ele>206</ele>
        <time>2022-06-03T21:09:10Z</time>
      </trkpt>
      <trkpt lat="47.2551" lon="3.68149">
        <ele>206</ele>
        <time>2022-06-03T21:09:15Z</time>
      </trkpt>
      <trkpt lat="47.25523" lon="3.68186">
        <ele>205</ele>
        <time>2022-06-03T21:09:20Z</time>
      </trkpt>
      <trkpt lat="47.25546" lon="3.68239">
        <ele>204</ele>
        <time>2022-06-03T21:09:28Z</time>
      </trkpt>
      <trkpt lat="47.25576" lon="3.68355">
        <ele>201</ele>
        <time>2022-06-03T21:09:43Z</time>
      </trkpt>
      <trkpt lat="47.25594" lon="3.68408">
        <ele>199</ele>
        <time>2022-06-03T21:09:50Z</time>
      </trkpt>
      <trkpt lat="47.25594" lon="3.68425">
        <ele>199</ele>
        <time>2022-06-03T21:09:52Z</time>
      </trkpt>
      <trkpt lat="47.256" lon="3.68434">
        <ele>199</ele>
        <time>2022-06-03T21:09:53Z</time>
      </trkpt>
      <trkpt lat="47.25615" lon="3.68481">
        <ele>199</ele>
        <time>2022-06-03T21:10:00Z</time>
      </trkpt>
      <trkpt lat="47.25619" lon="3.68501">
        <ele>198</ele>
        <time>2022-06-03T21:10:02Z</time>
      </trkpt>
      <trkpt lat="47.25624" lon="3.68515">
        <ele>198</ele>
        <time>2022-06-03T21:10:04Z</time>
      </trkpt>
      <trkpt lat="47.2563" lon="3.68526">
        <ele>198</ele>
        <time>2022-06-03T21:10:06Z</time>
      </trkpt>
      <trkpt lat="47.25599" lon="3.68565">
        <ele>197</ele>
        <time>2022-06-03T21:10:13Z</time>
      </trkpt>
      <trkpt lat="47.25574" lon="3.68592">
        <ele>196</ele>
        <time>2022-06-03T21:10:18Z</time>
      </trkpt>
      <trkpt lat="47.25521" lon="3.68629">
        <ele>196</ele>
        <time>2022-06-03T21:10:29Z</time>
      </trkpt>
      <trkpt lat="47.25423" lon="3.68685">
        <ele>198</ele>
        <time>2022-06-03T21:10:48Z</time>
      </trkpt>
      <trkpt lat="47.25399" lon="3.68703">
        <ele>198</ele>
        <time>2022-06-03T21:10:52Z</time>
      </trkpt>
      <trkpt lat="47.25356" lon="3.68743">
        <ele>199</ele>
        <time>2022-06-03T21:11:01Z</time>
      </trkpt>
      <trkpt lat="47.25266" lon="3.68809">
        <ele>201</ele>
        <time>2022-06-03T21:11:19Z</time>
      </trkpt>
      <trkpt lat="47.25165" lon="3.68898">
        <ele>202</ele>
        <time>2022-06-03T21:11:40Z</time>
      </trkpt>
      <trkpt lat="47.25113" lon="3.68951">
        <ele>203</ele>
        <time>2022-06-03T21:11:52Z</time>
      </trkpt>
      <trkpt lat="47.2501" lon="3.69064">
        <ele>208</ele>
        <time>2022-06-03T21:12:14Z</time>
      </trkpt>
      <trkpt lat="47.24944" lon="3.69112">
        <ele>211</ele>
        <time>2022-06-03T21:12:27Z</time>
      </trkpt>
      <trkpt lat="47.24848" lon="3.69196">
        <ele>209</ele>
        <time>2022-06-03T21:12:47Z</time>
      </trkpt>
      <trkpt lat="47.24826" lon="3.69207">
        <ele>208</ele>
        <time>2022-06-03T21:12:51Z</time>
      </trkpt>
      <trkpt lat="47.24764" lon="3.69213">
        <ele>208</ele>
        <time>2022-06-03T21:13:03Z</time>
      </trkpt>
      <trkpt lat="47.24752" lon="3.69221">
        <ele>208</ele>
        <time>2022-06-03T21:13:05Z</time>
      </trkpt>
      <trkpt lat="47.24666" lon="3.6932">
        <ele>210</ele>
        <time>2022-06-03T21:13:24Z</time>
      </trkpt>
      <trkpt lat="47.24628" lon="3.69355">
        <ele>213</ele>
        <time>2022-06-03T21:13:32Z</time>
      </trkpt>
      <trkpt lat="47.24566" lon="3.69403">
        <ele>217</ele>
        <time>2022-06-03T21:13:45Z</time>
      </trkpt>
      <trkpt lat="47.24525" lon="3.69446">
        <ele>219</ele>
        <time>2022-06-03T21:13:54Z</time>
      </trkpt>
      <trkpt lat="47.24446" lon="3.69549">
        <ele>215</ele>
        <time>2022-06-03T21:14:12Z</time>
      </trkpt>
      <trkpt lat="47.2443" lon="3.69577">
        <ele>213</ele>
        <time>2022-06-03T21:14:17Z</time>
      </trkpt>
      <trkpt lat="47.24421" lon="3.6961">
        <ele>212</ele>
        <time>2022-06-03T21:14:21Z</time>
      </trkpt>
      <trkpt lat="47.24418" lon="3.69646">
        <ele>211</ele>
        <time>2022-06-03T21:14:26Z</time>
      </trkpt>
      <trkpt lat="47.24417" lon="3.69742">
        <ele>212</ele>
        <time>2022-06-03T21:14:37Z</time>
      </trkpt>
      <trkpt lat="47.24415" lon="3.69795">
        <ele>211</ele>
        <time>2022-06-03T21:14:44Z</time>
      </trkpt>
      <trkpt lat="47.24396" lon="3.69843">
        <ele>210</ele>
        <time>2022-06-03T21:14:50Z</time>
      </trkpt>
      <trkpt lat="47.24368" lon="3.69881">
        <ele>208</ele>
        <time>2022-06-03T21:14:57Z</time>
      </trkpt>
      <trkpt lat="47.24256" lon="3.69997">
        <ele>207</ele>
        <time>2022-06-03T21:15:21Z</time>
      </trkpt>
      <trkpt lat="47.24222" lon="3.70043">
        <ele>208</ele>
        <time>2022-06-03T21:15:30Z</time>
      </trkpt>
      <trkpt lat="47.24193" lon="3.70087">
        <ele>208</ele>
        <time>2022-06-03T21:15:37Z</time>
      </trkpt>
      <trkpt lat="47.24153" lon="3.70155">
        <ele>207</ele>
        <time>2022-06-03T21:15:48Z</time>
      </trkpt>
      <trkpt lat="47.24109" lon="3.70249">
        <ele>205</ele>
        <time>2022-06-03T21:16:02Z</time>
      </trkpt>
      <trkpt lat="47.24013" lon="3.70475">
        <ele>207</ele>
        <time>2022-06-03T21:16:34Z</time>
      </trkpt>
      <trkpt lat="47.23795" lon="3.70986">
        <ele>202</ele>
        <time>2022-06-03T21:17:47Z</time>
      </trkpt>
      <trkpt lat="47.23759" lon="3.7108">
        <ele>203</ele>
        <time>2022-06-03T21:18:00Z</time>
      </trkpt>
      <trkpt lat="47.23647" lon="3.71314">
        <ele>208</ele>
        <time>2022-06-03T21:18:34Z</time>
      </trkpt>
      <trkpt lat="47.23585" lon="3.71449">
        <ele>211</ele>
        <time>2022-06-03T21:18:54Z</time>
      </trkpt>
      <trkpt lat="47.23478" lon="3.71646">
        <ele>216</ele>
        <time>2022-06-03T21:19:25Z</time>
      </trkpt>
      <trkpt lat="47.23329" lon="3.7193">
        <ele>221</ele>
        <time>2022-06-03T21:20:08Z</time>
      </trkpt>
      <trkpt lat="47.23227" lon="3.72118">
        <ele>221</ele>
        <time>2022-06-03T21:20:37Z</time>
      </trkpt>
      <trkpt lat="47.23203" lon="3.72158">
        <ele>219</ele>
        <time>2022-06-03T21:20:43Z</time>
      </trkpt>
      <trkpt lat="47.23069" lon="3.72291">
        <ele>223</ele>
        <time>2022-06-03T21:21:12Z</time>
      </trkpt>
      <trkpt lat="47.22924" lon="3.72508">
        <ele>229</ele>
        <time>2022-06-03T21:21:49Z</time>
      </trkpt>
      <trkpt lat="47.22907" lon="3.72531">
        <ele>230</ele>
        <time>2022-06-03T21:21:53Z</time>
      </trkpt>
      <trkpt lat="47.22886" lon="3.72551">
        <ele>230</ele>
        <time>2022-06-03T21:21:58Z</time>
      </trkpt>
      <trkpt lat="47.22738" lon="3.72655">
        <ele>234</ele>
        <time>2022-06-03T21:22:27Z</time>
      </trkpt>
      <trkpt lat="47.22583" lon="3.72792">
        <ele>236</ele>
        <time>2022-06-03T21:22:59Z</time>
      </trkpt>
      <trkpt lat="47.22533" lon="3.72815">
        <ele>238</ele>
        <time>2022-06-03T21:23:08Z</time>
      </trkpt>
      <trkpt lat="47.22462" lon="3.72843">
        <ele>241</ele>
        <time>2022-06-03T21:23:21Z</time>
      </trkpt>
      <trkpt lat="47.22385" lon="3.72905">
        <ele>245</ele>
        <time>2022-06-03T21:23:37Z</time>
      </trkpt>
      <trkpt lat="47.22326" lon="3.72948">
        <ele>245</ele>
        <time>2022-06-03T21:23:49Z</time>
      </trkpt>
      <trkpt lat="47.22299" lon="3.72963">
        <ele>247</ele>
        <time>2022-06-03T21:23:54Z</time>
      </trkpt>
      <trkpt lat="47.22281" lon="3.72985">
        <ele>248</ele>
        <time>2022-06-03T21:23:58Z</time>
      </trkpt>
      <trkpt lat="47.22267" lon="3.73019">
        <ele>248</ele>
        <time>2022-06-03T21:24:03Z</time>
      </trkpt>
      <trkpt lat="47.22251" lon="3.73066">
        <ele>248</ele>
        <time>2022-06-03T21:24:09Z</time>
      </trkpt>
      <trkpt lat="47.2223" lon="3.73099">
        <ele>250</ele>
        <time>2022-06-03T21:24:15Z</time>
      </trkpt>
      <trkpt lat="47.22211" lon="3.73122">
        <ele>253</ele>
        <time>2022-06-03T21:24:19Z</time>
      </trkpt>
      <trkpt lat="47.22192" lon="3.73161">
        <ele>257</ele>
        <time>2022-06-03T21:24:25Z</time>
      </trkpt>
      <trkpt lat="47.22134" lon="3.7329">
        <ele>258</ele>
        <time>2022-06-03T21:24:43Z</time>
      </trkpt>
      <trkpt lat="47.22054" lon="3.73404">
        <ele>252</ele>
        <time>2022-06-03T21:25:03Z</time>
      </trkpt>
      <trkpt lat="47.21984" lon="3.73463">
        <ele>250</ele>
        <time>2022-06-03T21:25:18Z</time>
      </trkpt>
      <trkpt lat="47.21886" lon="3.73543">
        <ele>254</ele>
        <time>2022-06-03T21:25:38Z</time>
      </trkpt>
      <trkpt lat="47.21841" lon="3.73608">
        <ele>258</ele>
        <time>2022-06-03T21:25:49Z</time>
      </trkpt>
      <trkpt lat="47.21831" lon="3.7362">
        <ele>258</ele>
        <time>2022-06-03T21:25:51Z</time>
      </trkpt>
      <trkpt lat="47.21823" lon="3.73627">
        <ele>259</ele>
        <time>2022-06-03T21:25:53Z</time>
      </trkpt>
      <trkpt lat="47.21667" lon="3.73725">
        <ele>272</ele>
        <time>2022-06-03T21:26:23Z</time>
      </trkpt>
      <trkpt lat="47.21545" lon="3.73852">
        <ele>276</ele>
        <time>2022-06-03T21:26:49Z</time>
      </trkpt>
      <trkpt lat="47.21382" lon="3.74032">
        <ele>283</ele>
        <time>2022-06-03T21:27:26Z</time>
      </trkpt>
      <trkpt lat="47.21299" lon="3.74118">
        <ele>286</ele>
        <time>2022-06-03T21:27:44Z</time>
      </trkpt>
      <trkpt lat="47.21026" lon="3.74432">
        <ele>289</ele>
        <time>2022-06-03T21:28:45Z</time>
      </trkpt>
      <trkpt lat="47.20812" lon="3.74017">
        <ele>286</ele>
        <time>2022-06-03T21:29:48Z</time>
      </trkpt>
      <trkpt lat="47.20682" lon="3.73762">
        <ele>289</ele>
        <time>2022-06-03T21:30:27Z</time>
      </trkpt>
      <trkpt lat="47.20608" lon="3.73613">
        <ele>286</ele>
        <time>2022-06-03T21:30:49Z</time>
      </trkpt>
      <trkpt lat="47.20582" lon="3.73577">
        <ele>285</ele>
        <time>2022-06-03T21:30:56Z</time>
      </trkpt>
      <trkpt lat="47.20557" lon="3.73573">
        <ele>284</ele>
        <time>2022-06-03T21:31:00Z</time>
      </trkpt>
      <trkpt lat="47.20361" lon="3.73573">
        <ele>282</ele>
        <time>2022-06-03T21:31:35Z</time>
      </trkpt>
      <trkpt lat="47.20204" lon="3.73565">
        <ele>272</ele>
        <time>2022-06-03T21:32:03Z</time>
      </trkpt>
      <trkpt lat="47.20128" lon="3.73567">
        <ele>266</ele>
        <time>2022-06-03T21:32:16Z</time>
      </trkpt>
      <trkpt lat="47.20086" lon="3.73608">
        <ele>265</ele>
        <time>2022-06-03T21:32:25Z</time>
      </trkpt>
      <trkpt lat="47.19987" lon="3.73596">
        <ele>260</ele>
        <time>2022-06-03T21:32:43Z</time>
      </trkpt>
      <trkpt lat="47.19794" lon="3.73567">
        <ele>258</ele>
        <time>2022-06-03T21:33:18Z</time>
      </trkpt>
      <trkpt lat="47.19342" lon="3.73516">
        <ele>240</ele>
        <time>2022-06-03T21:34:38Z</time>
      </trkpt>
      <trkpt lat="47.19232" lon="3.73499">
        <ele>236</ele>
        <time>2022-06-03T21:34:58Z</time>
      </trkpt>
      <trkpt lat="47.19158" lon="3.73516">
        <ele>235</ele>
        <time>2022-06-03T21:35:11Z</time>
      </trkpt>
      <trkpt lat="47.18943" lon="3.73591">
        <ele>230</ele>
        <time>2022-06-03T21:35:51Z</time>
      </trkpt>
      <trkpt lat="47.18824" lon="3.73622">
        <ele>229</ele>
        <time>2022-06-03T21:36:12Z</time>
      </trkpt>
      <trkpt lat="47.18773" lon="3.73622">
        <ele>229</ele>
        <time>2022-06-03T21:36:21Z</time>
      </trkpt>
      <trkpt lat="47.18567" lon="3.73503">
        <ele>223</ele>
        <time>2022-06-03T21:37:01Z</time>
      </trkpt>
      <trkpt lat="47.18413" lon="3.73606">
        <ele>225</ele>
        <time>2022-06-03T21:37:31Z</time>
      </trkpt>
      <trkpt lat="47.18301" lon="3.73688">
        <ele>228</ele>
        <time>2022-06-03T21:37:53Z</time>
      </trkpt>
      <trkpt lat="47.18267" lon="3.73721">
        <ele>230</ele>
        <time>2022-06-03T21:38:00Z</time>
      </trkpt>
      <trkpt lat="47.18225" lon="3.73831">
        <ele>233</ele>
        <time>2022-06-03T21:38:15Z</time>
      </trkpt>
      <trkpt lat="47.18" lon="3.74178">
        <ele>230</ele>
        <time>2022-06-03T21:39:13Z</time>
      </trkpt>
      <trkpt lat="47.17876" lon="3.74265">
        <ele>229</ele>
        <time>2022-06-03T21:39:38Z</time>
      </trkpt>
      <trkpt lat="47.17692" lon="3.744">
        <ele>231</ele>
        <time>2022-06-03T21:40:14Z</time>
      </trkpt>
      <trkpt lat="47.17632" lon="3.74497">
        <ele>236</ele>
        <time>2022-06-03T21:40:30Z</time>
      </trkpt>
      <trkpt lat="47.17606" lon="3.74552">
        <ele>236</ele>
        <time>2022-06-03T21:40:38Z</time>
      </trkpt>
      <trkpt lat="47.176" lon="3.74593">
        <ele>236</ele>
        <time>2022-06-03T21:40:43Z</time>
      </trkpt>
      <trkpt lat="47.17609" lon="3.74636">
        <ele>236</ele>
        <time>2022-06-03T21:40:49Z</time>
      </trkpt>
      <trkpt lat="47.1763" lon="3.74674">
        <ele>238</ele>
        <time>2022-06-03T21:40:55Z</time>
      </trkpt>
      <trkpt lat="47.17926" lon="3.74923">
        <ele>241</ele>
        <time>2022-06-03T21:41:55Z</time>
      </trkpt>
      <trkpt lat="47.1799" lon="3.74987">
        <ele>243</ele>
        <time>2022-06-03T21:42:09Z</time>
      </trkpt>
      <trkpt lat="47.18164" lon="3.75211">
        <ele>246</ele>
        <time>2022-06-03T21:42:50Z</time>
      </trkpt>
      <trkpt lat="47.18213" lon="3.75282">
        <ele>253</ele>
        <time>2022-06-03T21:43:03Z</time>
      </trkpt>
      <trkpt lat="47.18232" lon="3.75333">
        <ele>249</ele>
        <time>2022-06-03T21:43:10Z</time>
      </trkpt>
      <trkpt lat="47.18272" lon="3.75513">
        <ele>238</ele>
        <time>2022-06-03T21:43:33Z</time>
      </trkpt>
      <trkpt lat="47.18276" lon="3.75545">
        <ele>240</ele>
        <time>2022-06-03T21:43:37Z</time>
      </trkpt>
      <trkpt lat="47.18261" lon="3.75588">
        <ele>241</ele>
        <time>2022-06-03T21:43:42Z</time>
      </trkpt>
      <trkpt lat="47.18219" lon="3.75609">
        <ele>241</ele>
        <time>2022-06-03T21:43:50Z</time>
      </trkpt>
      <trkpt lat="47.17965" lon="3.75753">
        <ele>244</ele>
        <time>2022-06-03T21:44:39Z</time>
      </trkpt>
      <trkpt lat="47.17944" lon="3.75797">
        <ele>247</ele>
        <time>2022-06-03T21:44:45Z</time>
      </trkpt>
      <trkpt lat="47.17938" lon="3.75842">
        <ele>249</ele>
        <time>2022-06-03T21:44:51Z</time>
      </trkpt>
      <trkpt lat="47.17944" lon="3.7592">
        <ele>247</ele>
        <time>2022-06-03T21:45:00Z</time>
      </trkpt>
      <trkpt lat="47.17973" lon="3.76109">
        <ele>247</ele>
        <time>2022-06-03T21:45:24Z</time>
      </trkpt>
      <trkpt lat="47.18001" lon="3.76204">
        <ele>247</ele>
        <time>2022-06-03T21:45:36Z</time>
      </trkpt>
      <trkpt lat="47.18031" lon="3.76324">
        <ele>250</ele>
        <time>2022-06-03T21:45:52Z</time>
      </trkpt>
      <trkpt lat="47.18062" lon="3.76564">
        <ele>250</ele>
        <time>2022-06-03T21:46:21Z</time>
      </trkpt>
      <trkpt lat="47.18092" lon="3.76681">
        <ele>248</ele>
        <time>2022-06-03T21:46:36Z</time>
      </trkpt>
      <trkpt lat="47.18138" lon="3.76786">
        <ele>256</ele>
        <time>2022-06-03T21:46:51Z</time>
      </trkpt>
      <trkpt lat="47.18155" lon="3.76858">
        <ele>253</ele>
        <time>2022-06-03T21:47:01Z</time>
      </trkpt>
      <trkpt lat="47.18167" lon="3.77033">
        <ele>250</ele>
        <time>2022-06-03T21:47:22Z</time>
      </trkpt>
      <trkpt lat="47.18158" lon="3.77234">
        <ele>249</ele>
        <time>2022-06-03T21:47:46Z</time>
      </trkpt>
      <trkpt lat="47.18136" lon="3.77342">
        <ele>254</ele>
        <time>2022-06-03T21:48:00Z</time>
      </trkpt>
      <trkpt lat="47.18104" lon="3.77438">
        <ele>250</ele>
        <time>2022-06-03T21:48:13Z</time>
      </trkpt>
      <trkpt lat="47.18042" lon="3.77508">
        <ele>247</ele>
        <time>2022-06-03T21:48:27Z</time>
      </trkpt>
      <trkpt lat="47.18009" lon="3.77557">
        <ele>247</ele>
        <time>2022-06-03T21:48:35Z</time>
      </trkpt>
      <trkpt lat="47.17947" lon="3.77677">
        <ele>251</ele>
        <time>2022-06-03T21:48:53Z</time>
      </trkpt>
      <trkpt lat="47.17926" lon="3.77733">
        <ele>250</ele>
        <time>2022-06-03T21:49:01Z</time>
      </trkpt>
      <trkpt lat="47.17922" lon="3.77789">
        <ele>248</ele>
        <time>2022-06-03T21:49:08Z</time>
      </trkpt>
      <trkpt lat="47.17906" lon="3.77901">
        <ele>241</ele>
        <time>2022-06-03T21:49:22Z</time>
      </trkpt>
      <trkpt lat="47.1776" lon="3.78678">
        <ele>246</ele>
        <time>2022-06-03T21:50:59Z</time>
      </trkpt>
      <trkpt lat="47.17756" lon="3.78727">
        <ele>247</ele>
        <time>2022-06-03T21:51:05Z</time>
      </trkpt>
      <trkpt lat="47.17757" lon="3.7875">
        <ele>248</ele>
        <time>2022-06-03T21:51:08Z</time>
      </trkpt>
      <trkpt lat="47.17762" lon="3.7879">
        <ele>248</ele>
        <time>2022-06-03T21:51:13Z</time>
      </trkpt>
      <trkpt lat="47.17768" lon="3.78813">
        <ele>248</ele>
        <time>2022-06-03T21:51:16Z</time>
      </trkpt>
      <trkpt lat="47.1778" lon="3.78836">
        <ele>249</ele>
        <time>2022-06-03T21:51:19Z</time>
      </trkpt>
      <trkpt lat="47.178" lon="3.78866">
        <ele>250</ele>
        <time>2022-06-03T21:51:24Z</time>
      </trkpt>
      <trkpt lat="47.17832" lon="3.78908">
        <ele>246</ele>
        <time>2022-06-03T21:51:32Z</time>
      </trkpt>
      <trkpt lat="47.17929" lon="3.79016">
        <ele>248</ele>
        <time>2022-06-03T21:51:54Z</time>
      </trkpt>
      <trkpt lat="47.17944" lon="3.79025">
        <ele>249</ele>
        <time>2022-06-03T21:51:57Z</time>
      </trkpt>
      <trkpt lat="47.17958" lon="3.79029">
        <ele>249</ele>
        <time>2022-06-03T21:51:59Z</time>
      </trkpt>
      <trkpt lat="47.17976" lon="3.79025">
        <ele>250</ele>
        <time>2022-06-03T21:52:02Z</time>
      </trkpt>
      <trkpt lat="47.1804" lon="3.78993">
        <ele>257</ele>
        <time>2022-06-03T21:52:14Z</time>
      </trkpt>
      <trkpt lat="47.18053" lon="3.78991">
        <ele>257</ele>
        <time>2022-06-03T21:52:17Z</time>
      </trkpt>
      <trkpt lat="47.18066" lon="3.78991">
        <ele>256</ele>
        <time>2022-06-03T21:52:19Z</time>
      </trkpt>
      <trkpt lat="47.18091" lon="3.79001">
        <ele>254</ele>
        <time>2022-06-03T21:52:24Z</time>
      </trkpt>
      <trkpt lat="47.18105" lon="3.79012">
        <ele>256</ele>
        <time>2022-06-03T21:52:26Z</time>
      </trkpt>
      <trkpt lat="47.18148" lon="3.79058">
        <ele>256</ele>
        <time>2022-06-03T21:52:36Z</time>
      </trkpt>
      <trkpt lat="47.1826" lon="3.79207">
        <ele>256</ele>
        <time>2022-06-03T21:53:03Z</time>
      </trkpt>
      <trkpt lat="47.18276" lon="3.79234">
        <ele>255</ele>
        <time>2022-06-03T21:53:07Z</time>
      </trkpt>
      <trkpt lat="47.18401" lon="3.79507">
        <ele>243</ele>
        <time>2022-06-03T21:53:47Z</time>
      </trkpt>
      <trkpt lat="47.1842" lon="3.79564">
        <ele>244</ele>
        <time>2022-06-03T21:53:55Z</time>
      </trkpt>
      <trkpt lat="47.18435" lon="3.79616">
        <ele>245</ele>
        <time>2022-06-03T21:54:01Z</time>
      </trkpt>
      <trkpt lat="47.18442" lon="3.79661">
        <ele>245</ele>
        <time>2022-06-03T21:54:07Z</time>
      </trkpt>
      <trkpt lat="47.18472" lon="3.79922">
        <ele>244</ele>
        <time>2022-06-03T21:54:39Z</time>
      </trkpt>
      <trkpt lat="47.18475" lon="3.79959">
        <ele>244</ele>
        <time>2022-06-03T21:54:44Z</time>
      </trkpt>
      <trkpt lat="47.18473" lon="3.79986">
        <ele>244</ele>
        <time>2022-06-03T21:54:47Z</time>
      </trkpt>
      <trkpt lat="47.18436" lon="3.80253">
        <ele>247</ele>
        <time>2022-06-03T21:55:20Z</time>
      </trkpt>
      <trkpt lat="47.18417" lon="3.80539">
        <ele>246</ele>
        <time>2022-06-03T21:55:55Z</time>
      </trkpt>
      <trkpt lat="47.18381" lon="3.80952">
        <ele>250</ele>
        <time>2022-06-03T21:56:45Z</time>
      </trkpt>
      <trkpt lat="47.18378" lon="3.8102">
        <ele>250</ele>
        <time>2022-06-03T21:56:53Z</time>
      </trkpt>
      <trkpt lat="47.18383" lon="3.81081">
        <ele>250</ele>
        <time>2022-06-03T21:57:01Z</time>
      </trkpt>
      <trkpt lat="47.18441" lon="3.81392">
        <ele>250</ele>
        <time>2022-06-03T21:57:40Z</time>
      </trkpt>
      <trkpt lat="47.18486" lon="3.81718">
        <ele>257</ele>
        <time>2022-06-03T21:58:20Z</time>
      </trkpt>
      <trkpt lat="47.18487" lon="3.81744">
        <ele>257</ele>
        <time>2022-06-03T21:58:23Z</time>
      </trkpt>
      <trkpt lat="47.18487" lon="3.81759">
        <ele>258</ele>
        <time>2022-06-03T21:58:25Z</time>
      </trkpt>
      <trkpt lat="47.18475" lon="3.81822">
        <ele>259</ele>
        <time>2022-06-03T21:58:33Z</time>
      </trkpt>
      <trkpt lat="47.1847" lon="3.81899">
        <ele>262</ele>
        <time>2022-06-03T21:58:42Z</time>
      </trkpt>
      <trkpt lat="47.18468" lon="3.81913">
        <ele>262</ele>
        <time>2022-06-03T21:58:44Z</time>
      </trkpt>
      <trkpt lat="47.18473" lon="3.81936">
        <ele>265</ele>
        <time>2022-06-03T21:58:47Z</time>
      </trkpt>
      <trkpt lat="47.18474" lon="3.81946">
        <ele>265</ele>
        <time>2022-06-03T21:58:48Z</time>
      </trkpt>
      <trkpt lat="47.18474" lon="3.81969">
        <ele>267</ele>
        <time>2022-06-03T21:58:51Z</time>
      </trkpt>
      <trkpt lat="47.18468" lon="3.8202">
        <ele>270</ele>
        <time>2022-06-03T21:58:57Z</time>
      </trkpt>
      <trkpt lat="47.18468" lon="3.82031">
        <ele>271</ele>
        <time>2022-06-03T21:58:58Z</time>
      </trkpt>
      <trkpt lat="47.18472" lon="3.82039">
        <ele>271</ele>
        <time>2022-06-03T21:58:59Z</time>
      </trkpt>
      <trkpt lat="47.18477" lon="3.82047">
        <ele>273</ele>
        <time>2022-06-03T21:59:01Z</time>
      </trkpt>
      <trkpt lat="47.18481" lon="3.82055">
        <ele>273</ele>
        <time>2022-06-03T21:59:02Z</time>
      </trkpt>
      <trkpt lat="47.18482" lon="3.82066">
        <ele>274</ele>
        <time>2022-06-03T21:59:03Z</time>
      </trkpt>
      <trkpt lat="47.18477" lon="3.82076">
        <ele>274</ele>
        <time>2022-06-03T21:59:05Z</time>
      </trkpt>
      <trkpt lat="47.18462" lon="3.82093">
        <ele>273</ele>
        <time>2022-06-03T21:59:08Z</time>
      </trkpt>
      <trkpt lat="47.18448" lon="3.82117">
        <ele>273</ele>
        <time>2022-06-03T21:59:12Z</time>
      </trkpt>
      <trkpt lat="47.18433" lon="3.82166">
        <ele>275</ele>
        <time>2022-06-03T21:59:18Z</time>
      </trkpt>
      <trkpt lat="47.18427" lon="3.82199">
        <ele>274</ele>
        <time>2022-06-03T21:59:23Z</time>
      </trkpt>
      <trkpt lat="47.18427" lon="3.82225">
        <ele>275</ele>
        <time>2022-06-03T21:59:26Z</time>
      </trkpt>
      <trkpt lat="47.1843" lon="3.82256">
        <ele>275</ele>
        <time>2022-06-03T21:59:30Z</time>
      </trkpt>
      <trkpt lat="47.18458" lon="3.82384">
        <ele>273</ele>
        <time>2022-06-03T21:59:46Z</time>
      </trkpt>
      <trkpt lat="47.18486" lon="3.82525">
        <ele>270</ele>
        <time>2022-06-03T22:00:04Z</time>
      </trkpt>
      <trkpt lat="47.18495" lon="3.82552">
        <ele>270</ele>
        <time>2022-06-03T22:00:07Z</time>
      </trkpt>
      <trkpt lat="47.18514" lon="3.82587">
        <ele>272</ele>
        <time>2022-06-03T22:00:13Z</time>
      </trkpt>
      <trkpt lat="47.18535" lon="3.82635">
        <ele>275</ele>
        <time>2022-06-03T22:00:20Z</time>
      </trkpt>
      <trkpt lat="47.18579" lon="3.8272">
        <ele>282</ele>
        <time>2022-06-03T22:00:32Z</time>
      </trkpt>
      <trkpt lat="47.18598" lon="3.82768">
        <ele>285</ele>
        <time>2022-06-03T22:00:39Z</time>
      </trkpt>
      <trkpt lat="47.18612" lon="3.82825">
        <ele>285</ele>
        <time>2022-06-03T22:00:46Z</time>
      </trkpt>
      <trkpt lat="47.1862" lon="3.82844">
        <ele>285</ele>
        <time>2022-06-03T22:00:49Z</time>
      </trkpt>
      <trkpt lat="47.18633" lon="3.82855">
        <ele>286</ele>
        <time>2022-06-03T22:00:52Z</time>
      </trkpt>
      <trkpt lat="47.18649" lon="3.82862">
        <ele>287</ele>
        <time>2022-06-03T22:00:55Z</time>
      </trkpt>
      <trkpt lat="47.18659" lon="3.82867">
        <ele>288</ele>
        <time>2022-06-03T22:00:57Z</time>
      </trkpt>
      <trkpt lat="47.18671" lon="3.82874">
        <ele>288</ele>
        <time>2022-06-03T22:00:59Z</time>
      </trkpt>
      <trkpt lat="47.18676" lon="3.82877">
        <ele>288</ele>
        <time>2022-06-03T22:01:00Z</time>
      </trkpt>
      <trkpt lat="47.18731" lon="3.8293">
        <ele>285</ele>
        <time>2022-06-03T22:01:12Z</time>
      </trkpt>
      <trkpt lat="47.1875" lon="3.82953">
        <ele>283</ele>
        <time>2022-06-03T22:01:16Z</time>
      </trkpt>
      <trkpt lat="47.18778" lon="3.82999">
        <ele>283</ele>
        <time>2022-06-03T22:01:24Z</time>
      </trkpt>
      <trkpt lat="47.18799" lon="3.83026">
        <ele>283</ele>
        <time>2022-06-03T22:01:28Z</time>
      </trkpt>
      <trkpt lat="47.18837" lon="3.83065">
        <ele>284</ele>
        <time>2022-06-03T22:01:37Z</time>
      </trkpt>
      <trkpt lat="47.18865" lon="3.83078">
        <ele>283</ele>
        <time>2022-06-03T22:01:42Z</time>
      </trkpt>
      <trkpt lat="47.18978" lon="3.83114">
        <ele>287</ele>
        <time>2022-06-03T22:02:03Z</time>
      </trkpt>
      <trkpt lat="47.18991" lon="3.83121">
        <ele>288</ele>
        <time>2022-06-03T22:02:05Z</time>
      </trkpt>
      <trkpt lat="47.19001" lon="3.83129">
        <ele>289</ele>
        <time>2022-06-03T22:02:07Z</time>
      </trkpt>
      <trkpt lat="47.19032" lon="3.83175">
        <ele>296</ele>
        <time>2022-06-03T22:02:15Z</time>
      </trkpt>
      <trkpt lat="47.19049" lon="3.83205">
        <ele>299</ele>
        <time>2022-06-03T22:02:20Z</time>
      </trkpt>
      <trkpt lat="47.19123" lon="3.83298">
        <ele>303</ele>
        <time>2022-06-03T22:02:37Z</time>
      </trkpt>
      <trkpt lat="47.19157" lon="3.83349">
        <ele>301</ele>
        <time>2022-06-03T22:02:46Z</time>
      </trkpt>
      <trkpt lat="47.19167" lon="3.83376">
        <ele>298</ele>
        <time>2022-06-03T22:02:49Z</time>
      </trkpt>
      <trkpt lat="47.19171" lon="3.83406">
        <ele>296</ele>
        <time>2022-06-03T22:02:53Z</time>
      </trkpt>
      <trkpt lat="47.19171" lon="3.83433">
        <ele>296</ele>
        <time>2022-06-03T22:02:56Z</time>
      </trkpt>
      <trkpt lat="47.19177" lon="3.83459">
        <ele>297</ele>
        <time>2022-06-03T22:03:00Z</time>
      </trkpt>
      <trkpt lat="47.19182" lon="3.83475">
        <ele>298</ele>
        <time>2022-06-03T22:03:02Z</time>
      </trkpt>
      <trkpt lat="47.19204" lon="3.83521">
        <ele>303</ele>
        <time>2022-06-03T22:03:08Z</time>
      </trkpt>
      <trkpt lat="47.19208" lon="3.83543">
        <ele>304</ele>
        <time>2022-06-03T22:03:11Z</time>
      </trkpt>
      <trkpt lat="47.19211" lon="3.83572">
        <ele>305</ele>
        <time>2022-06-03T22:03:15Z</time>
      </trkpt>
      <trkpt lat="47.19218" lon="3.83721">
        <ele>312</ele>
        <time>2022-06-03T22:03:33Z</time>
      </trkpt>
      <trkpt lat="47.19223" lon="3.83741">
        <ele>312</ele>
        <time>2022-06-03T22:03:35Z</time>
      </trkpt>
      <trkpt lat="47.19231" lon="3.83758">
        <ele>312</ele>
        <time>2022-06-03T22:03:38Z</time>
      </trkpt>
      <trkpt lat="47.19352" lon="3.83902">
        <ele>322</ele>
        <time>2022-06-03T22:04:06Z</time>
      </trkpt>
      <trkpt lat="47.19371" lon="3.83907">
        <ele>324</ele>
        <time>2022-06-03T22:04:09Z</time>
      </trkpt>
      <trkpt lat="47.19382" lon="3.83907">
        <ele>325</ele>
        <time>2022-06-03T22:04:11Z</time>
      </trkpt>
      <trkpt lat="47.19397" lon="3.83905">
        <ele>327</ele>
        <time>2022-06-03T22:04:14Z</time>
      </trkpt>
      <trkpt lat="47.19417" lon="3.83896">
        <ele>331</ele>
        <time>2022-06-03T22:04:17Z</time>
      </trkpt>
      <trkpt lat="47.19432" lon="3.83893">
        <ele>332</ele>
        <time>2022-06-03T22:04:20Z</time>
      </trkpt>
      <trkpt lat="47.19463" lon="3.83893">
        <ele>336</ele>
        <time>2022-06-03T22:04:26Z</time>
      </trkpt>
      <trkpt lat="47.19562" lon="3.8392">
        <ele>346</ele>
        <time>2022-06-03T22:04:43Z</time>
      </trkpt>
      <trkpt lat="47.19575" lon="3.83926">
        <ele>348</ele>
        <time>2022-06-03T22:04:46Z</time>
      </trkpt>
      <trkpt lat="47.19588" lon="3.8394">
        <ele>349</ele>
        <time>2022-06-03T22:04:49Z</time>
      </trkpt>
      <trkpt lat="47.19599" lon="3.83982">
        <ele>348</ele>
        <time>2022-06-03T22:04:54Z</time>
      </trkpt>
      <trkpt lat="47.19601" lon="3.83999">
        <ele>348</ele>
        <time>2022-06-03T22:04:56Z</time>
      </trkpt>
      <trkpt lat="47.19607" lon="3.84042">
        <ele>349</ele>
        <time>2022-06-03T22:05:02Z</time>
      </trkpt>
      <trkpt lat="47.1961" lon="3.84059">
        <ele>349</ele>
        <time>2022-06-03T22:05:04Z</time>
      </trkpt>
      <trkpt lat="47.19619" lon="3.84115">
        <ele>351</ele>
        <time>2022-06-03T22:05:11Z</time>
      </trkpt>
      <trkpt lat="47.19655" lon="3.84285">
        <ele>360</ele>
        <time>2022-06-03T22:05:32Z</time>
      </trkpt>
      <trkpt lat="47.19664" lon="3.84315">
        <ele>362</ele>
        <time>2022-06-03T22:05:36Z</time>
      </trkpt>
      <trkpt lat="47.19678" lon="3.84341">
        <ele>363</ele>
        <time>2022-06-03T22:05:40Z</time>
      </trkpt>
      <trkpt lat="47.19694" lon="3.84361">
        <ele>365</ele>
        <time>2022-06-03T22:05:44Z</time>
      </trkpt>
      <trkpt lat="47.19757" lon="3.84421">
        <ele>373</ele>
        <time>2022-06-03T22:05:57Z</time>
      </trkpt>
      <trkpt lat="47.19784" lon="3.84451">
        <ele>375</ele>
        <time>2022-06-03T22:06:03Z</time>
      </trkpt>
      <trkpt lat="47.19809" lon="3.84482">
        <ele>378</ele>
        <time>2022-06-03T22:06:09Z</time>
      </trkpt>
      <trkpt lat="47.19901" lon="3.84607">
        <ele>391</ele>
        <time>2022-06-03T22:06:31Z</time>
      </trkpt>
      <trkpt lat="47.19911" lon="3.84623">
        <ele>393</ele>
        <time>2022-06-03T22:06:34Z</time>
      </trkpt>
      <trkpt lat="47.19918" lon="3.84647">
        <ele>395</ele>
        <time>2022-06-03T22:06:37Z</time>
      </trkpt>
      <trkpt lat="47.19933" lon="3.84719">
        <ele>396</ele>
        <time>2022-06-03T22:06:46Z</time>
      </trkpt>
      <trkpt lat="47.19946" lon="3.84769">
        <ele>394</ele>
        <time>2022-06-03T22:06:53Z</time>
      </trkpt>
      <trkpt lat="47.19952" lon="3.84791">
        <ele>393</ele>
        <time>2022-06-03T22:06:56Z</time>
      </trkpt>
      <trkpt lat="47.19958" lon="3.84808">
        <ele>391</ele>
        <time>2022-06-03T22:06:58Z</time>
      </trkpt>
      <trkpt lat="47.19968" lon="3.8482">
        <ele>390</ele>
        <time>2022-06-03T22:07:00Z</time>
      </trkpt>
      <trkpt lat="47.19979" lon="3.84827">
        <ele>389</ele>
        <time>2022-06-03T22:07:02Z</time>
      </trkpt>
      <trkpt lat="47.19991" lon="3.8483">
        <ele>389</ele>
        <time>2022-06-03T22:07:05Z</time>
      </trkpt>
      <trkpt lat="47.20003" lon="3.84825">
        <ele>389</ele>
        <time>2022-06-03T22:07:07Z</time>
      </trkpt>
      <trkpt lat="47.2003" lon="3.8481">
        <ele>389</ele>
        <time>2022-06-03T22:07:12Z</time>
      </trkpt>
      <trkpt lat="47.2004" lon="3.84809">
        <ele>388</ele>
        <time>2022-06-03T22:07:14Z</time>
      </trkpt>
      <trkpt lat="47.20051" lon="3.84813">
        <ele>387</ele>
        <time>2022-06-03T22:07:16Z</time>
      </trkpt>
      <trkpt lat="47.20052" lon="3.84813">
        <ele>387</ele>
        <time>2022-06-03T22:07:16Z</time>
      </trkpt>
      <trkpt lat="47.20074" lon="3.84815">
        <ele>386</ele>
        <time>2022-06-03T22:07:20Z</time>
      </trkpt>
      <trkpt lat="47.20093" lon="3.84813">
        <ele>387</ele>
        <time>2022-06-03T22:07:23Z</time>
      </trkpt>
      <trkpt lat="47.20105" lon="3.84815">
        <ele>388</ele>
        <time>2022-06-03T22:07:25Z</time>
      </trkpt>
      <trkpt lat="47.20113" lon="3.84824">
        <ele>388</ele>
        <time>2022-06-03T22:07:27Z</time>
      </trkpt>
      <trkpt lat="47.20118" lon="3.84843">
        <ele>386</ele>
        <time>2022-06-03T22:07:30Z</time>
      </trkpt>
      <trkpt lat="47.2013" lon="3.8499">
        <ele>371</ele>
        <time>2022-06-03T22:07:47Z</time>
      </trkpt>
      <trkpt lat="47.20139" lon="3.85015">
        <ele>368</ele>
        <time>2022-06-03T22:07:51Z</time>
      </trkpt>
      <trkpt lat="47.20154" lon="3.85046">
        <ele>366</ele>
        <time>2022-06-03T22:07:56Z</time>
      </trkpt>
      <trkpt lat="47.20183" lon="3.85098">
        <ele>361</ele>
        <time>2022-06-03T22:08:04Z</time>
      </trkpt>
      <trkpt lat="47.20223" lon="3.85161">
        <ele>358</ele>
        <time>2022-06-03T22:08:14Z</time>
      </trkpt>
      <trkpt lat="47.20243" lon="3.85203">
        <ele>358</ele>
        <time>2022-06-03T22:08:20Z</time>
      </trkpt>
      <trkpt lat="47.20257" lon="3.85228">
        <ele>357</ele>
        <time>2022-06-03T22:08:24Z</time>
      </trkpt>
      <trkpt lat="47.20316" lon="3.85323">
        <ele>348</ele>
        <time>2022-06-03T22:08:40Z</time>
      </trkpt>
      <trkpt lat="47.20369" lon="3.85432">
        <ele>348</ele>
        <time>2022-06-03T22:08:56Z</time>
      </trkpt>
      <trkpt lat="47.20381" lon="3.85466">
        <ele>349</ele>
        <time>2022-06-03T22:09:01Z</time>
      </trkpt>
      <trkpt lat="47.20389" lon="3.8548">
        <ele>348</ele>
        <time>2022-06-03T22:09:03Z</time>
      </trkpt>
      <trkpt lat="47.20391" lon="3.85482">
        <ele>348</ele>
        <time>2022-06-03T22:09:03Z</time>
      </trkpt>
      <trkpt lat="47.20421" lon="3.85505">
        <ele>344</ele>
        <time>2022-06-03T22:09:09Z</time>
      </trkpt>
      <trkpt lat="47.20436" lon="3.85522">
        <ele>345</ele>
        <time>2022-06-03T22:09:13Z</time>
      </trkpt>
      <trkpt lat="47.2046" lon="3.8556">
        <ele>347</ele>
        <time>2022-06-03T22:09:19Z</time>
      </trkpt>
      <trkpt lat="47.20492" lon="3.85585">
        <ele>349</ele>
        <time>2022-06-03T22:09:25Z</time>
      </trkpt>
      <trkpt lat="47.20536" lon="3.856">
        <ele>354</ele>
        <time>2022-06-03T22:09:33Z</time>
      </trkpt>
      <trkpt lat="47.2056" lon="3.85603">
        <ele>357</ele>
        <time>2022-06-03T22:09:38Z</time>
      </trkpt>
      <trkpt lat="47.2059" lon="3.85605">
        <ele>360</ele>
        <time>2022-06-03T22:09:43Z</time>
      </trkpt>
      <trkpt lat="47.20658" lon="3.856">
        <ele>368</ele>
        <time>2022-06-03T22:09:55Z</time>
      </trkpt>
      <trkpt lat="47.20687" lon="3.85606">
        <ele>371</ele>
        <time>2022-06-03T22:10:00Z</time>
      </trkpt>
      <trkpt lat="47.20719" lon="3.85616">
        <ele>374</ele>
        <time>2022-06-03T22:10:06Z</time>
      </trkpt>
      <trkpt lat="47.20707" lon="3.85632">
        <ele>373</ele>
        <time>2022-06-03T22:10:09Z</time>
      </trkpt>
      <trkpt lat="47.20699" lon="3.85683">
        <ele>372</ele>
        <time>2022-06-03T22:10:15Z</time>
      </trkpt>
      <trkpt lat="47.20692" lon="3.85713">
        <ele>370</ele>
        <time>2022-06-03T22:10:19Z</time>
      </trkpt>
      <trkpt lat="47.20712" lon="3.8575">
        <ele>369</ele>
        <time>2022-06-03T22:10:25Z</time>
      </trkpt>
      <trkpt lat="47.20776" lon="3.85841">
        <ele>368</ele>
        <time>2022-06-03T22:10:41Z</time>
      </trkpt>
      <trkpt lat="47.20787" lon="3.85868">
        <ele>367</ele>
        <time>2022-06-03T22:10:45Z</time>
      </trkpt>
      <trkpt lat="47.20791" lon="3.85895">
        <ele>365</ele>
        <time>2022-06-03T22:10:48Z</time>
      </trkpt>
      <trkpt lat="47.20793" lon="3.85932">
        <ele>364</ele>
        <time>2022-06-03T22:10:52Z</time>
      </trkpt>
      <trkpt lat="47.20791" lon="3.86054">
        <ele>361</ele>
        <time>2022-06-03T22:11:07Z</time>
      </trkpt>
      <trkpt lat="47.20792" lon="3.86149">
        <ele>362</ele>
        <time>2022-06-03T22:11:19Z</time>
      </trkpt>
      <trkpt lat="47.20804" lon="3.86217">
        <ele>363</ele>
        <time>2022-06-03T22:11:27Z</time>
      </trkpt>
      <trkpt lat="47.20808" lon="3.86249">
        <ele>364</ele>
        <time>2022-06-03T22:11:31Z</time>
      </trkpt>
      <trkpt lat="47.20807" lon="3.86273">
        <ele>363</ele>
        <time>2022-06-03T22:11:34Z</time>
      </trkpt>
      <trkpt lat="47.20802" lon="3.86321">
        <ele>362</ele>
        <time>2022-06-03T22:11:40Z</time>
      </trkpt>
      <trkpt lat="47.20796" lon="3.86356">
        <ele>363</ele>
        <time>2022-06-03T22:11:44Z</time>
      </trkpt>
      <trkpt lat="47.2079" lon="3.86381">
        <ele>363</ele>
        <time>2022-06-03T22:11:47Z</time>
      </trkpt>
      <trkpt lat="47.20769" lon="3.86419">
        <ele>363</ele>
        <time>2022-06-03T22:11:53Z</time>
      </trkpt>
      <trkpt lat="47.20739" lon="3.86477">
        <ele>365</ele>
        <time>2022-06-03T22:12:02Z</time>
      </trkpt>
      <trkpt lat="47.20719" lon="3.86536">
        <ele>367</ele>
        <time>2022-06-03T22:12:10Z</time>
      </trkpt>
      <trkpt lat="47.20688" lon="3.86588">
        <ele>368</ele>
        <time>2022-06-03T22:12:18Z</time>
      </trkpt>
      <trkpt lat="47.20685" lon="3.86602">
        <ele>369</ele>
        <time>2022-06-03T22:12:20Z</time>
      </trkpt>
      <trkpt lat="47.20683" lon="3.86619">
        <ele>369</ele>
        <time>2022-06-03T22:12:22Z</time>
      </trkpt>
      <trkpt lat="47.20689" lon="3.86664">
        <ele>372</ele>
        <time>2022-06-03T22:12:28Z</time>
      </trkpt>
      <trkpt lat="47.20698" lon="3.86679">
        <ele>373</ele>
        <time>2022-06-03T22:12:30Z</time>
      </trkpt>
      <trkpt lat="47.20721" lon="3.867">
        <ele>375</ele>
        <time>2022-06-03T22:12:35Z</time>
      </trkpt>
      <trkpt lat="47.20728" lon="3.86712">
        <ele>376</ele>
        <time>2022-06-03T22:12:37Z</time>
      </trkpt>
      <trkpt lat="47.20764" lon="3.86821">
        <ele>380</ele>
        <time>2022-06-03T22:12:52Z</time>
      </trkpt>
      <trkpt lat="47.20785" lon="3.86874">
        <ele>381</ele>
        <time>2022-06-03T22:12:59Z</time>
      </trkpt>
      <trkpt lat="47.20843" lon="3.87004">
        <ele>381</ele>
        <time>2022-06-03T22:13:18Z</time>
      </trkpt>
      <trkpt lat="47.20857" lon="3.87026">
        <ele>381</ele>
        <time>2022-06-03T22:13:21Z</time>
      </trkpt>
      <trkpt lat="47.20876" lon="3.87039">
        <ele>382</ele>
        <time>2022-06-03T22:13:25Z</time>
      </trkpt>
      <trkpt lat="47.2093" lon="3.87067">
        <ele>384</ele>
        <time>2022-06-03T22:13:35Z</time>
      </trkpt>
      <trkpt lat="47.20942" lon="3.87076">
        <ele>384</ele>
        <time>2022-06-03T22:13:38Z</time>
      </trkpt>
      <trkpt lat="47.20956" lon="3.87089">
        <ele>384</ele>
        <time>2022-06-03T22:13:41Z</time>
      </trkpt>
      <trkpt lat="47.20989" lon="3.87143">
        <ele>379</ele>
        <time>2022-06-03T22:13:50Z</time>
      </trkpt>
      <trkpt lat="47.21002" lon="3.87171">
        <ele>376</ele>
        <time>2022-06-03T22:13:54Z</time>
      </trkpt>
      <trkpt lat="47.21017" lon="3.87251">
        <ele>366</ele>
        <time>2022-06-03T22:14:04Z</time>
      </trkpt>
      <trkpt lat="47.21028" lon="3.87296">
        <ele>362</ele>
        <time>2022-06-03T22:14:09Z</time>
      </trkpt>
      <trkpt lat="47.21038" lon="3.87316">
        <ele>361</ele>
        <time>2022-06-03T22:14:12Z</time>
      </trkpt>
      <trkpt lat="47.2105" lon="3.87335">
        <ele>359</ele>
        <time>2022-06-03T22:14:16Z</time>
      </trkpt>
      <trkpt lat="47.21081" lon="3.87372">
        <ele>359</ele>
        <time>2022-06-03T22:14:23Z</time>
      </trkpt>
      <trkpt lat="47.21113" lon="3.87419">
        <ele>356</ele>
        <time>2022-06-03T22:14:31Z</time>
      </trkpt>
      <trkpt lat="47.21121" lon="3.87437">
        <ele>355</ele>
        <time>2022-06-03T22:14:33Z</time>
      </trkpt>
      <trkpt lat="47.21123" lon="3.87452">
        <ele>355</ele>
        <time>2022-06-03T22:14:35Z</time>
      </trkpt>
      <trkpt lat="47.21123" lon="3.87473">
        <ele>353</ele>
        <time>2022-06-03T22:14:38Z</time>
      </trkpt>
      <trkpt lat="47.2109" lon="3.87774">
        <ele>341</ele>
        <time>2022-06-03T22:15:15Z</time>
      </trkpt>
      <trkpt lat="47.21082" lon="3.87836">
        <ele>340</ele>
        <time>2022-06-03T22:15:22Z</time>
      </trkpt>
      <trkpt lat="47.21076" lon="3.87867">
        <ele>340</ele>
        <time>2022-06-03T22:15:26Z</time>
      </trkpt>
      <trkpt lat="47.21069" lon="3.87895">
        <ele>339</ele>
        <time>2022-06-03T22:15:30Z</time>
      </trkpt>
      <trkpt lat="47.21011" lon="3.88063">
        <ele>335</ele>
        <time>2022-06-03T22:15:52Z</time>
      </trkpt>
      <trkpt lat="47.21008" lon="3.88078">
        <ele>335</ele>
        <time>2022-06-03T22:15:54Z</time>
      </trkpt>
      <trkpt lat="47.2101" lon="3.88105">
        <ele>336</ele>
        <time>2022-06-03T22:15:58Z</time>
      </trkpt>
      <trkpt lat="47.21029" lon="3.88157">
        <ele>337</ele>
        <time>2022-06-03T22:16:05Z</time>
      </trkpt>
      <trkpt lat="47.21035" lon="3.8818">
        <ele>338</ele>
        <time>2022-06-03T22:16:08Z</time>
      </trkpt>
      <trkpt lat="47.21039" lon="3.88261">
        <ele>341</ele>
        <time>2022-06-03T22:16:18Z</time>
      </trkpt>
      <trkpt lat="47.21035" lon="3.88324">
        <ele>343</ele>
        <time>2022-06-03T22:16:25Z</time>
      </trkpt>
      <trkpt lat="47.21027" lon="3.88366">
        <ele>344</ele>
        <time>2022-06-03T22:16:30Z</time>
      </trkpt>
      <trkpt lat="47.20995" lon="3.88473">
        <ele>341</ele>
        <time>2022-06-03T22:16:45Z</time>
      </trkpt>
      <trkpt lat="47.20985" lon="3.88497">
        <ele>340</ele>
        <time>2022-06-03T22:16:48Z</time>
      </trkpt>
      <trkpt lat="47.20947" lon="3.88562">
        <ele>336</ele>
        <time>2022-06-03T22:16:58Z</time>
      </trkpt>
      <trkpt lat="47.20939" lon="3.88584">
        <ele>334</ele>
        <time>2022-06-03T22:17:01Z</time>
      </trkpt>
      <trkpt lat="47.20934" lon="3.88603">
        <ele>335</ele>
        <time>2022-06-03T22:17:04Z</time>
      </trkpt>
      <trkpt lat="47.20928" lon="3.88615">
        <ele>335</ele>
        <time>2022-06-03T22:17:06Z</time>
      </trkpt>
      <trkpt lat="47.20919" lon="3.88628">
        <ele>335</ele>
        <time>2022-06-03T22:17:08Z</time>
      </trkpt>
      <trkpt lat="47.20903" lon="3.88636">
        <ele>337</ele>
        <time>2022-06-03T22:17:11Z</time>
      </trkpt>
      <trkpt lat="47.20818" lon="3.88657">
        <ele>346</ele>
        <time>2022-06-03T22:17:26Z</time>
      </trkpt>
      <trkpt lat="47.2077" lon="3.88661">
        <ele>350</ele>
        <time>2022-06-03T22:17:35Z</time>
      </trkpt>
      <trkpt lat="47.20756" lon="3.88659">
        <ele>351</ele>
        <time>2022-06-03T22:17:37Z</time>
      </trkpt>
      <trkpt lat="47.20718" lon="3.88632">
        <ele>352</ele>
        <time>2022-06-03T22:17:45Z</time>
      </trkpt>
      <trkpt lat="47.20702" lon="3.88625">
        <ele>353</ele>
        <time>2022-06-03T22:17:48Z</time>
      </trkpt>
      <trkpt lat="47.20685" lon="3.88618">
        <ele>354</ele>
        <time>2022-06-03T22:17:51Z</time>
      </trkpt>
      <trkpt lat="47.20665" lon="3.88615">
        <ele>356</ele>
        <time>2022-06-03T22:17:54Z</time>
      </trkpt>
      <trkpt lat="47.20644" lon="3.88614">
        <ele>359</ele>
        <time>2022-06-03T22:17:58Z</time>
      </trkpt>
      <trkpt lat="47.20667" lon="3.88662">
        <ele>361</ele>
        <time>2022-06-03T22:18:05Z</time>
      </trkpt>
      <trkpt lat="47.20675" lon="3.88684">
        <ele>361</ele>
        <time>2022-06-03T22:18:08Z</time>
      </trkpt>
      <trkpt lat="47.20681" lon="3.88703">
        <ele>361</ele>
        <time>2022-06-03T22:18:11Z</time>
      </trkpt>
      <trkpt lat="47.20684" lon="3.88736">
        <ele>362</ele>
        <time>2022-06-03T22:18:15Z</time>
      </trkpt>
      <trkpt lat="47.20685" lon="3.88755">
        <ele>362</ele>
        <time>2022-06-03T22:18:17Z</time>
      </trkpt>
      <trkpt lat="47.20678" lon="3.88822">
        <ele>356</ele>
        <time>2022-06-03T22:18:25Z</time>
      </trkpt>
      <trkpt lat="47.20679" lon="3.8884">
        <ele>355</ele>
        <time>2022-06-03T22:18:28Z</time>
      </trkpt>
      <trkpt lat="47.20685" lon="3.88868">
        <ele>355</ele>
        <time>2022-06-03T22:18:31Z</time>
      </trkpt>
      <trkpt lat="47.20697" lon="3.88894">
        <ele>354</ele>
        <time>2022-06-03T22:18:35Z</time>
      </trkpt>
      <trkpt lat="47.20721" lon="3.88939">
        <ele>352</ele>
        <time>2022-06-03T22:18:42Z</time>
      </trkpt>
      <trkpt lat="47.20725" lon="3.88954">
        <ele>352</ele>
        <time>2022-06-03T22:18:44Z</time>
      </trkpt>
      <trkpt lat="47.20725" lon="3.88972">
        <ele>352</ele>
        <time>2022-06-03T22:18:46Z</time>
      </trkpt>
      <trkpt lat="47.20721" lon="3.8901">
        <ele>353</ele>
        <time>2022-06-03T22:18:51Z</time>
      </trkpt>
      <trkpt lat="47.20722" lon="3.89022">
        <ele>353</ele>
        <time>2022-06-03T22:18:52Z</time>
      </trkpt>
      <trkpt lat="47.20742" lon="3.89093">
        <ele>353</ele>
        <time>2022-06-03T22:19:01Z</time>
      </trkpt>
      <trkpt lat="47.20746" lon="3.8911">
        <ele>353</ele>
        <time>2022-06-03T22:19:04Z</time>
      </trkpt>
      <trkpt lat="47.20755" lon="3.89176">
        <ele>354</ele>
        <time>2022-06-03T22:19:12Z</time>
      </trkpt>
      <trkpt lat="47.2077" lon="3.89215">
        <ele>356</ele>
        <time>2022-06-03T22:19:17Z</time>
      </trkpt>
      <trkpt lat="47.20841" lon="3.89284">
        <ele>355</ele>
        <time>2022-06-03T22:19:32Z</time>
      </trkpt>
      <trkpt lat="47.2086" lon="3.8935">
        <ele>359</ele>
        <time>2022-06-03T22:19:41Z</time>
      </trkpt>
      <trkpt lat="47.20867" lon="3.89387">
        <ele>360</ele>
        <time>2022-06-03T22:19:46Z</time>
      </trkpt>
      <trkpt lat="47.20899" lon="3.89434">
        <ele>360</ele>
        <time>2022-06-03T22:19:54Z</time>
      </trkpt>
      <trkpt lat="47.2093" lon="3.89483">
        <ele>360</ele>
        <time>2022-06-03T22:20:02Z</time>
      </trkpt>
      <trkpt lat="47.20939" lon="3.89526">
        <ele>361</ele>
        <time>2022-06-03T22:20:07Z</time>
      </trkpt>
      <trkpt lat="47.20961" lon="3.89751">
        <ele>364</ele>
        <time>2022-06-03T22:20:35Z</time>
      </trkpt>
      <trkpt lat="47.20945" lon="3.89775">
        <ele>367</ele>
        <time>2022-06-03T22:20:39Z</time>
      </trkpt>
      <trkpt lat="47.20915" lon="3.89846">
        <ele>372</ele>
        <time>2022-06-03T22:20:49Z</time>
      </trkpt>
      <trkpt lat="47.20879" lon="3.89902">
        <ele>373</ele>
        <time>2022-06-03T22:20:58Z</time>
      </trkpt>
      <trkpt lat="47.20821" lon="3.89957">
        <ele>375</ele>
        <time>2022-06-03T22:21:10Z</time>
      </trkpt>
      <trkpt lat="47.20758" lon="3.89954">
        <ele>383</ele>
        <time>2022-06-03T22:21:22Z</time>
      </trkpt>
      <trkpt lat="47.20694" lon="3.89967">
        <ele>387</ele>
        <time>2022-06-03T22:21:33Z</time>
      </trkpt>
      <trkpt lat="47.20689" lon="3.89968">
        <ele>387</ele>
        <time>2022-06-03T22:21:34Z</time>
      </trkpt>
      <trkpt lat="47.20662" lon="3.89967">
        <ele>390</ele>
        <time>2022-06-03T22:21:39Z</time>
      </trkpt>
      <trkpt lat="47.20623" lon="3.89984">
        <ele>391</ele>
        <time>2022-06-03T22:21:46Z</time>
      </trkpt>
      <trkpt lat="47.20495" lon="3.90089">
        <ele>394</ele>
        <time>2022-06-03T22:22:12Z</time>
      </trkpt>
      <trkpt lat="47.20362" lon="3.90186">
        <ele>407</ele>
        <time>2022-06-03T22:22:38Z</time>
      </trkpt>
      <trkpt lat="47.20228" lon="3.90297">
        <ele>410</ele>
        <time>2022-06-03T22:23:06Z</time>
      </trkpt>
      <trkpt lat="47.2021" lon="3.90306">
        <ele>409</ele>
        <time>2022-06-03T22:23:09Z</time>
      </trkpt>
      <trkpt lat="47.20166" lon="3.90333">
        <ele>403</ele>
        <time>2022-06-03T22:23:18Z</time>
      </trkpt>
      <trkpt lat="47.20141" lon="3.90335">
        <ele>405</ele>
        <time>2022-06-03T22:23:22Z</time>
      </trkpt>
      <trkpt lat="47.20124" lon="3.9032">
        <ele>407</ele>
        <time>2022-06-03T22:23:26Z</time>
      </trkpt>
      <trkpt lat="47.2008" lon="3.90302">
        <ele>411</ele>
        <time>2022-06-03T22:23:34Z</time>
      </trkpt>
      <trkpt lat="47.19971" lon="3.90268">
        <ele>425</ele>
        <time>2022-06-03T22:23:54Z</time>
      </trkpt>
      <trkpt lat="47.19822" lon="3.90266">
        <ele>431</ele>
        <time>2022-06-03T22:24:20Z</time>
      </trkpt>
      <trkpt lat="47.19746" lon="3.90292">
        <ele>437</ele>
        <time>2022-06-03T22:24:34Z</time>
      </trkpt>
      <trkpt lat="47.19675" lon="3.90308">
        <ele>437</ele>
        <time>2022-06-03T22:24:47Z</time>
      </trkpt>
      <trkpt lat="47.19612" lon="3.90311">
        <ele>441</ele>
        <time>2022-06-03T22:24:58Z</time>
      </trkpt>
      <trkpt lat="47.19493" lon="3.90345">
        <ele>440</ele>
        <time>2022-06-03T22:25:20Z</time>
      </trkpt>
      <trkpt lat="47.19482" lon="3.90346">
        <ele>440</ele>
        <time>2022-06-03T22:25:22Z</time>
      </trkpt>
      <trkpt lat="47.19398" lon="3.90334">
        <ele>440</ele>
        <time>2022-06-03T22:25:37Z</time>
      </trkpt>
      <trkpt lat="47.19389" lon="3.90329">
        <ele>440</ele>
        <time>2022-06-03T22:25:38Z</time>
      </trkpt>
      <trkpt lat="47.19382" lon="3.90322">
        <ele>440</ele>
        <time>2022-06-03T22:25:40Z</time>
      </trkpt>
      <trkpt lat="47.19356" lon="3.90283">
        <ele>442</ele>
        <time>2022-06-03T22:25:46Z</time>
      </trkpt>
      <trkpt lat="47.19351" lon="3.90278">
        <ele>442</ele>
        <time>2022-06-03T22:25:47Z</time>
      </trkpt>
      <trkpt lat="47.19344" lon="3.90277">
        <ele>441</ele>
        <time>2022-06-03T22:25:49Z</time>
      </trkpt>
      <trkpt lat="47.19337" lon="3.90281">
        <ele>440</ele>
        <time>2022-06-03T22:25:50Z</time>
      </trkpt>
      <trkpt lat="47.19331" lon="3.90291">
        <ele>440</ele>
        <time>2022-06-03T22:25:52Z</time>
      </trkpt>
      <trkpt lat="47.19325" lon="3.90323">
        <ele>439</ele>
        <time>2022-06-03T22:25:56Z</time>
      </trkpt>
      <trkpt lat="47.19319" lon="3.90335">
        <ele>440</ele>
        <time>2022-06-03T22:25:58Z</time>
      </trkpt>
      <trkpt lat="47.19313" lon="3.90343">
        <ele>442</ele>
        <time>2022-06-03T22:25:59Z</time>
      </trkpt>
      <trkpt lat="47.19198" lon="3.90424">
        <ele>459</ele>
        <time>2022-06-03T22:26:22Z</time>
      </trkpt>
      <trkpt lat="47.19173" lon="3.90445">
        <ele>462</ele>
        <time>2022-06-03T22:26:27Z</time>
      </trkpt>
      <trkpt lat="47.19162" lon="3.90456">
        <ele>462</ele>
        <time>2022-06-03T22:26:29Z</time>
      </trkpt>
      <trkpt lat="47.1911" lon="3.90521">
        <ele>465</ele>
        <time>2022-06-03T22:26:41Z</time>
      </trkpt>
      <trkpt lat="47.19107" lon="3.90531">
        <ele>465</ele>
        <time>2022-06-03T22:26:43Z</time>
      </trkpt>
      <trkpt lat="47.19108" lon="3.90543">
        <ele>464</ele>
        <time>2022-06-03T22:26:44Z</time>
      </trkpt>
      <trkpt lat="47.19117" lon="3.90565">
        <ele>462</ele>
        <time>2022-06-03T22:26:47Z</time>
      </trkpt>
      <trkpt lat="47.19121" lon="3.90579">
        <ele>461</ele>
        <time>2022-06-03T22:26:49Z</time>
      </trkpt>
      <trkpt lat="47.19122" lon="3.90593">
        <ele>461</ele>
        <time>2022-06-03T22:26:51Z</time>
      </trkpt>
      <trkpt lat="47.19121" lon="3.90667">
        <ele>465</ele>
        <time>2022-06-03T22:27:00Z</time>
      </trkpt>
      <trkpt lat="47.19116" lon="3.90704">
        <ele>467</ele>
        <time>2022-06-03T22:27:04Z</time>
      </trkpt>
      <trkpt lat="47.19109" lon="3.90733">
        <ele>468</ele>
        <time>2022-06-03T22:27:08Z</time>
      </trkpt>
      <trkpt lat="47.19076" lon="3.90815">
        <ele>467</ele>
        <time>2022-06-03T22:27:19Z</time>
      </trkpt>
      <trkpt lat="47.19057" lon="3.90868">
        <ele>466</ele>
        <time>2022-06-03T22:27:27Z</time>
      </trkpt>
      <trkpt lat="47.19044" lon="3.9096">
        <ele>463</ele>
        <time>2022-06-03T22:27:38Z</time>
      </trkpt>
      <trkpt lat="47.1904" lon="3.9097">
        <ele>463</ele>
        <time>2022-06-03T22:27:39Z</time>
      </trkpt>
      <trkpt lat="47.19015" lon="3.91006">
        <ele>462</ele>
        <time>2022-06-03T22:27:46Z</time>
      </trkpt>
      <trkpt lat="47.19009" lon="3.91018">
        <ele>462</ele>
        <time>2022-06-03T22:27:47Z</time>
      </trkpt>
      <trkpt lat="47.19006" lon="3.91033">
        <ele>462</ele>
        <time>2022-06-03T22:27:49Z</time>
      </trkpt>
      <trkpt lat="47.19004" lon="3.91051">
        <ele>462</ele>
        <time>2022-06-03T22:27:52Z</time>
      </trkpt>
      <trkpt lat="47.19009" lon="3.91134">
        <ele>465</ele>
        <time>2022-06-03T22:28:02Z</time>
      </trkpt>
      <trkpt lat="47.19018" lon="3.91153">
        <ele>466</ele>
        <time>2022-06-03T22:28:04Z</time>
      </trkpt>
      <trkpt lat="47.19025" lon="3.91185">
        <ele>467</ele>
        <time>2022-06-03T22:28:09Z</time>
      </trkpt>
      <trkpt lat="47.19028" lon="3.91194">
        <ele>467</ele>
        <time>2022-06-03T22:28:10Z</time>
      </trkpt>
      <trkpt lat="47.19035" lon="3.91201">
        <ele>467</ele>
        <time>2022-06-03T22:28:11Z</time>
      </trkpt>
      <trkpt lat="47.19052" lon="3.91205">
        <ele>466</ele>
        <time>2022-06-03T22:28:14Z</time>
      </trkpt>
      <trkpt lat="47.19062" lon="3.91188">
        <ele>465</ele>
        <time>2022-06-03T22:28:17Z</time>
      </trkpt>
      <trkpt lat="47.19086" lon="3.91138">
        <ele>463</ele>
        <time>2022-06-03T22:28:24Z</time>
      </trkpt>
      <trkpt lat="47.19128" lon="3.91057">
        <ele>468</ele>
        <time>2022-06-03T22:28:37Z</time>
      </trkpt>
      <trkpt lat="47.1914" lon="3.91054">
        <ele>469</ele>
        <time>2022-06-03T22:28:39Z</time>
      </trkpt>
      <trkpt lat="47.19182" lon="3.91068">
        <ele>473</ele>
        <time>2022-06-03T22:28:47Z</time>
      </trkpt>
      <trkpt lat="47.19217" lon="3.91056">
        <ele>474</ele>
        <time>2022-06-03T22:28:53Z</time>
      </trkpt>
      <trkpt lat="47.19223" lon="3.91054">
        <ele>475</ele>
        <time>2022-06-03T22:28:54Z</time>
      </trkpt>
      <trkpt lat="47.19248" lon="3.91071">
        <ele>475</ele>
        <time>2022-06-03T22:28:59Z</time>
      </trkpt>
      <trkpt lat="47.19261" lon="3.91093">
        <ele>473</ele>
        <time>2022-06-03T22:29:02Z</time>
      </trkpt>
      <trkpt lat="47.19284" lon="3.91171">
        <ele>471</ele>
        <time>2022-06-03T22:29:13Z</time>
      </trkpt>
      <trkpt lat="47.1931" lon="3.91366">
        <ele>477</ele>
        <time>2022-06-03T22:29:37Z</time>
      </trkpt>
      <trkpt lat="47.19311" lon="3.91371">
        <ele>477</ele>
        <time>2022-06-03T22:29:37Z</time>
      </trkpt>
      <trkpt lat="47.19314" lon="3.91387">
        <ele>478</ele>
        <time>2022-06-03T22:29:39Z</time>
      </trkpt>
      <trkpt lat="47.19326" lon="3.91407">
        <ele>479</ele>
        <time>2022-06-03T22:29:43Z</time>
      </trkpt>
      <trkpt lat="47.19365" lon="3.91435">
        <ele>480</ele>
        <time>2022-06-03T22:29:50Z</time>
      </trkpt>
      <trkpt lat="47.19427" lon="3.91473">
        <ele>480</ele>
        <time>2022-06-03T22:30:02Z</time>
      </trkpt>
      <trkpt lat="47.19466" lon="3.91508">
        <ele>483</ele>
        <time>2022-06-03T22:30:10Z</time>
      </trkpt>
      <trkpt lat="47.19536" lon="3.91581">
        <ele>490</ele>
        <time>2022-06-03T22:30:26Z</time>
      </trkpt>
      <trkpt lat="47.19563" lon="3.91619">
        <ele>494</ele>
        <time>2022-06-03T22:30:32Z</time>
      </trkpt>
      <trkpt lat="47.19566" lon="3.91649">
        <ele>496</ele>
        <time>2022-06-03T22:30:36Z</time>
      </trkpt>
      <trkpt lat="47.19565" lon="3.91685">
        <ele>498</ele>
        <time>2022-06-03T22:30:40Z</time>
      </trkpt>
      <trkpt lat="47.19572" lon="3.917">
        <ele>499</ele>
        <time>2022-06-03T22:30:43Z</time>
      </trkpt>
      <trkpt lat="47.19603" lon="3.91712">
        <ele>501</ele>
        <time>2022-06-03T22:30:48Z</time>
      </trkpt>
      <trkpt lat="47.19619" lon="3.91727">
        <ele>503</ele>
        <time>2022-06-03T22:30:52Z</time>
      </trkpt>
      <trkpt lat="47.19666" lon="3.91809">
        <ele>508</ele>
        <time>2022-06-03T22:31:05Z</time>
      </trkpt>
      <trkpt lat="47.19672" lon="3.91834">
        <ele>508</ele>
        <time>2022-06-03T22:31:08Z</time>
      </trkpt>
      <trkpt lat="47.19692" lon="3.91894">
        <ele>508</ele>
        <time>2022-06-03T22:31:16Z</time>
      </trkpt>
      <trkpt lat="47.19695" lon="3.91933">
        <ele>510</ele>
        <time>2022-06-03T22:31:21Z</time>
      </trkpt>
      <trkpt lat="47.197" lon="3.91967">
        <ele>511</ele>
        <time>2022-06-03T22:31:25Z</time>
      </trkpt>
      <trkpt lat="47.19698" lon="3.91996">
        <ele>513</ele>
        <time>2022-06-03T22:31:28Z</time>
      </trkpt>
      <trkpt lat="47.19697" lon="3.92003">
        <ele>513</ele>
        <time>2022-06-03T22:31:29Z</time>
      </trkpt>
      <trkpt lat="47.19695" lon="3.92031">
        <ele>515</ele>
        <time>2022-06-03T22:31:33Z</time>
      </trkpt>
      <trkpt lat="47.19701" lon="3.92067">
        <ele>518</ele>
        <time>2022-06-03T22:31:37Z</time>
      </trkpt>
      <trkpt lat="47.1972" lon="3.92112">
        <ele>524</ele>
        <time>2022-06-03T22:31:44Z</time>
      </trkpt>
      <trkpt lat="47.1979" lon="3.92155">
        <ele>531</ele>
        <time>2022-06-03T22:31:57Z</time>
      </trkpt>
      <trkpt lat="47.19826" lon="3.92181">
        <ele>533</ele>
        <time>2022-06-03T22:32:04Z</time>
      </trkpt>
      <trkpt lat="47.1992" lon="3.92208">
        <ele>535</ele>
        <time>2022-06-03T22:32:21Z</time>
      </trkpt>
      <trkpt lat="47.19961" lon="3.92217">
        <ele>536</ele>
        <time>2022-06-03T22:32:29Z</time>
      </trkpt>
      <trkpt lat="47.20143" lon="3.9229">
        <ele>548</ele>
        <time>2022-06-03T22:33:02Z</time>
      </trkpt>
      <trkpt lat="47.20184" lon="3.92303">
        <ele>550</ele>
        <time>2022-06-03T22:33:10Z</time>
      </trkpt>
      <trkpt lat="47.20224" lon="3.92305">
        <ele>553</ele>
        <time>2022-06-03T22:33:17Z</time>
      </trkpt>
      <trkpt lat="47.20249" lon="3.9231">
        <ele>555</ele>
        <time>2022-06-03T22:33:21Z</time>
      </trkpt>
      <trkpt lat="47.20253" lon="3.9231">
        <ele>555</ele>
        <time>2022-06-03T22:33:22Z</time>
      </trkpt>
      <trkpt lat="47.20249" lon="3.9231">
        <ele>555</ele>
        <time>2022-06-03T22:33:23Z</time>
      </trkpt>
      <trkpt lat="47.20245" lon="3.92341">
        <ele>557</ele>
        <time>2022-06-03T22:33:26Z</time>
      </trkpt>
      <trkpt lat="47.2023" lon="3.92367">
        <ele>556</ele>
        <time>2022-06-03T22:33:31Z</time>
      </trkpt>
      <trkpt lat="47.20115" lon="3.92496">
        <ele>556</ele>
        <time>2022-06-03T22:33:56Z</time>
      </trkpt>
      <trkpt lat="47.19974" lon="3.92676">
        <ele>554</ele>
        <time>2022-06-03T22:34:30Z</time>
      </trkpt>
      <trkpt lat="47.19949" lon="3.92732">
        <ele>549</ele>
        <time>2022-06-03T22:34:38Z</time>
      </trkpt>
      <trkpt lat="47.19946" lon="3.9274">
        <ele>549</ele>
        <time>2022-06-03T22:34:39Z</time>
      </trkpt>
      <trkpt lat="47.19939" lon="3.9276">
        <ele>548</ele>
        <time>2022-06-03T22:34:41Z</time>
      </trkpt>
      <trkpt lat="47.19879" lon="3.92902">
        <ele>551</ele>
        <time>2022-06-03T22:35:02Z</time>
      </trkpt>
      <trkpt lat="47.19816" lon="3.93037">
        <ele>551</ele>
        <time>2022-06-03T22:35:21Z</time>
      </trkpt>
      <trkpt lat="47.19809" lon="3.93044">
        <ele>551</ele>
        <time>2022-06-03T22:35:23Z</time>
      </trkpt>
      <trkpt lat="47.19795" lon="3.93089">
        <ele>550</ele>
        <time>2022-06-03T22:35:29Z</time>
      </trkpt>
      <trkpt lat="47.19711" lon="3.93293">
        <ele>556</ele>
        <time>2022-06-03T22:35:58Z</time>
      </trkpt>
      <trkpt lat="47.19624" lon="3.93426">
        <ele>558</ele>
        <time>2022-06-03T22:36:20Z</time>
      </trkpt>
      <trkpt lat="47.1955" lon="3.93533">
        <ele>558</ele>
        <time>2022-06-03T22:36:39Z</time>
      </trkpt>
      <trkpt lat="47.19516" lon="3.93576">
        <ele>560</ele>
        <time>2022-06-03T22:36:47Z</time>
      </trkpt>
      <trkpt lat="47.19471" lon="3.93667">
        <ele>560</ele>
        <time>2022-06-03T22:37:00Z</time>
      </trkpt>
      <trkpt lat="47.19434" lon="3.93696">
        <ele>555</ele>
        <time>2022-06-03T22:37:08Z</time>
      </trkpt>
      <trkpt lat="47.19362" lon="3.93727">
        <ele>551</ele>
        <time>2022-06-03T22:37:21Z</time>
      </trkpt>
      <trkpt lat="47.193" lon="3.93748">
        <ele>547</ele>
        <time>2022-06-03T22:37:32Z</time>
      </trkpt>
      <trkpt lat="47.19254" lon="3.9375">
        <ele>546</ele>
        <time>2022-06-03T22:37:40Z</time>
      </trkpt>
      <trkpt lat="47.19157" lon="3.93761">
        <ele>542</ele>
        <time>2022-06-03T22:37:58Z</time>
      </trkpt>
      <trkpt lat="47.19046" lon="3.93786">
        <ele>547</ele>
        <time>2022-06-03T22:38:18Z</time>
      </trkpt>
      <trkpt lat="47.18995" lon="3.93787">
        <ele>553</ele>
        <time>2022-06-03T22:38:27Z</time>
      </trkpt>
      <trkpt lat="47.18968" lon="3.9379">
        <ele>555</ele>
        <time>2022-06-03T22:38:32Z</time>
      </trkpt>
      <trkpt lat="47.18943" lon="3.93803">
        <ele>559</ele>
        <time>2022-06-03T22:38:36Z</time>
      </trkpt>
      <trkpt lat="47.18901" lon="3.93857">
        <ele>565</ele>
        <time>2022-06-03T22:38:46Z</time>
      </trkpt>
      <trkpt lat="47.18848" lon="3.93909">
        <ele>563</ele>
        <time>2022-06-03T22:38:58Z</time>
      </trkpt>
      <trkpt lat="47.18797" lon="3.93947">
        <ele>561</ele>
        <time>2022-06-03T22:39:08Z</time>
      </trkpt>
      <trkpt lat="47.18789" lon="3.93961">
        <ele>561</ele>
        <time>2022-06-03T22:39:10Z</time>
      </trkpt>
      <trkpt lat="47.18809" lon="3.93963">
        <ele>560</ele>
        <time>2022-06-03T22:39:14Z</time>
      </trkpt>
      <trkpt lat="47.18826" lon="3.93971">
        <ele>559</ele>
        <time>2022-06-03T22:39:17Z</time>
      </trkpt>
      <trkpt lat="47.18868" lon="3.94006">
        <ele>555</ele>
        <time>2022-06-03T22:39:25Z</time>
      </trkpt>
      <trkpt lat="47.18897" lon="3.94026">
        <ele>552</ele>
        <time>2022-06-03T22:39:31Z</time>
      </trkpt>
      <trkpt lat="47.1892" lon="3.94035">
        <ele>551</ele>
        <time>2022-06-03T22:39:35Z</time>
      </trkpt>
      <trkpt lat="47.18943" lon="3.94038">
        <ele>549</ele>
        <time>2022-06-03T22:39:39Z</time>
      </trkpt>
      <trkpt lat="47.19277" lon="3.94036">
        <ele>535</ele>
        <time>2022-06-03T22:40:39Z</time>
      </trkpt>
      <trkpt lat="47.19294" lon="3.94032">
        <ele>534</ele>
        <time>2022-06-03T22:40:42Z</time>
      </trkpt>
      <trkpt lat="47.19311" lon="3.94027">
        <ele>533</ele>
        <time>2022-06-03T22:40:45Z</time>
      </trkpt>
      <trkpt lat="47.19328" lon="3.94011">
        <ele>533</ele>
        <time>2022-06-03T22:40:49Z</time>
      </trkpt>
      <trkpt lat="47.19388" lon="3.93934">
        <ele>534</ele>
        <time>2022-06-03T22:41:03Z</time>
      </trkpt>
      <trkpt lat="47.19474" lon="3.93817">
        <ele>539</ele>
        <time>2022-06-03T22:41:24Z</time>
      </trkpt>
      <trkpt lat="47.19492" lon="3.93804">
        <ele>541</ele>
        <time>2022-06-03T22:41:27Z</time>
      </trkpt>
      <trkpt lat="47.19514" lon="3.93801">
        <ele>541</ele>
        <time>2022-06-03T22:41:31Z</time>
      </trkpt>
      <trkpt lat="47.19573" lon="3.93821">
        <ele>535</ele>
        <time>2022-06-03T22:41:42Z</time>
      </trkpt>
      <trkpt lat="47.19597" lon="3.93816">
        <ele>534</ele>
        <time>2022-06-03T22:41:46Z</time>
      </trkpt>
      <trkpt lat="47.19623" lon="3.93796">
        <ele>535</ele>
        <time>2022-06-03T22:41:51Z</time>
      </trkpt>
      <trkpt lat="47.19662" lon="3.93737">
        <ele>531</ele>
        <time>2022-06-03T22:42:01Z</time>
      </trkpt>
      <trkpt lat="47.19678" lon="3.93723">
        <ele>530</ele>
        <time>2022-06-03T22:42:05Z</time>
      </trkpt>
      <trkpt lat="47.19694" lon="3.93721">
        <ele>528</ele>
        <time>2022-06-03T22:42:07Z</time>
      </trkpt>
      <trkpt lat="47.1971" lon="3.93723">
        <ele>527</ele>
        <time>2022-06-03T22:42:10Z</time>
      </trkpt>
      <trkpt lat="47.19763" lon="3.93748">
        <ele>524</ele>
        <time>2022-06-03T22:42:20Z</time>
      </trkpt>
      <trkpt lat="47.19833" lon="3.93787">
        <ele>527</ele>
        <time>2022-06-03T22:42:34Z</time>
      </trkpt>
      <trkpt lat="47.19863" lon="3.93813">
        <ele>526</ele>
        <time>2022-06-03T22:42:40Z</time>
      </trkpt>
      <trkpt lat="47.19887" lon="3.93847">
        <ele>526</ele>
        <time>2022-06-03T22:42:46Z</time>
      </trkpt>
      <trkpt lat="47.19908" lon="3.93883">
        <ele>525</ele>
        <time>2022-06-03T22:42:51Z</time>
      </trkpt>
      <trkpt lat="47.19922" lon="3.93911">
        <ele>525</ele>
        <time>2022-06-03T22:42:56Z</time>
      </trkpt>
      <trkpt lat="47.19941" lon="3.93959">
        <ele>527</ele>
        <time>2022-06-03T22:43:02Z</time>
      </trkpt>
      <trkpt lat="47.19975" lon="3.94055">
        <ele>523</ele>
        <time>2022-06-03T22:43:15Z</time>
      </trkpt>
      <trkpt lat="47.19991" lon="3.94094">
        <ele>520</ele>
        <time>2022-06-03T22:43:21Z</time>
      </trkpt>
      <trkpt lat="47.20002" lon="3.94113">
        <ele>519</ele>
        <time>2022-06-03T22:43:24Z</time>
      </trkpt>
      <trkpt lat="47.20021" lon="3.9413">
        <ele>519</ele>
        <time>2022-06-03T22:43:28Z</time>
      </trkpt>
      <trkpt lat="47.20032" lon="3.94137">
        <ele>518</ele>
        <time>2022-06-03T22:43:30Z</time>
      </trkpt>
      <trkpt lat="47.20068" lon="3.94146">
        <ele>518</ele>
        <time>2022-06-03T22:43:37Z</time>
      </trkpt>
      <trkpt lat="47.20084" lon="3.94147">
        <ele>518</ele>
        <time>2022-06-03T22:43:39Z</time>
      </trkpt>
      <trkpt lat="47.20107" lon="3.94158">
        <ele>518</ele>
        <time>2022-06-03T22:43:44Z</time>
      </trkpt>
      <trkpt lat="47.20157" lon="3.94194">
        <ele>519</ele>
        <time>2022-06-03T22:43:54Z</time>
      </trkpt>
      <trkpt lat="47.20195" lon="3.94208">
        <ele>518</ele>
        <time>2022-06-03T22:44:01Z</time>
      </trkpt>
      <trkpt lat="47.20217" lon="3.94205">
        <ele>516</ele>
        <time>2022-06-03T22:44:04Z</time>
      </trkpt>
      <trkpt lat="47.20244" lon="3.9419">
        <ele>515</ele>
        <time>2022-06-03T22:44:10Z</time>
      </trkpt>
      <trkpt lat="47.20278" lon="3.94155">
        <ele>515</ele>
        <time>2022-06-03T22:44:17Z</time>
      </trkpt>
      <trkpt lat="47.20308" lon="3.94143">
        <ele>515</ele>
        <time>2022-06-03T22:44:23Z</time>
      </trkpt>
      <trkpt lat="47.20332" lon="3.94149">
        <ele>512</ele>
        <time>2022-06-03T22:44:27Z</time>
      </trkpt>
      <trkpt lat="47.20359" lon="3.94164">
        <ele>508</ele>
        <time>2022-06-03T22:44:32Z</time>
      </trkpt>
      <trkpt lat="47.20373" lon="3.94163">
        <ele>508</ele>
        <time>2022-06-03T22:44:34Z</time>
      </trkpt>
      <trkpt lat="47.20388" lon="3.94158">
        <ele>508</ele>
        <time>2022-06-03T22:44:37Z</time>
      </trkpt>
      <trkpt lat="47.20445" lon="3.94117">
        <ele>513</ele>
        <time>2022-06-03T22:44:49Z</time>
      </trkpt>
      <trkpt lat="47.20467" lon="3.94094">
        <ele>511</ele>
        <time>2022-06-03T22:44:53Z</time>
      </trkpt>
      <trkpt lat="47.20491" lon="3.94032">
        <ele>509</ele>
        <time>2022-06-03T22:45:02Z</time>
      </trkpt>
      <trkpt lat="47.20554" lon="3.93846">
        <ele>506</ele>
        <time>2022-06-03T22:45:27Z</time>
      </trkpt>
      <trkpt lat="47.20569" lon="3.93814">
        <ele>504</ele>
        <time>2022-06-03T22:45:32Z</time>
      </trkpt>
      <trkpt lat="47.20588" lon="3.93797">
        <ele>503</ele>
        <time>2022-06-03T22:45:36Z</time>
      </trkpt>
      <trkpt lat="47.20607" lon="3.93793">
        <ele>503</ele>
        <time>2022-06-03T22:45:39Z</time>
      </trkpt>
      <trkpt lat="47.20654" lon="3.93796">
        <ele>502</ele>
        <time>2022-06-03T22:45:48Z</time>
      </trkpt>
      <trkpt lat="47.20696" lon="3.93789">
        <ele>501</ele>
        <time>2022-06-03T22:45:55Z</time>
      </trkpt>
      <trkpt lat="47.20728" lon="3.93757">
        <ele>498</ele>
        <time>2022-06-03T22:46:02Z</time>
      </trkpt>
      <trkpt lat="47.20777" lon="3.93658">
        <ele>500</ele>
        <time>2022-06-03T22:46:17Z</time>
      </trkpt>
      <trkpt lat="47.20841" lon="3.93579">
        <ele>490</ele>
        <time>2022-06-03T22:46:32Z</time>
      </trkpt>
      <trkpt lat="47.20879" lon="3.93555">
        <ele>490</ele>
        <time>2022-06-03T22:46:39Z</time>
      </trkpt>
      <trkpt lat="47.20917" lon="3.93519">
        <ele>487</ele>
        <time>2022-06-03T22:46:47Z</time>
      </trkpt>
      <trkpt lat="47.20961" lon="3.93472">
        <ele>487</ele>
        <time>2022-06-03T22:46:57Z</time>
      </trkpt>
      <trkpt lat="47.20984" lon="3.93444">
        <ele>485</ele>
        <time>2022-06-03T22:47:02Z</time>
      </trkpt>
      <trkpt lat="47.21054" lon="3.93338">
        <ele>488</ele>
        <time>2022-06-03T22:47:20Z</time>
      </trkpt>
      <trkpt lat="47.21145" lon="3.93293">
        <ele>486</ele>
        <time>2022-06-03T22:47:37Z</time>
      </trkpt>
      <trkpt lat="47.21239" lon="3.9322">
        <ele>482</ele>
        <time>2022-06-03T22:47:56Z</time>
      </trkpt>
      <trkpt lat="47.21274" lon="3.93201">
        <ele>483</ele>
        <time>2022-06-03T22:48:02Z</time>
      </trkpt>
      <trkpt lat="47.21327" lon="3.93205">
        <ele>478</ele>
        <time>2022-06-03T22:48:12Z</time>
      </trkpt>
      <trkpt lat="47.2137" lon="3.93203">
        <ele>477</ele>
        <time>2022-06-03T22:48:20Z</time>
      </trkpt>
      <trkpt lat="47.21405" lon="3.93195">
        <ele>477</ele>
        <time>2022-06-03T22:48:26Z</time>
      </trkpt>
      <trkpt lat="47.21465" lon="3.93186">
        <ele>475</ele>
        <time>2022-06-03T22:48:37Z</time>
      </trkpt>
      <trkpt lat="47.21521" lon="3.93205">
        <ele>472</ele>
        <time>2022-06-03T22:48:47Z</time>
      </trkpt>
      <trkpt lat="47.21569" lon="3.93238">
        <ele>471</ele>
        <time>2022-06-03T22:48:56Z</time>
      </trkpt>
      <trkpt lat="47.21595" lon="3.9327">
        <ele>471</ele>
        <time>2022-06-03T22:49:02Z</time>
      </trkpt>
      <trkpt lat="47.21609" lon="3.93296">
        <ele>472</ele>
        <time>2022-06-03T22:49:06Z</time>
      </trkpt>
      <trkpt lat="47.21613" lon="3.93313">
        <ele>471</ele>
        <time>2022-06-03T22:49:08Z</time>
      </trkpt>
      <trkpt lat="47.21624" lon="3.93318">
        <ele>471</ele>
        <time>2022-06-03T22:49:11Z</time>
      </trkpt>
      <trkpt lat="47.21693" lon="3.93395">
        <ele>468</ele>
        <time>2022-06-03T22:49:26Z</time>
      </trkpt>
      <trkpt lat="47.2174" lon="3.93444">
        <ele>468</ele>
        <time>2022-06-03T22:49:36Z</time>
      </trkpt>
      <trkpt lat="47.21762" lon="3.93471">
        <ele>466</ele>
        <time>2022-06-03T22:49:41Z</time>
      </trkpt>
      <trkpt lat="47.21774" lon="3.93477">
        <ele>465</ele>
        <time>2022-06-03T22:49:44Z</time>
      </trkpt>
      <trkpt lat="47.21786" lon="3.93473">
        <ele>466</ele>
        <time>2022-06-03T22:49:46Z</time>
      </trkpt>
      <trkpt lat="47.21799" lon="3.93463">
        <ele>467</ele>
        <time>2022-06-03T22:49:48Z</time>
      </trkpt>
      <trkpt lat="47.21807" lon="3.93447">
        <ele>470</ele>
        <time>2022-06-03T22:49:51Z</time>
      </trkpt>
      <trkpt lat="47.21821" lon="3.93403">
        <ele>476</ele>
        <time>2022-06-03T22:49:57Z</time>
      </trkpt>
      <trkpt lat="47.21827" lon="3.93393">
        <ele>477</ele>
        <time>2022-06-03T22:49:58Z</time>
      </trkpt>
      <trkpt lat="47.21835" lon="3.9339">
        <ele>477</ele>
        <time>2022-06-03T22:50:00Z</time>
      </trkpt>
      <trkpt lat="47.21874" lon="3.9339">
        <ele>474</ele>
        <time>2022-06-03T22:50:07Z</time>
      </trkpt>
      <trkpt lat="47.21896" lon="3.93392">
        <ele>472</ele>
        <time>2022-06-03T22:50:11Z</time>
      </trkpt>
      <trkpt lat="47.21933" lon="3.93388">
        <ele>471</ele>
        <time>2022-06-03T22:50:17Z</time>
      </trkpt>
      <trkpt lat="47.21948" lon="3.93379">
        <ele>471</ele>
        <time>2022-06-03T22:50:20Z</time>
      </trkpt>
      <trkpt lat="47.21966" lon="3.93363">
        <ele>471</ele>
        <time>2022-06-03T22:50:24Z</time>
      </trkpt>
      <trkpt lat="47.21995" lon="3.93331">
        <ele>471</ele>
        <time>2022-06-03T22:50:30Z</time>
      </trkpt>
      <trkpt lat="47.22034" lon="3.93283">
        <ele>473</ele>
        <time>2022-06-03T22:50:39Z</time>
      </trkpt>
      <trkpt lat="47.22054" lon="3.93245">
        <ele>475</ele>
        <time>2022-06-03T22:50:45Z</time>
      </trkpt>
      <trkpt lat="47.22096" lon="3.93143">
        <ele>481</ele>
        <time>2022-06-03T22:50:59Z</time>
      </trkpt>
      <trkpt lat="47.22103" lon="3.93098">
        <ele>483</ele>
        <time>2022-06-03T22:51:05Z</time>
      </trkpt>
      <trkpt lat="47.22115" lon="3.93057">
        <ele>482</ele>
        <time>2022-06-03T22:51:10Z</time>
      </trkpt>
      <trkpt lat="47.22138" lon="3.93018">
        <ele>479</ele>
        <time>2022-06-03T22:51:17Z</time>
      </trkpt>
      <trkpt lat="47.22186" lon="3.92958">
        <ele>471</ele>
        <time>2022-06-03T22:51:28Z</time>
      </trkpt>
      <trkpt lat="47.22201" lon="3.92923">
        <ele>468</ele>
        <time>2022-06-03T22:51:33Z</time>
      </trkpt>
      <trkpt lat="47.224" lon="3.9236">
        <ele>465</ele>
        <time>2022-06-03T22:52:50Z</time>
      </trkpt>
      <trkpt lat="47.22415" lon="3.9231">
        <ele>466</ele>
        <time>2022-06-03T22:52:56Z</time>
      </trkpt>
      <trkpt lat="47.2242" lon="3.92288">
        <ele>467</ele>
        <time>2022-06-03T22:52:59Z</time>
      </trkpt>
      <trkpt lat="47.22422" lon="3.92268">
        <ele>468</ele>
        <time>2022-06-03T22:53:01Z</time>
      </trkpt>
      <trkpt lat="47.22423" lon="3.92226">
        <ele>469</ele>
        <time>2022-06-03T22:53:07Z</time>
      </trkpt>
      <trkpt lat="47.22421" lon="3.92201">
        <ele>468</ele>
        <time>2022-06-03T22:53:10Z</time>
      </trkpt>
      <trkpt lat="47.22414" lon="3.92155">
        <ele>466</ele>
        <time>2022-06-03T22:53:15Z</time>
      </trkpt>
      <trkpt lat="47.224" lon="3.92115">
        <ele>465</ele>
        <time>2022-06-03T22:53:21Z</time>
      </trkpt>
      <trkpt lat="47.22389" lon="3.92069">
        <ele>464</ele>
        <time>2022-06-03T22:53:27Z</time>
      </trkpt>
      <trkpt lat="47.22381" lon="3.92016">
        <ele>464</ele>
        <time>2022-06-03T22:53:33Z</time>
      </trkpt>
      <trkpt lat="47.22387" lon="3.91979">
        <ele>465</ele>
        <time>2022-06-03T22:53:38Z</time>
      </trkpt>
      <trkpt lat="47.22403" lon="3.91931">
        <ele>467</ele>
        <time>2022-06-03T22:53:44Z</time>
      </trkpt>
      <trkpt lat="47.22413" lon="3.9189">
        <ele>469</ele>
        <time>2022-06-03T22:53:49Z</time>
      </trkpt>
      <trkpt lat="47.22415" lon="3.91863">
        <ele>468</ele>
        <time>2022-06-03T22:53:53Z</time>
      </trkpt>
      <trkpt lat="47.22408" lon="3.9181">
        <ele>465</ele>
        <time>2022-06-03T22:53:59Z</time>
      </trkpt>
      <trkpt lat="47.22399" lon="3.91782">
        <ele>462</ele>
        <time>2022-06-03T22:54:03Z</time>
      </trkpt>
      <trkpt lat="47.22393" lon="3.91719">
        <ele>457</ele>
        <time>2022-06-03T22:54:11Z</time>
      </trkpt>
      <trkpt lat="47.22395" lon="3.91691">
        <ele>456</ele>
        <time>2022-06-03T22:54:14Z</time>
      </trkpt>
      <trkpt lat="47.22399" lon="3.91664">
        <ele>455</ele>
        <time>2022-06-03T22:54:17Z</time>
      </trkpt>
      <trkpt lat="47.22408" lon="3.91644">
        <ele>454</ele>
        <time>2022-06-03T22:54:20Z</time>
      </trkpt>
      <trkpt lat="47.22419" lon="3.91627">
        <ele>454</ele>
        <time>2022-06-03T22:54:23Z</time>
      </trkpt>
      <trkpt lat="47.22457" lon="3.91602">
        <ele>454</ele>
        <time>2022-06-03T22:54:31Z</time>
      </trkpt>
      <trkpt lat="47.22468" lon="3.91598">
        <ele>454</ele>
        <time>2022-06-03T22:54:33Z</time>
      </trkpt>
      <trkpt lat="47.22481" lon="3.91598">
        <ele>455</ele>
        <time>2022-06-03T22:54:35Z</time>
      </trkpt>
      <trkpt lat="47.22519" lon="3.91605">
        <ele>459</ele>
        <time>2022-06-03T22:54:42Z</time>
      </trkpt>
      <trkpt lat="47.22528" lon="3.91601">
        <ele>460</ele>
        <time>2022-06-03T22:54:43Z</time>
      </trkpt>
      <trkpt lat="47.22535" lon="3.91591">
        <ele>461</ele>
        <time>2022-06-03T22:54:45Z</time>
      </trkpt>
      <trkpt lat="47.22538" lon="3.91571">
        <ele>460</ele>
        <time>2022-06-03T22:54:48Z</time>
      </trkpt>
      <trkpt lat="47.22546" lon="3.91487">
        <ele>454</ele>
        <time>2022-06-03T22:54:58Z</time>
      </trkpt>
      <trkpt lat="47.22544" lon="3.9144">
        <ele>453</ele>
        <time>2022-06-03T22:55:04Z</time>
      </trkpt>
      <trkpt lat="47.22525" lon="3.91386">
        <ele>450</ele>
        <time>2022-06-03T22:55:11Z</time>
      </trkpt>
      <trkpt lat="47.22501" lon="3.91334">
        <ele>450</ele>
        <time>2022-06-03T22:55:18Z</time>
      </trkpt>
      <trkpt lat="47.22468" lon="3.91308">
        <ele>446</ele>
        <time>2022-06-03T22:55:25Z</time>
      </trkpt>
      <trkpt lat="47.2244" lon="3.91279">
        <ele>442</ele>
        <time>2022-06-03T22:55:31Z</time>
      </trkpt>
      <trkpt lat="47.2243" lon="3.91239">
        <ele>441</ele>
        <time>2022-06-03T22:55:36Z</time>
      </trkpt>
      <trkpt lat="47.22434" lon="3.91048">
        <ele>436</ele>
        <time>2022-06-03T22:55:59Z</time>
      </trkpt>
      <trkpt lat="47.22445" lon="3.91009">
        <ele>434</ele>
        <time>2022-06-03T22:56:05Z</time>
      </trkpt>
      <trkpt lat="47.22464" lon="3.90985">
        <ele>432</ele>
        <time>2022-06-03T22:56:09Z</time>
      </trkpt>
      <trkpt lat="47.22513" lon="3.90995">
        <ele>437</ele>
        <time>2022-06-03T22:56:18Z</time>
      </trkpt>
      <trkpt lat="47.22525" lon="3.9098">
        <ele>437</ele>
        <time>2022-06-03T22:56:21Z</time>
      </trkpt>
      <trkpt lat="47.22529" lon="3.90965">
        <ele>436</ele>
        <time>2022-06-03T22:56:23Z</time>
      </trkpt>
      <trkpt lat="47.22528" lon="3.90851">
        <ele>431</ele>
        <time>2022-06-03T22:56:36Z</time>
      </trkpt>
      <trkpt lat="47.2254" lon="3.90804">
        <ele>431</ele>
        <time>2022-06-03T22:56:42Z</time>
      </trkpt>
      <trkpt lat="47.22567" lon="3.90746">
        <ele>432</ele>
        <time>2022-06-03T22:56:51Z</time>
      </trkpt>
      <trkpt lat="47.22573" lon="3.90721">
        <ele>431</ele>
        <time>2022-06-03T22:56:54Z</time>
      </trkpt>
      <trkpt lat="47.22577" lon="3.90702">
        <ele>430</ele>
        <time>2022-06-03T22:56:57Z</time>
      </trkpt>
      <trkpt lat="47.22582" lon="3.9071">
        <ele>431</ele>
        <time>2022-06-03T22:56:58Z</time>
      </trkpt>
      <trkpt lat="47.22593" lon="3.90742">
        <ele>434</ele>
        <time>2022-06-03T22:57:02Z</time>
      </trkpt>
      <trkpt lat="47.22601" lon="3.90749">
        <ele>435</ele>
        <time>2022-06-03T22:57:04Z</time>
      </trkpt>
      <trkpt lat="47.22611" lon="3.90747">
        <ele>436</ele>
        <time>2022-06-03T22:57:06Z</time>
      </trkpt>
      <trkpt lat="47.22653" lon="3.90706">
        <ele>437</ele>
        <time>2022-06-03T22:57:15Z</time>
      </trkpt>
      <trkpt lat="47.22674" lon="3.9069">
        <ele>438</ele>
        <time>2022-06-03T22:57:19Z</time>
      </trkpt>
      <trkpt lat="47.22705" lon="3.9068">
        <ele>439</ele>
        <time>2022-06-03T22:57:24Z</time>
      </trkpt>
      <trkpt lat="47.22743" lon="3.90674">
        <ele>440</ele>
        <time>2022-06-03T22:57:31Z</time>
      </trkpt>
      <trkpt lat="47.22763" lon="3.90664">
        <ele>441</ele>
        <time>2022-06-03T22:57:35Z</time>
      </trkpt>
      <trkpt lat="47.22808" lon="3.90617">
        <ele>444</ele>
        <time>2022-06-03T22:57:45Z</time>
      </trkpt>
      <trkpt lat="47.22854" lon="3.90574">
        <ele>446</ele>
        <time>2022-06-03T22:57:55Z</time>
      </trkpt>
      <trkpt lat="47.22855" lon="3.90559">
        <ele>445</ele>
        <time>2022-06-03T22:57:56Z</time>
      </trkpt>
      <trkpt lat="47.22863" lon="3.90541">
        <ele>444</ele>
        <time>2022-06-03T22:57:59Z</time>
      </trkpt>
      <trkpt lat="47.22945" lon="3.9045">
        <ele>437</ele>
        <time>2022-06-03T22:58:17Z</time>
      </trkpt>
      <trkpt lat="47.22972" lon="3.90416">
        <ele>434</ele>
        <time>2022-06-03T22:58:24Z</time>
      </trkpt>
      <trkpt lat="47.23057" lon="3.90282">
        <ele>426</ele>
        <time>2022-06-03T22:58:46Z</time>
      </trkpt>
      <trkpt lat="47.23061" lon="3.9027">
        <ele>426</ele>
        <time>2022-06-03T22:58:47Z</time>
      </trkpt>
      <trkpt lat="47.23062" lon="3.90259">
        <ele>425</ele>
        <time>2022-06-03T22:58:49Z</time>
      </trkpt>
      <trkpt lat="47.23062" lon="3.90249">
        <ele>424</ele>
        <time>2022-06-03T22:58:50Z</time>
      </trkpt>
      <trkpt lat="47.2306" lon="3.90239">
        <ele>423</ele>
        <time>2022-06-03T22:58:51Z</time>
      </trkpt>
      <trkpt lat="47.23058" lon="3.9023">
        <ele>423</ele>
        <time>2022-06-03T22:58:52Z</time>
      </trkpt>
      <trkpt lat="47.23035" lon="3.90189">
        <ele>419</ele>
        <time>2022-06-03T22:58:59Z</time>
      </trkpt>
      <trkpt lat="47.23068" lon="3.90137">
        <ele>418</ele>
        <time>2022-06-03T22:59:07Z</time>
      </trkpt>
      <trkpt lat="47.23072" lon="3.90128">
        <ele>418</ele>
        <time>2022-06-03T22:59:09Z</time>
      </trkpt>
      <trkpt lat="47.23076" lon="3.9011">
        <ele>418</ele>
        <time>2022-06-03T22:59:11Z</time>
      </trkpt>
      <trkpt lat="47.23075" lon="3.90092">
        <ele>418</ele>
        <time>2022-06-03T22:59:13Z</time>
      </trkpt>
      <trkpt lat="47.23071" lon="3.90062">
        <ele>417</ele>
        <time>2022-06-03T22:59:17Z</time>
      </trkpt>
      <trkpt lat="47.23072" lon="3.90045">
        <ele>416</ele>
        <time>2022-06-03T22:59:19Z</time>
      </trkpt>
      <trkpt lat="47.23079" lon="3.90017">
        <ele>416</ele>
        <time>2022-06-03T22:59:22Z</time>
      </trkpt>
      <trkpt lat="47.23095" lon="3.89928">
        <ele>416</ele>
        <time>2022-06-03T22:59:34Z</time>
      </trkpt>
      <trkpt lat="47.23102" lon="3.89906">
        <ele>416</ele>
        <time>2022-06-03T22:59:36Z</time>
      </trkpt>
      <trkpt lat="47.23107" lon="3.89896">
        <ele>417</ele>
        <time>2022-06-03T22:59:38Z</time>
      </trkpt>
      <trkpt lat="47.23142" lon="3.89851">
        <ele>420</ele>
        <time>2022-06-03T22:59:46Z</time>
      </trkpt>
      <trkpt lat="47.23164" lon="3.89806">
        <ele>421</ele>
        <time>2022-06-03T22:59:53Z</time>
      </trkpt>
      <trkpt lat="47.23173" lon="3.89778">
        <ele>422</ele>
        <time>2022-06-03T22:59:57Z</time>
      </trkpt>
      <trkpt lat="47.23177" lon="3.89758">
        <ele>422</ele>
        <time>2022-06-03T22:59:59Z</time>
      </trkpt>
      <trkpt lat="47.2318" lon="3.89735">
        <ele>421</ele>
        <time>2022-06-03T23:00:02Z</time>
      </trkpt>
      <trkpt lat="47.23183" lon="3.89691">
        <ele>419</ele>
        <time>2022-06-03T23:00:07Z</time>
      </trkpt>
      <trkpt lat="47.23187" lon="3.89672">
        <ele>418</ele>
        <time>2022-06-03T23:00:10Z</time>
      </trkpt>
      <trkpt lat="47.23202" lon="3.89648">
        <ele>417</ele>
        <time>2022-06-03T23:00:14Z</time>
      </trkpt>
      <trkpt lat="47.2322" lon="3.89631">
        <ele>416</ele>
        <time>2022-06-03T23:00:18Z</time>
      </trkpt>
      <trkpt lat="47.23242" lon="3.89619">
        <ele>416</ele>
        <time>2022-06-03T23:00:22Z</time>
      </trkpt>
      <trkpt lat="47.2329" lon="3.89604">
        <ele>420</ele>
        <time>2022-06-03T23:00:30Z</time>
      </trkpt>
      <trkpt lat="47.233" lon="3.89597">
        <ele>420</ele>
        <time>2022-06-03T23:00:32Z</time>
      </trkpt>
      <trkpt lat="47.23304" lon="3.89591">
        <ele>420</ele>
        <time>2022-06-03T23:00:33Z</time>
      </trkpt>
      <trkpt lat="47.23313" lon="3.89569">
        <ele>421</ele>
        <time>2022-06-03T23:00:37Z</time>
      </trkpt>
      <trkpt lat="47.23317" lon="3.89548">
        <ele>422</ele>
        <time>2022-06-03T23:00:39Z</time>
      </trkpt>
      <trkpt lat="47.23317" lon="3.895">
        <ele>422</ele>
        <time>2022-06-03T23:00:45Z</time>
      </trkpt>
      <trkpt lat="47.23318" lon="3.89472">
        <ele>421</ele>
        <time>2022-06-03T23:00:48Z</time>
      </trkpt>
      <trkpt lat="47.23336" lon="3.89362">
        <ele>419</ele>
        <time>2022-06-03T23:01:02Z</time>
      </trkpt>
      <trkpt lat="47.23339" lon="3.8934">
        <ele>419</ele>
        <time>2022-06-03T23:01:05Z</time>
      </trkpt>
      <trkpt lat="47.23339" lon="3.8932">
        <ele>419</ele>
        <time>2022-06-03T23:01:07Z</time>
      </trkpt>
      <trkpt lat="47.23332" lon="3.89273">
        <ele>417</ele>
        <time>2022-06-03T23:01:13Z</time>
      </trkpt>
      <trkpt lat="47.23332" lon="3.89257">
        <ele>417</ele>
        <time>2022-06-03T23:01:15Z</time>
      </trkpt>
      <trkpt lat="47.23341" lon="3.89217">
        <ele>417</ele>
        <time>2022-06-03T23:01:20Z</time>
      </trkpt>
      <trkpt lat="47.23349" lon="3.89228">
        <ele>418</ele>
        <time>2022-06-03T23:01:22Z</time>
      </trkpt>
      <trkpt lat="47.23361" lon="3.89237">
        <ele>418</ele>
        <time>2022-06-03T23:01:24Z</time>
      </trkpt>
      <trkpt lat="47.23375" lon="3.89243">
        <ele>419</ele>
        <time>2022-06-03T23:01:27Z</time>
      </trkpt>
      <trkpt lat="47.23408" lon="3.89245">
        <ele>421</ele>
        <time>2022-06-03T23:01:33Z</time>
      </trkpt>
      <trkpt lat="47.23454" lon="3.89223">
        <ele>423</ele>
        <time>2022-06-03T23:01:41Z</time>
      </trkpt>
      <trkpt lat="47.2354" lon="3.89176">
        <ele>422</ele>
        <time>2022-06-03T23:01:58Z</time>
      </trkpt>
      <trkpt lat="47.23586" lon="3.89176">
        <ele>423</ele>
        <time>2022-06-03T23:02:06Z</time>
      </trkpt>
      <trkpt lat="47.23637" lon="3.89218">
        <ele>428</ele>
        <time>2022-06-03T23:02:16Z</time>
      </trkpt>
      <trkpt lat="47.23678" lon="3.89269">
        <ele>433</ele>
        <time>2022-06-03T23:02:26Z</time>
      </trkpt>
      <trkpt lat="47.23723" lon="3.89335">
        <ele>436</ele>
        <time>2022-06-03T23:02:37Z</time>
      </trkpt>
      <trkpt lat="47.23743" lon="3.89384">
        <ele>439</ele>
        <time>2022-06-03T23:02:44Z</time>
      </trkpt>
      <trkpt lat="47.23761" lon="3.89442">
        <ele>440</ele>
        <time>2022-06-03T23:02:52Z</time>
      </trkpt>
      <trkpt lat="47.23786" lon="3.89555">
        <ele>437</ele>
        <time>2022-06-03T23:03:06Z</time>
      </trkpt>
      <trkpt lat="47.23808" lon="3.89614">
        <ele>434</ele>
        <time>2022-06-03T23:03:14Z</time>
      </trkpt>
      <trkpt lat="47.23831" lon="3.89663">
        <ele>430</ele>
        <time>2022-06-03T23:03:21Z</time>
      </trkpt>
      <trkpt lat="47.23854" lon="3.89691">
        <ele>430</ele>
        <time>2022-06-03T23:03:27Z</time>
      </trkpt>
      <trkpt lat="47.23939" lon="3.89771">
        <ele>429</ele>
        <time>2022-06-03T23:03:45Z</time>
      </trkpt>
      <trkpt lat="47.24052" lon="3.89794">
        <ele>438</ele>
        <time>2022-06-03T23:04:05Z</time>
      </trkpt>
      <trkpt lat="47.24092" lon="3.89807">
        <ele>443</ele>
        <time>2022-06-03T23:04:12Z</time>
      </trkpt>
      <trkpt lat="47.24121" lon="3.89839">
        <ele>447</ele>
        <time>2022-06-03T23:04:19Z</time>
      </trkpt>
      <trkpt lat="47.24181" lon="3.89923">
        <ele>452</ele>
        <time>2022-06-03T23:04:33Z</time>
      </trkpt>
      <trkpt lat="47.24249" lon="3.90011">
        <ele>456</ele>
        <time>2022-06-03T23:04:50Z</time>
      </trkpt>
      <trkpt lat="47.24345" lon="3.9012">
        <ele>465</ele>
        <time>2022-06-03T23:05:11Z</time>
      </trkpt>
      <trkpt lat="47.24363" lon="3.90157">
        <ele>465</ele>
        <time>2022-06-03T23:05:17Z</time>
      </trkpt>
      <trkpt lat="47.24377" lon="3.90221">
        <ele>465</ele>
        <time>2022-06-03T23:05:25Z</time>
      </trkpt>
      <trkpt lat="47.24375" lon="3.90389">
        <ele>465</ele>
        <time>2022-06-03T23:05:45Z</time>
      </trkpt>
      <trkpt lat="47.24387" lon="3.90382">
        <ele>464</ele>
        <time>2022-06-03T23:05:47Z</time>
      </trkpt>
      <trkpt lat="47.24403" lon="3.90365">
        <ele>463</ele>
        <time>2022-06-03T23:05:51Z</time>
      </trkpt>
      <trkpt lat="47.2441" lon="3.90353">
        <ele>463</ele>
        <time>2022-06-03T23:05:53Z</time>
      </trkpt>
      <trkpt lat="47.24416" lon="3.90338">
        <ele>462</ele>
        <time>2022-06-03T23:05:55Z</time>
      </trkpt>
      <trkpt lat="47.2444" lon="3.90237">
        <ele>469</ele>
        <time>2022-06-03T23:06:08Z</time>
      </trkpt>
      <trkpt lat="47.24445" lon="3.90205">
        <ele>470</ele>
        <time>2022-06-03T23:06:12Z</time>
      </trkpt>
      <trkpt lat="47.24449" lon="3.90149">
        <ele>471</ele>
        <time>2022-06-03T23:06:19Z</time>
      </trkpt>
      <trkpt lat="47.24451" lon="3.89996">
        <ele>474</ele>
        <time>2022-06-03T23:06:37Z</time>
      </trkpt>
      <trkpt lat="47.2446" lon="3.89939">
        <ele>473</ele>
        <time>2022-06-03T23:06:44Z</time>
      </trkpt>
      <trkpt lat="47.24474" lon="3.89899">
        <ele>473</ele>
        <time>2022-06-03T23:06:50Z</time>
      </trkpt>
      <trkpt lat="47.24511" lon="3.89847">
        <ele>475</ele>
        <time>2022-06-03T23:06:59Z</time>
      </trkpt>
      <trkpt lat="47.2455" lon="3.89813">
        <ele>475</ele>
        <time>2022-06-03T23:07:07Z</time>
      </trkpt>
      <trkpt lat="47.24616" lon="3.8977">
        <ele>476</ele>
        <time>2022-06-03T23:07:20Z</time>
      </trkpt>
      <trkpt lat="47.24642" lon="3.89746">
        <ele>477</ele>
        <time>2022-06-03T23:07:25Z</time>
      </trkpt>
      <trkpt lat="47.24659" lon="3.8971">
        <ele>479</ele>
        <time>2022-06-03T23:07:30Z</time>
      </trkpt>
      <trkpt lat="47.24668" lon="3.89661">
        <ele>479</ele>
        <time>2022-06-03T23:07:36Z</time>
      </trkpt>
      <trkpt lat="47.24668" lon="3.89603">
        <ele>480</ele>
        <time>2022-06-03T23:07:43Z</time>
      </trkpt>
      <trkpt lat="47.2468" lon="3.89552">
        <ele>482</ele>
        <time>2022-06-03T23:07:50Z</time>
      </trkpt>
      <trkpt lat="47.24703" lon="3.89509">
        <ele>483</ele>
        <time>2022-06-03T23:07:57Z</time>
      </trkpt>
      <trkpt lat="47.24747" lon="3.89453">
        <ele>481</ele>
        <time>2022-06-03T23:08:07Z</time>
      </trkpt>
      <trkpt lat="47.24828" lon="3.89371">
        <ele>481</ele>
        <time>2022-06-03T23:08:24Z</time>
      </trkpt>
      <trkpt lat="47.24862" lon="3.89333">
        <ele>479</ele>
        <time>2022-06-03T23:08:32Z</time>
      </trkpt>
      <trkpt lat="47.24881" lon="3.89302">
        <ele>478</ele>
        <time>2022-06-03T23:08:37Z</time>
      </trkpt>
      <trkpt lat="47.2493" lon="3.89122">
        <ele>478</ele>
        <time>2022-06-03T23:09:00Z</time>
      </trkpt>
      <trkpt lat="47.24939" lon="3.89071">
        <ele>479</ele>
        <time>2022-06-03T23:09:07Z</time>
      </trkpt>
      <trkpt lat="47.24936" lon="3.89039">
        <ele>480</ele>
        <time>2022-06-03T23:09:11Z</time>
      </trkpt>
      <trkpt lat="47.2492" lon="3.88931">
        <ele>483</ele>
        <time>2022-06-03T23:09:24Z</time>
      </trkpt>
      <trkpt lat="47.24926" lon="3.88893">
        <ele>483</ele>
        <time>2022-06-03T23:09:29Z</time>
      </trkpt>
      <trkpt lat="47.24936" lon="3.88865">
        <ele>482</ele>
        <time>2022-06-03T23:09:33Z</time>
      </trkpt>
      <trkpt lat="47.24948" lon="3.88846">
        <ele>482</ele>
        <time>2022-06-03T23:09:36Z</time>
      </trkpt>
      <trkpt lat="47.24981" lon="3.88814">
        <ele>483</ele>
        <time>2022-06-03T23:09:43Z</time>
      </trkpt>
      <trkpt lat="47.25028" lon="3.88788">
        <ele>483</ele>
        <time>2022-06-03T23:09:52Z</time>
      </trkpt>
      <trkpt lat="47.25056" lon="3.8876">
        <ele>483</ele>
        <time>2022-06-03T23:09:58Z</time>
      </trkpt>
      <trkpt lat="47.25074" lon="3.88713">
        <ele>483</ele>
        <time>2022-06-03T23:10:04Z</time>
      </trkpt>
      <trkpt lat="47.25083" lon="3.88629">
        <ele>484</ele>
        <time>2022-06-03T23:10:15Z</time>
      </trkpt>
      <trkpt lat="47.25095" lon="3.88556">
        <ele>487</ele>
        <time>2022-06-03T23:10:24Z</time>
      </trkpt>
      <trkpt lat="47.25136" lon="3.88464">
        <ele>490</ele>
        <time>2022-06-03T23:10:37Z</time>
      </trkpt>
      <trkpt lat="47.25163" lon="3.88408">
        <ele>490</ele>
        <time>2022-06-03T23:10:45Z</time>
      </trkpt>
      <trkpt lat="47.25184" lon="3.88354">
        <ele>491</ele>
        <time>2022-06-03T23:10:53Z</time>
      </trkpt>
      <trkpt lat="47.252" lon="3.88292">
        <ele>493</ele>
        <time>2022-06-03T23:11:01Z</time>
      </trkpt>
      <trkpt lat="47.2522" lon="3.88228">
        <ele>495</ele>
        <time>2022-06-03T23:11:09Z</time>
      </trkpt>
      <trkpt lat="47.25234" lon="3.88208">
        <ele>495</ele>
        <time>2022-06-03T23:11:13Z</time>
      </trkpt>
      <trkpt lat="47.25254" lon="3.88196">
        <ele>495</ele>
        <time>2022-06-03T23:11:17Z</time>
      </trkpt>
      <trkpt lat="47.25323" lon="3.88182">
        <ele>493</ele>
        <time>2022-06-03T23:11:29Z</time>
      </trkpt>
      <trkpt lat="47.25366" lon="3.88157">
        <ele>495</ele>
        <time>2022-06-03T23:11:37Z</time>
      </trkpt>
      <trkpt lat="47.25398" lon="3.88111">
        <ele>497</ele>
        <time>2022-06-03T23:11:45Z</time>
      </trkpt>
      <trkpt lat="47.25442" lon="3.88028">
        <ele>498</ele>
        <time>2022-06-03T23:11:58Z</time>
      </trkpt>
      <trkpt lat="47.25506" lon="3.87903">
        <ele>498</ele>
        <time>2022-06-03T23:12:17Z</time>
      </trkpt>
      <trkpt lat="47.25529" lon="3.87878">
        <ele>499</ele>
        <time>2022-06-03T23:12:22Z</time>
      </trkpt>
      <trkpt lat="47.25554" lon="3.87864">
        <ele>499</ele>
        <time>2022-06-03T23:12:27Z</time>
      </trkpt>
      <trkpt lat="47.25583" lon="3.87863">
        <ele>498</ele>
        <time>2022-06-03T23:12:32Z</time>
      </trkpt>
      <trkpt lat="47.25646" lon="3.8787">
        <ele>499</ele>
        <time>2022-06-03T23:12:43Z</time>
      </trkpt>
      <trkpt lat="47.25663" lon="3.8787">
        <ele>499</ele>
        <time>2022-06-03T23:12:46Z</time>
      </trkpt>
      <trkpt lat="47.25705" lon="3.87861">
        <ele>500</ele>
        <time>2022-06-03T23:12:54Z</time>
      </trkpt>
      <trkpt lat="47.25806" lon="3.87788">
        <ele>501</ele>
        <time>2022-06-03T23:13:14Z</time>
      </trkpt>
      <trkpt lat="47.25867" lon="3.87717">
        <ele>495</ele>
        <time>2022-06-03T23:13:27Z</time>
      </trkpt>
      <trkpt lat="47.2596" lon="3.8765">
        <ele>486</ele>
        <time>2022-06-03T23:13:46Z</time>
      </trkpt>
      <trkpt lat="47.25999" lon="3.87634">
        <ele>484</ele>
        <time>2022-06-03T23:13:53Z</time>
      </trkpt>
      <trkpt lat="47.26014" lon="3.87619">
        <ele>485</ele>
        <time>2022-06-03T23:13:56Z</time>
      </trkpt>
      <trkpt lat="47.26024" lon="3.87596">
        <ele>484</ele>
        <time>2022-06-03T23:14:00Z</time>
      </trkpt>
      <trkpt lat="47.26027" lon="3.87567">
        <ele>483</ele>
        <time>2022-06-03T23:14:03Z</time>
      </trkpt>
      <trkpt lat="47.26017" lon="3.87515">
        <ele>478</ele>
        <time>2022-06-03T23:14:10Z</time>
      </trkpt>
      <trkpt lat="47.25984" lon="3.87392">
        <ele>474</ele>
        <time>2022-06-03T23:14:26Z</time>
      </trkpt>
      <trkpt lat="47.25893" lon="3.87062">
        <ele>460</ele>
        <time>2022-06-03T23:15:09Z</time>
      </trkpt>
      <trkpt lat="47.25889" lon="3.87024">
        <ele>458</ele>
        <time>2022-06-03T23:15:13Z</time>
      </trkpt>
      <trkpt lat="47.25891" lon="3.87001">
        <ele>458</ele>
        <time>2022-06-03T23:15:16Z</time>
      </trkpt>
      <trkpt lat="47.25974" lon="3.86546">
        <ele>444</ele>
        <time>2022-06-03T23:16:13Z</time>
      </trkpt>
      <trkpt lat="47.25976" lon="3.86513">
        <ele>443</ele>
        <time>2022-06-03T23:16:17Z</time>
      </trkpt>
      <trkpt lat="47.25973" lon="3.86483">
        <ele>443</ele>
        <time>2022-06-03T23:16:21Z</time>
      </trkpt>
      <trkpt lat="47.25963" lon="3.86451">
        <ele>444</ele>
        <time>2022-06-03T23:16:25Z</time>
      </trkpt>
      <trkpt lat="47.25941" lon="3.86432">
        <ele>444</ele>
        <time>2022-06-03T23:16:29Z</time>
      </trkpt>
      <trkpt lat="47.25922" lon="3.86427">
        <ele>443</ele>
        <time>2022-06-03T23:16:33Z</time>
      </trkpt>
      <trkpt lat="47.25881" lon="3.86434">
        <ele>441</ele>
        <time>2022-06-03T23:16:40Z</time>
      </trkpt>
      <trkpt lat="47.25832" lon="3.86447">
        <ele>439</ele>
        <time>2022-06-03T23:16:49Z</time>
      </trkpt>
      <trkpt lat="47.25798" lon="3.86449">
        <ele>438</ele>
        <time>2022-06-03T23:16:55Z</time>
      </trkpt>
      <trkpt lat="47.25773" lon="3.86432">
        <ele>437</ele>
        <time>2022-06-03T23:17:00Z</time>
      </trkpt>
      <trkpt lat="47.2576" lon="3.86404">
        <ele>436</ele>
        <time>2022-06-03T23:17:04Z</time>
      </trkpt>
      <trkpt lat="47.25757" lon="3.86243">
        <ele>434</ele>
        <time>2022-06-03T23:17:24Z</time>
      </trkpt>
      <trkpt lat="47.25765" lon="3.86204">
        <ele>434</ele>
        <time>2022-06-03T23:17:28Z</time>
      </trkpt>
      <trkpt lat="47.25851" lon="3.86048">
        <ele>433</ele>
        <time>2022-06-03T23:17:53Z</time>
      </trkpt>
      <trkpt lat="47.26005" lon="3.85788">
        <ele>434</ele>
        <time>2022-06-03T23:18:34Z</time>
      </trkpt>
      <trkpt lat="47.26025" lon="3.85759">
        <ele>434</ele>
        <time>2022-06-03T23:18:39Z</time>
      </trkpt>
      <trkpt lat="47.26045" lon="3.85738">
        <ele>433</ele>
        <time>2022-06-03T23:18:44Z</time>
      </trkpt>
      <trkpt lat="47.26075" lon="3.85719">
        <ele>432</ele>
        <time>2022-06-03T23:18:50Z</time>
      </trkpt>
      <trkpt lat="47.26104" lon="3.85707">
        <ele>431</ele>
        <time>2022-06-03T23:18:55Z</time>
      </trkpt>
      <trkpt lat="47.26184" lon="3.85688">
        <ele>431</ele>
        <time>2022-06-03T23:19:09Z</time>
      </trkpt>
      <trkpt lat="47.26201" lon="3.85682">
        <ele>431</ele>
        <time>2022-06-03T23:19:12Z</time>
      </trkpt>
      <trkpt lat="47.26214" lon="3.85674">
        <ele>431</ele>
        <time>2022-06-03T23:19:15Z</time>
      </trkpt>
      <trkpt lat="47.26225" lon="3.85662">
        <ele>431</ele>
        <time>2022-06-03T23:19:17Z</time>
      </trkpt>
      <trkpt lat="47.26275" lon="3.85593">
        <ele>431</ele>
        <time>2022-06-03T23:19:30Z</time>
      </trkpt>
      <trkpt lat="47.26435" lon="3.85353">
        <ele>433</ele>
        <time>2022-06-03T23:20:10Z</time>
      </trkpt>
      <trkpt lat="47.26472" lon="3.85265">
        <ele>434</ele>
        <time>2022-06-03T23:20:23Z</time>
      </trkpt>
      <trkpt lat="47.26515" lon="3.85158">
        <ele>439</ele>
        <time>2022-06-03T23:20:38Z</time>
      </trkpt>
      <trkpt lat="47.26558" lon="3.85066">
        <ele>444</ele>
        <time>2022-06-03T23:20:51Z</time>
      </trkpt>
      <trkpt lat="47.26621" lon="3.8497">
        <ele>444</ele>
        <time>2022-06-03T23:21:07Z</time>
      </trkpt>
      <trkpt lat="47.26651" lon="3.84944">
        <ele>445</ele>
        <time>2022-06-03T23:21:14Z</time>
      </trkpt>
      <trkpt lat="47.2667" lon="3.84938">
        <ele>445</ele>
        <time>2022-06-03T23:21:17Z</time>
      </trkpt>
      <trkpt lat="47.26735" lon="3.84927">
        <ele>442</ele>
        <time>2022-06-03T23:21:29Z</time>
      </trkpt>
      <trkpt lat="47.26758" lon="3.84915">
        <ele>443</ele>
        <time>2022-06-03T23:21:33Z</time>
      </trkpt>
      <trkpt lat="47.26783" lon="3.84887">
        <ele>447</ele>
        <time>2022-06-03T23:21:39Z</time>
      </trkpt>
      <trkpt lat="47.268" lon="3.84856">
        <ele>449</ele>
        <time>2022-06-03T23:21:43Z</time>
      </trkpt>
      <trkpt lat="47.26848" lon="3.84779">
        <ele>447</ele>
        <time>2022-06-03T23:21:56Z</time>
      </trkpt>
      <trkpt lat="47.26862" lon="3.84762">
        <ele>448</ele>
        <time>2022-06-03T23:21:59Z</time>
      </trkpt>
      <trkpt lat="47.26958" lon="3.84672">
        <ele>448</ele>
        <time>2022-06-03T23:22:19Z</time>
      </trkpt>
      <trkpt lat="47.2698" lon="3.84641">
        <ele>446</ele>
        <time>2022-06-03T23:22:25Z</time>
      </trkpt>
      <trkpt lat="47.26987" lon="3.84626">
        <ele>445</ele>
        <time>2022-06-03T23:22:27Z</time>
      </trkpt>
      <trkpt lat="47.26993" lon="3.8461">
        <ele>444</ele>
        <time>2022-06-03T23:22:29Z</time>
      </trkpt>
      <trkpt lat="47.27002" lon="3.84572">
        <ele>442</ele>
        <time>2022-06-03T23:22:34Z</time>
      </trkpt>
      <trkpt lat="47.27008" lon="3.84535">
        <ele>444</ele>
        <time>2022-06-03T23:22:39Z</time>
      </trkpt>
      <trkpt lat="47.27023" lon="3.84457">
        <ele>446</ele>
        <time>2022-06-03T23:22:49Z</time>
      </trkpt>
      <trkpt lat="47.27028" lon="3.8444">
        <ele>446</ele>
        <time>2022-06-03T23:22:51Z</time>
      </trkpt>
      <trkpt lat="47.27042" lon="3.84411">
        <ele>447</ele>
        <time>2022-06-03T23:22:55Z</time>
      </trkpt>
      <trkpt lat="47.27062" lon="3.84381">
        <ele>445</ele>
        <time>2022-06-03T23:23:00Z</time>
      </trkpt>
      <trkpt lat="47.27081" lon="3.84361">
        <ele>444</ele>
        <time>2022-06-03T23:23:04Z</time>
      </trkpt>
      <trkpt lat="47.27123" lon="3.84336">
        <ele>444</ele>
        <time>2022-06-03T23:23:12Z</time>
      </trkpt>
      <trkpt lat="47.27143" lon="3.84322">
        <ele>444</ele>
        <time>2022-06-03T23:23:16Z</time>
      </trkpt>
      <trkpt lat="47.27159" lon="3.84307">
        <ele>444</ele>
        <time>2022-06-03T23:23:20Z</time>
      </trkpt>
      <trkpt lat="47.27176" lon="3.84281">
        <ele>444</ele>
        <time>2022-06-03T23:23:24Z</time>
      </trkpt>
      <trkpt lat="47.27186" lon="3.84255">
        <ele>445</ele>
        <time>2022-06-03T23:23:28Z</time>
      </trkpt>
      <trkpt lat="47.27208" lon="3.8419">
        <ele>445</ele>
        <time>2022-06-03T23:23:36Z</time>
      </trkpt>
      <trkpt lat="47.27225" lon="3.84119">
        <ele>444</ele>
        <time>2022-06-03T23:23:46Z</time>
      </trkpt>
      <trkpt lat="47.27226" lon="3.83999">
        <ele>442</ele>
        <time>2022-06-03T23:24:00Z</time>
      </trkpt>
      <trkpt lat="47.27235" lon="3.83957">
        <ele>441</ele>
        <time>2022-06-03T23:24:05Z</time>
      </trkpt>
      <trkpt lat="47.27248" lon="3.8393">
        <ele>442</ele>
        <time>2022-06-03T23:24:09Z</time>
      </trkpt>
      <trkpt lat="47.27263" lon="3.83905">
        <ele>441</ele>
        <time>2022-06-03T23:24:13Z</time>
      </trkpt>
      <trkpt lat="47.27285" lon="3.83885">
        <ele>441</ele>
        <time>2022-06-03T23:24:18Z</time>
      </trkpt>
      <trkpt lat="47.27307" lon="3.83873">
        <ele>441</ele>
        <time>2022-06-03T23:24:22Z</time>
      </trkpt>
      <trkpt lat="47.27334" lon="3.83861">
        <ele>442</ele>
        <time>2022-06-03T23:24:27Z</time>
      </trkpt>
      <trkpt lat="47.27363" lon="3.83844">
        <ele>442</ele>
        <time>2022-06-03T23:24:33Z</time>
      </trkpt>
      <trkpt lat="47.27437" lon="3.83768">
        <ele>436</ele>
        <time>2022-06-03T23:24:49Z</time>
      </trkpt>
      <trkpt lat="47.27465" lon="3.83731">
        <ele>433</ele>
        <time>2022-06-03T23:24:55Z</time>
      </trkpt>
      <trkpt lat="47.27501" lon="3.83664">
        <ele>430</ele>
        <time>2022-06-03T23:25:06Z</time>
      </trkpt>
      <trkpt lat="47.27518" lon="3.83638">
        <ele>431</ele>
        <time>2022-06-03T23:25:10Z</time>
      </trkpt>
      <trkpt lat="47.27533" lon="3.83621">
        <ele>431</ele>
        <time>2022-06-03T23:25:13Z</time>
      </trkpt>
      <trkpt lat="47.2755" lon="3.83609">
        <ele>432</ele>
        <time>2022-06-03T23:25:17Z</time>
      </trkpt>
      <trkpt lat="47.27594" lon="3.83586">
        <ele>433</ele>
        <time>2022-06-03T23:25:25Z</time>
      </trkpt>
      <trkpt lat="47.27615" lon="3.8357">
        <ele>433</ele>
        <time>2022-06-03T23:25:29Z</time>
      </trkpt>
      <trkpt lat="47.27634" lon="3.83552">
        <ele>432</ele>
        <time>2022-06-03T23:25:33Z</time>
      </trkpt>
      <trkpt lat="47.27702" lon="3.83469">
        <ele>426</ele>
        <time>2022-06-03T23:25:49Z</time>
      </trkpt>
      <trkpt lat="47.27747" lon="3.83411">
        <ele>426</ele>
        <time>2022-06-03T23:26:00Z</time>
      </trkpt>
      <trkpt lat="47.27772" lon="3.83367">
        <ele>430</ele>
        <time>2022-06-03T23:26:07Z</time>
      </trkpt>
      <trkpt lat="47.27796" lon="3.83306">
        <ele>431</ele>
        <time>2022-06-03T23:26:15Z</time>
      </trkpt>
      <trkpt lat="47.27803" lon="3.83272">
        <ele>432</ele>
        <time>2022-06-03T23:26:19Z</time>
      </trkpt>
      <trkpt lat="47.27809" lon="3.83237">
        <ele>432</ele>
        <time>2022-06-03T23:26:24Z</time>
      </trkpt>
      <trkpt lat="47.27868" lon="3.82657">
        <ele>424</ele>
        <time>2022-06-03T23:27:35Z</time>
      </trkpt>
      <trkpt lat="47.27883" lon="3.82576">
        <ele>422</ele>
        <time>2022-06-03T23:27:45Z</time>
      </trkpt>
      <trkpt lat="47.27908" lon="3.82487">
        <ele>420</ele>
        <time>2022-06-03T23:27:56Z</time>
      </trkpt>
      <trkpt lat="47.27934" lon="3.82421">
        <ele>421</ele>
        <time>2022-06-03T23:28:06Z</time>
      </trkpt>
      <trkpt lat="47.27986" lon="3.8231">
        <ele>423</ele>
        <time>2022-06-03T23:28:22Z</time>
      </trkpt>
      <trkpt lat="47.28004" lon="3.82279">
        <ele>422</ele>
        <time>2022-06-03T23:28:27Z</time>
      </trkpt>
      <trkpt lat="47.27991" lon="3.8227">
        <ele>422</ele>
        <time>2022-06-03T23:28:29Z</time>
      </trkpt>
      <trkpt lat="47.28004" lon="3.82279">
        <ele>422</ele>
        <time>2022-06-03T23:28:32Z</time>
      </trkpt>
      <trkpt lat="47.28045" lon="3.82216">
        <ele>420</ele>
        <time>2022-06-03T23:28:42Z</time>
      </trkpt>
      <trkpt lat="47.28051" lon="3.82203">
        <ele>420</ele>
        <time>2022-06-03T23:28:44Z</time>
      </trkpt>
      <trkpt lat="47.28648" lon="3.81913">
        <ele>419</ele>
        <time>2022-06-03T23:30:36Z</time>
      </trkpt>
      <trkpt lat="47.28648" lon="3.81899">
        <ele>419</ele>
        <time>2022-06-03T23:30:38Z</time>
      </trkpt>
      <trkpt lat="47.28652" lon="3.81874">
        <ele>419</ele>
        <time>2022-06-03T23:30:41Z</time>
      </trkpt>
      <trkpt lat="47.28656" lon="3.81858">
        <ele>419</ele>
        <time>2022-06-03T23:30:43Z</time>
      </trkpt>
      <trkpt lat="47.28657" lon="3.81829">
        <ele>420</ele>
        <time>2022-06-03T23:30:47Z</time>
      </trkpt>
      <trkpt lat="47.28653" lon="3.81799">
        <ele>422</ele>
        <time>2022-06-03T23:30:50Z</time>
      </trkpt>
      <trkpt lat="47.2864" lon="3.81772">
        <ele>424</ele>
        <time>2022-06-03T23:30:54Z</time>
      </trkpt>
      <trkpt lat="47.28661" lon="3.81758">
        <ele>425</ele>
        <time>2022-06-03T23:30:58Z</time>
      </trkpt>
      <trkpt lat="47.28671" lon="3.81724">
        <ele>426</ele>
        <time>2022-06-03T23:31:03Z</time>
      </trkpt>
      <trkpt lat="47.28682" lon="3.81699">
        <ele>427</ele>
        <time>2022-06-03T23:31:06Z</time>
      </trkpt>
      <trkpt lat="47.287" lon="3.81676">
        <ele>426</ele>
        <time>2022-06-03T23:31:11Z</time>
      </trkpt>
      <trkpt lat="47.28719" lon="3.81665">
        <ele>424</ele>
        <time>2022-06-03T23:31:14Z</time>
      </trkpt>
      <trkpt lat="47.28731" lon="3.81662">
        <ele>422</ele>
        <time>2022-06-03T23:31:16Z</time>
      </trkpt>
      <trkpt lat="47.2873" lon="3.81614">
        <ele>419</ele>
        <time>2022-06-03T23:31:22Z</time>
      </trkpt>
      <trkpt lat="47.28731" lon="3.8157">
        <ele>415</ele>
        <time>2022-06-03T23:31:28Z</time>
      </trkpt>
      <trkpt lat="47.28728" lon="3.8154">
        <ele>411</ele>
        <time>2022-06-03T23:31:31Z</time>
      </trkpt>
      <trkpt lat="47.28719" lon="3.81482">
        <ele>405</ele>
        <time>2022-06-03T23:31:38Z</time>
      </trkpt>
      <trkpt lat="47.28718" lon="3.81455">
        <ele>402</ele>
        <time>2022-06-03T23:31:42Z</time>
      </trkpt>
      <trkpt lat="47.2872" lon="3.81442">
        <ele>400</ele>
        <time>2022-06-03T23:31:43Z</time>
      </trkpt>
      <trkpt lat="47.28728" lon="3.81425">
        <ele>398</ele>
        <time>2022-06-03T23:31:46Z</time>
      </trkpt>
      <trkpt lat="47.28718" lon="3.81426">
        <ele>398</ele>
        <time>2022-06-03T23:31:47Z</time>
      </trkpt>
      <trkpt lat="47.2868" lon="3.81439">
        <ele>401</ele>
        <time>2022-06-03T23:31:54Z</time>
      </trkpt>
      <trkpt lat="47.28644" lon="3.81436">
        <ele>406</ele>
        <time>2022-06-03T23:32:01Z</time>
      </trkpt>
      <trkpt lat="47.28625" lon="3.81422">
        <ele>407</ele>
        <time>2022-06-03T23:32:05Z</time>
      </trkpt>
      <trkpt lat="47.2858" lon="3.81368">
        <ele>401</ele>
        <time>2022-06-03T23:32:15Z</time>
      </trkpt>
      <trkpt lat="47.28567" lon="3.81357">
        <ele>401</ele>
        <time>2022-06-03T23:32:18Z</time>
      </trkpt>
      <trkpt lat="47.28526" lon="3.81335">
        <ele>405</ele>
        <time>2022-06-03T23:32:25Z</time>
      </trkpt>
      <trkpt lat="47.28513" lon="3.81321">
        <ele>406</ele>
        <time>2022-06-03T23:32:28Z</time>
      </trkpt>
      <trkpt lat="47.28499" lon="3.81301">
        <ele>406</ele>
        <time>2022-06-03T23:32:32Z</time>
      </trkpt>
      <trkpt lat="47.2849" lon="3.81282">
        <ele>404</ele>
        <time>2022-06-03T23:32:35Z</time>
      </trkpt>
      <trkpt lat="47.28485" lon="3.81252">
        <ele>400</ele>
        <time>2022-06-03T23:32:38Z</time>
      </trkpt>
      <trkpt lat="47.28488" lon="3.81225">
        <ele>395</ele>
        <time>2022-06-03T23:32:42Z</time>
      </trkpt>
      <trkpt lat="47.28487" lon="3.81213">
        <ele>393</ele>
        <time>2022-06-03T23:32:43Z</time>
      </trkpt>
      <trkpt lat="47.28482" lon="3.8119">
        <ele>389</ele>
        <time>2022-06-03T23:32:46Z</time>
      </trkpt>
      <trkpt lat="47.28471" lon="3.81167">
        <ele>386</ele>
        <time>2022-06-03T23:32:49Z</time>
      </trkpt>
      <trkpt lat="47.28462" lon="3.81159">
        <ele>384</ele>
        <time>2022-06-03T23:32:51Z</time>
      </trkpt>
      <trkpt lat="47.28451" lon="3.81155">
        <ele>384</ele>
        <time>2022-06-03T23:32:53Z</time>
      </trkpt>
      <trkpt lat="47.28437" lon="3.81153">
        <ele>384</ele>
        <time>2022-06-03T23:32:56Z</time>
      </trkpt>
      <trkpt lat="47.28423" lon="3.81161">
        <ele>387</ele>
        <time>2022-06-03T23:32:58Z</time>
      </trkpt>
      <trkpt lat="47.28391" lon="3.8117">
        <ele>386</ele>
        <time>2022-06-03T23:33:04Z</time>
      </trkpt>
      <trkpt lat="47.28357" lon="3.81187">
        <ele>385</ele>
        <time>2022-06-03T23:33:11Z</time>
      </trkpt>
      <trkpt lat="47.28307" lon="3.81225">
        <ele>387</ele>
        <time>2022-06-03T23:33:21Z</time>
      </trkpt>
      <trkpt lat="47.28289" lon="3.81228">
        <ele>385</ele>
        <time>2022-06-03T23:33:24Z</time>
      </trkpt>
      <trkpt lat="47.28221" lon="3.81229">
        <ele>378</ele>
        <time>2022-06-03T23:33:36Z</time>
      </trkpt>
      <trkpt lat="47.28181" lon="3.81233">
        <ele>375</ele>
        <time>2022-06-03T23:33:43Z</time>
      </trkpt>
      <trkpt lat="47.28155" lon="3.81246">
        <ele>379</ele>
        <time>2022-06-03T23:33:48Z</time>
      </trkpt>
      <trkpt lat="47.28135" lon="3.81262">
        <ele>384</ele>
        <time>2022-06-03T23:33:52Z</time>
      </trkpt>
      <trkpt lat="47.28124" lon="3.81264">
        <ele>386</ele>
        <time>2022-06-03T23:33:54Z</time>
      </trkpt>
      <trkpt lat="47.28115" lon="3.81263">
        <ele>387</ele>
        <time>2022-06-03T23:33:56Z</time>
      </trkpt>
      <trkpt lat="47.28103" lon="3.81254">
        <ele>387</ele>
        <time>2022-06-03T23:33:58Z</time>
      </trkpt>
      <trkpt lat="47.28097" lon="3.81245">
        <ele>386</ele>
        <time>2022-06-03T23:33:59Z</time>
      </trkpt>
      <trkpt lat="47.2809" lon="3.81218">
        <ele>382</ele>
        <time>2022-06-03T23:34:03Z</time>
      </trkpt>
      <trkpt lat="47.2809" lon="3.81181">
        <ele>374</ele>
        <time>2022-06-03T23:34:07Z</time>
      </trkpt>
      <trkpt lat="47.28083" lon="3.81156">
        <ele>371</ele>
        <time>2022-06-03T23:34:11Z</time>
      </trkpt>
      <trkpt lat="47.28066" lon="3.81124">
        <ele>367</ele>
        <time>2022-06-03T23:34:16Z</time>
      </trkpt>
      <trkpt lat="47.28043" lon="3.81096">
        <ele>366</ele>
        <time>2022-06-03T23:34:21Z</time>
      </trkpt>
      <trkpt lat="47.28022" lon="3.81076">
        <ele>365</ele>
        <time>2022-06-03T23:34:25Z</time>
      </trkpt>
      <trkpt lat="47.27999" lon="3.81058">
        <ele>365</ele>
        <time>2022-06-03T23:34:30Z</time>
      </trkpt>
      <trkpt lat="47.27943" lon="3.81028">
        <ele>362</ele>
        <time>2022-06-03T23:34:41Z</time>
      </trkpt>
      <trkpt lat="47.27895" lon="3.81013">
        <ele>362</ele>
        <time>2022-06-03T23:34:49Z</time>
      </trkpt>
      <trkpt lat="47.27846" lon="3.81004">
        <ele>364</ele>
        <time>2022-06-03T23:34:58Z</time>
      </trkpt>
      <trkpt lat="47.27821" lon="3.8099">
        <ele>364</ele>
        <time>2022-06-03T23:35:03Z</time>
      </trkpt>
      <trkpt lat="47.27788" lon="3.80948">
        <ele>362</ele>
        <time>2022-06-03T23:35:11Z</time>
      </trkpt>
      <trkpt lat="47.2778" lon="3.80932">
        <ele>361</ele>
        <time>2022-06-03T23:35:13Z</time>
      </trkpt>
      <trkpt lat="47.27776" lon="3.80917">
        <ele>360</ele>
        <time>2022-06-03T23:35:15Z</time>
      </trkpt>
      <trkpt lat="47.27775" lon="3.80903">
        <ele>360</ele>
        <time>2022-06-03T23:35:17Z</time>
      </trkpt>
      <trkpt lat="47.27776" lon="3.80882">
        <ele>360</ele>
        <time>2022-06-03T23:35:19Z</time>
      </trkpt>
      <trkpt lat="47.27782" lon="3.80863">
        <ele>359</ele>
        <time>2022-06-03T23:35:22Z</time>
      </trkpt>
      <trkpt lat="47.2779" lon="3.8085">
        <ele>357</ele>
        <time>2022-06-03T23:35:24Z</time>
      </trkpt>
      <trkpt lat="47.278" lon="3.8084">
        <ele>354</ele>
        <time>2022-06-03T23:35:26Z</time>
      </trkpt>
      <trkpt lat="47.27825" lon="3.80821">
        <ele>349</ele>
        <time>2022-06-03T23:35:31Z</time>
      </trkpt>
      <trkpt lat="47.27835" lon="3.80809">
        <ele>347</ele>
        <time>2022-06-03T23:35:33Z</time>
      </trkpt>
      <trkpt lat="47.2784" lon="3.80799">
        <ele>347</ele>
        <time>2022-06-03T23:35:35Z</time>
      </trkpt>
      <trkpt lat="47.27844" lon="3.80783">
        <ele>347</ele>
        <time>2022-06-03T23:35:37Z</time>
      </trkpt>
      <trkpt lat="47.27844" lon="3.80746">
        <ele>349</ele>
        <time>2022-06-03T23:35:41Z</time>
      </trkpt>
      <trkpt lat="47.27857" lon="3.80668">
        <ele>342</ele>
        <time>2022-06-03T23:35:51Z</time>
      </trkpt>
      <trkpt lat="47.27861" lon="3.80632">
        <ele>339</ele>
        <time>2022-06-03T23:35:55Z</time>
      </trkpt>
      <trkpt lat="47.27859" lon="3.80578">
        <ele>337</ele>
        <time>2022-06-03T23:36:02Z</time>
      </trkpt>
      <trkpt lat="47.2785" lon="3.80541">
        <ele>336</ele>
        <time>2022-06-03T23:36:07Z</time>
      </trkpt>
      <trkpt lat="47.27837" lon="3.80516">
        <ele>337</ele>
        <time>2022-06-03T23:36:10Z</time>
      </trkpt>
      <trkpt lat="47.27823" lon="3.80495">
        <ele>335</ele>
        <time>2022-06-03T23:36:14Z</time>
      </trkpt>
      <trkpt lat="47.27806" lon="3.80484">
        <ele>334</ele>
        <time>2022-06-03T23:36:17Z</time>
      </trkpt>
      <trkpt lat="47.27794" lon="3.80487">
        <ele>334</ele>
        <time>2022-06-03T23:36:20Z</time>
      </trkpt>
      <trkpt lat="47.27769" lon="3.80524">
        <ele>340</ele>
        <time>2022-06-03T23:36:26Z</time>
      </trkpt>
      <trkpt lat="47.27751" lon="3.80539">
        <ele>342</ele>
        <time>2022-06-03T23:36:29Z</time>
      </trkpt>
      <trkpt lat="47.27732" lon="3.80541">
        <ele>342</ele>
        <time>2022-06-03T23:36:33Z</time>
      </trkpt>
      <trkpt lat="47.27716" lon="3.80537">
        <ele>342</ele>
        <time>2022-06-03T23:36:36Z</time>
      </trkpt>
      <trkpt lat="47.27616" lon="3.80466">
        <ele>331</ele>
        <time>2022-06-03T23:36:56Z</time>
      </trkpt>
      <trkpt lat="47.27581" lon="3.80455">
        <ele>330</ele>
        <time>2022-06-03T23:37:02Z</time>
      </trkpt>
      <trkpt lat="47.2754" lon="3.80468">
        <ele>332</ele>
        <time>2022-06-03T23:37:09Z</time>
      </trkpt>
      <trkpt lat="47.27514" lon="3.80464">
        <ele>332</ele>
        <time>2022-06-03T23:37:14Z</time>
      </trkpt>
      <trkpt lat="47.27491" lon="3.80447">
        <ele>330</ele>
        <time>2022-06-03T23:37:19Z</time>
      </trkpt>
      <trkpt lat="47.27409" lon="3.8002">
        <ele>309</ele>
        <time>2022-06-03T23:38:12Z</time>
      </trkpt>
      <trkpt lat="47.27406" lon="3.79994">
        <ele>308</ele>
        <time>2022-06-03T23:38:15Z</time>
      </trkpt>
      <trkpt lat="47.27406" lon="3.79972">
        <ele>307</ele>
        <time>2022-06-03T23:38:18Z</time>
      </trkpt>
      <trkpt lat="47.27408" lon="3.79931">
        <ele>305</ele>
        <time>2022-06-03T23:38:23Z</time>
      </trkpt>
      <trkpt lat="47.274" lon="3.79901">
        <ele>303</ele>
        <time>2022-06-03T23:38:27Z</time>
      </trkpt>
      <trkpt lat="47.27381" lon="3.79884">
        <ele>300</ele>
        <time>2022-06-03T23:38:31Z</time>
      </trkpt>
      <trkpt lat="47.27359" lon="3.7989">
        <ele>298</ele>
        <time>2022-06-03T23:38:35Z</time>
      </trkpt>
      <trkpt lat="47.27347" lon="3.79923">
        <ele>298</ele>
        <time>2022-06-03T23:38:39Z</time>
      </trkpt>
      <trkpt lat="47.27328" lon="3.79947">
        <ele>297</ele>
        <time>2022-06-03T23:38:44Z</time>
      </trkpt>
      <trkpt lat="47.2731" lon="3.79951">
        <ele>297</ele>
        <time>2022-06-03T23:38:47Z</time>
      </trkpt>
      <trkpt lat="47.27294" lon="3.7994">
        <ele>297</ele>
        <time>2022-06-03T23:38:50Z</time>
      </trkpt>
      <trkpt lat="47.2728" lon="3.7991">
        <ele>296</ele>
        <time>2022-06-03T23:38:55Z</time>
      </trkpt>
      <trkpt lat="47.27282" lon="3.79867">
        <ele>295</ele>
        <time>2022-06-03T23:39:00Z</time>
      </trkpt>
      <trkpt lat="47.27281" lon="3.79833">
        <ele>293</ele>
        <time>2022-06-03T23:39:04Z</time>
      </trkpt>
      <trkpt lat="47.27269" lon="3.79803">
        <ele>293</ele>
        <time>2022-06-03T23:39:08Z</time>
      </trkpt>
      <trkpt lat="47.27261" lon="3.7976">
        <ele>293</ele>
        <time>2022-06-03T23:39:13Z</time>
      </trkpt>
      <trkpt lat="47.27275" lon="3.79704">
        <ele>293</ele>
        <time>2022-06-03T23:39:21Z</time>
      </trkpt>
      <trkpt lat="47.2732" lon="3.79568">
        <ele>292</ele>
        <time>2022-06-03T23:39:39Z</time>
      </trkpt>
      <trkpt lat="47.27339" lon="3.79541">
        <ele>292</ele>
        <time>2022-06-03T23:39:44Z</time>
      </trkpt>
      <trkpt lat="47.27356" lon="3.79511">
        <ele>293</ele>
        <time>2022-06-03T23:39:48Z</time>
      </trkpt>
      <trkpt lat="47.27363" lon="3.7946">
        <ele>292</ele>
        <time>2022-06-03T23:39:55Z</time>
      </trkpt>
      <trkpt lat="47.27367" lon="3.79197">
        <ele>287</ele>
        <time>2022-06-03T23:40:26Z</time>
      </trkpt>
      <trkpt lat="47.2738" lon="3.78932">
        <ele>290</ele>
        <time>2022-06-03T23:40:58Z</time>
      </trkpt>
      <trkpt lat="47.27384" lon="3.7883">
        <ele>288</ele>
        <time>2022-06-03T23:41:11Z</time>
      </trkpt>
      <trkpt lat="47.2739" lon="3.78781">
        <ele>287</ele>
        <time>2022-06-03T23:41:17Z</time>
      </trkpt>
      <trkpt lat="47.27385" lon="3.78749">
        <ele>286</ele>
        <time>2022-06-03T23:41:21Z</time>
      </trkpt>
      <trkpt lat="47.27369" lon="3.78706">
        <ele>286</ele>
        <time>2022-06-03T23:41:27Z</time>
      </trkpt>
      <trkpt lat="47.27276" lon="3.78552">
        <ele>277</ele>
        <time>2022-06-03T23:41:52Z</time>
      </trkpt>
      <trkpt lat="47.27245" lon="3.78498">
        <ele>276</ele>
        <time>2022-06-03T23:42:00Z</time>
      </trkpt>
      <trkpt lat="47.27178" lon="3.78348">
        <ele>275</ele>
        <time>2022-06-03T23:42:22Z</time>
      </trkpt>
      <trkpt lat="47.27175" lon="3.78305">
        <ele>276</ele>
        <time>2022-06-03T23:42:27Z</time>
      </trkpt>
      <trkpt lat="47.27182" lon="3.78271">
        <ele>277</ele>
        <time>2022-06-03T23:42:31Z</time>
      </trkpt>
      <trkpt lat="47.27206" lon="3.78232">
        <ele>273</ele>
        <time>2022-06-03T23:42:38Z</time>
      </trkpt>
      <trkpt lat="47.2724" lon="3.78187">
        <ele>269</ele>
        <time>2022-06-03T23:42:46Z</time>
      </trkpt>
      <trkpt lat="47.2726" lon="3.78142">
        <ele>267</ele>
        <time>2022-06-03T23:42:52Z</time>
      </trkpt>
      <trkpt lat="47.27253" lon="3.78111">
        <ele>268</ele>
        <time>2022-06-03T23:42:56Z</time>
      </trkpt>
      <trkpt lat="47.27255" lon="3.78067">
        <ele>268</ele>
        <time>2022-06-03T23:43:02Z</time>
      </trkpt>
      <trkpt lat="47.27277" lon="3.78019">
        <ele>266</ele>
        <time>2022-06-03T23:43:09Z</time>
      </trkpt>
      <trkpt lat="47.27285" lon="3.77987">
        <ele>265</ele>
        <time>2022-06-03T23:43:13Z</time>
      </trkpt>
      <trkpt lat="47.27287" lon="3.7794">
        <ele>264</ele>
        <time>2022-06-03T23:43:18Z</time>
      </trkpt>
      <trkpt lat="47.27288" lon="3.77844">
        <ele>263</ele>
        <time>2022-06-03T23:43:30Z</time>
      </trkpt>
      <trkpt lat="47.27292" lon="3.77805">
        <ele>265</ele>
        <time>2022-06-03T23:43:35Z</time>
      </trkpt>
      <trkpt lat="47.27306" lon="3.77772">
        <ele>266</ele>
        <time>2022-06-03T23:43:39Z</time>
      </trkpt>
      <trkpt lat="47.27337" lon="3.77743">
        <ele>266</ele>
        <time>2022-06-03T23:43:46Z</time>
      </trkpt>
      <trkpt lat="47.27376" lon="3.7771">
        <ele>267</ele>
        <time>2022-06-03T23:43:54Z</time>
      </trkpt>
      <trkpt lat="47.27391" lon="3.77676">
        <ele>268</ele>
        <time>2022-06-03T23:43:59Z</time>
      </trkpt>
      <trkpt lat="47.27394" lon="3.77638">
        <ele>267</ele>
        <time>2022-06-03T23:44:03Z</time>
      </trkpt>
      <trkpt lat="47.27389" lon="3.77571">
        <ele>266</ele>
        <time>2022-06-03T23:44:12Z</time>
      </trkpt>
      <trkpt lat="47.27381" lon="3.77511">
        <ele>264</ele>
        <time>2022-06-03T23:44:19Z</time>
      </trkpt>
      <trkpt lat="47.27382" lon="3.77464">
        <ele>265</ele>
        <time>2022-06-03T23:44:25Z</time>
      </trkpt>
      <trkpt lat="47.27398" lon="3.77419">
        <ele>265</ele>
        <time>2022-06-03T23:44:31Z</time>
      </trkpt>
      <trkpt lat="47.2744" lon="3.77322">
        <ele>265</ele>
        <time>2022-06-03T23:44:45Z</time>
      </trkpt>
      <trkpt lat="47.2746" lon="3.7726">
        <ele>264</ele>
        <time>2022-06-03T23:44:53Z</time>
      </trkpt>
      <trkpt lat="47.27469" lon="3.77198">
        <ele>263</ele>
        <time>2022-06-03T23:45:01Z</time>
      </trkpt>
      <trkpt lat="47.27469" lon="3.77144">
        <ele>263</ele>
        <time>2022-06-03T23:45:07Z</time>
      </trkpt>
      <trkpt lat="47.27456" lon="3.77093">
        <ele>262</ele>
        <time>2022-06-03T23:45:14Z</time>
      </trkpt>
      <trkpt lat="47.27434" lon="3.77022">
        <ele>263</ele>
        <time>2022-06-03T23:45:23Z</time>
      </trkpt>
      <trkpt lat="47.27412" lon="3.7696">
        <ele>263</ele>
        <time>2022-06-03T23:45:32Z</time>
      </trkpt>
      <trkpt lat="47.274" lon="3.76904">
        <ele>263</ele>
        <time>2022-06-03T23:45:39Z</time>
      </trkpt>
      <trkpt lat="47.2739" lon="3.7684">
        <ele>262</ele>
        <time>2022-06-03T23:45:47Z</time>
      </trkpt>
      <trkpt lat="47.27374" lon="3.76773">
        <ele>261</ele>
        <time>2022-06-03T23:45:55Z</time>
      </trkpt>
      <trkpt lat="47.2735" lon="3.76698">
        <ele>261</ele>
        <time>2022-06-03T23:46:05Z</time>
      </trkpt>
      <trkpt lat="47.27309" lon="3.76594">
        <ele>260</ele>
        <time>2022-06-03T23:46:20Z</time>
      </trkpt>
      <trkpt lat="47.27242" lon="3.76455">
        <ele>257</ele>
        <time>2022-06-03T23:46:40Z</time>
      </trkpt>
      <trkpt lat="47.27184" lon="3.76328">
        <ele>256</ele>
        <time>2022-06-03T23:46:59Z</time>
      </trkpt>
      <trkpt lat="47.27153" lon="3.76267">
        <ele>256</ele>
        <time>2022-06-03T23:47:08Z</time>
      </trkpt>
      <trkpt lat="47.27104" lon="3.76163">
        <ele>257</ele>
        <time>2022-06-03T23:47:23Z</time>
      </trkpt>
      <trkpt lat="47.27093" lon="3.76121">
        <ele>259</ele>
        <time>2022-06-03T23:47:29Z</time>
      </trkpt>
      <trkpt lat="47.27089" lon="3.76039">
        <ele>262</ele>
        <time>2022-06-03T23:47:39Z</time>
      </trkpt>
      <trkpt lat="47.2706" lon="3.75803">
        <ele>266</ele>
        <time>2022-06-03T23:48:08Z</time>
      </trkpt>
      <trkpt lat="47.27044" lon="3.75685">
        <ele>269</ele>
        <time>2022-06-03T23:48:22Z</time>
      </trkpt>
      <trkpt lat="47.27016" lon="3.75509">
        <ele>269</ele>
        <time>2022-06-03T23:48:44Z</time>
      </trkpt>
      <trkpt lat="47.26977" lon="3.75209">
        <ele>264</ele>
        <time>2022-06-03T23:49:21Z</time>
      </trkpt>
      <trkpt lat="47.26969" lon="3.75136">
        <ele>266</ele>
        <time>2022-06-03T23:49:30Z</time>
      </trkpt>
      <trkpt lat="47.26956" lon="3.75076">
        <ele>268</ele>
        <time>2022-06-03T23:49:37Z</time>
      </trkpt>
      <trkpt lat="47.26914" lon="3.74938">
        <ele>271</ele>
        <time>2022-06-03T23:49:56Z</time>
      </trkpt>
      <trkpt lat="47.26851" lon="3.74726">
        <ele>279</ele>
        <time>2022-06-03T23:50:24Z</time>
      </trkpt>
      <trkpt lat="47.26824" lon="3.74655">
        <ele>281</ele>
        <time>2022-06-03T23:50:33Z</time>
      </trkpt>
      <trkpt lat="47.26796" lon="3.74602">
        <ele>281</ele>
        <time>2022-06-03T23:50:41Z</time>
      </trkpt>
      <trkpt lat="47.26751" lon="3.74546">
        <ele>281</ele>
        <time>2022-06-03T23:50:52Z</time>
      </trkpt>
      <trkpt lat="47.2671" lon="3.74498">
        <ele>282</ele>
        <time>2022-06-03T23:51:01Z</time>
      </trkpt>
      <trkpt lat="47.26672" lon="3.74475">
        <ele>282</ele>
        <time>2022-06-03T23:51:09Z</time>
      </trkpt>
      <trkpt lat="47.26649" lon="3.74473">
        <ele>282</ele>
        <time>2022-06-03T23:51:13Z</time>
      </trkpt>
      <trkpt lat="47.26618" lon="3.74473">
        <ele>282</ele>
        <time>2022-06-03T23:51:18Z</time>
      </trkpt>
      <trkpt lat="47.26594" lon="3.74463">
        <ele>282</ele>
        <time>2022-06-03T23:51:23Z</time>
      </trkpt>
      <trkpt lat="47.2657" lon="3.7444">
        <ele>280</ele>
        <time>2022-06-03T23:51:28Z</time>
      </trkpt>
      <trkpt lat="47.26547" lon="3.74399">
        <ele>280</ele>
        <time>2022-06-03T23:51:34Z</time>
      </trkpt>
      <trkpt lat="47.2631" lon="3.73958">
        <ele>275</ele>
        <time>2022-06-03T23:52:42Z</time>
      </trkpt>
      <trkpt lat="47.26281" lon="3.73927">
        <ele>275</ele>
        <time>2022-06-03T23:52:48Z</time>
      </trkpt>
      <trkpt lat="47.26242" lon="3.7388">
        <ele>275</ele>
        <time>2022-06-03T23:52:57Z</time>
      </trkpt>
      <trkpt lat="47.26214" lon="3.73839">
        <ele>274</ele>
        <time>2022-06-03T23:53:04Z</time>
      </trkpt>
      <trkpt lat="47.26163" lon="3.73725">
        <ele>274</ele>
        <time>2022-06-03T23:53:21Z</time>
      </trkpt>
      <trkpt lat="47.26138" lon="3.73687">
        <ele>271</ele>
        <time>2022-06-03T23:53:27Z</time>
      </trkpt>
      <trkpt lat="47.26078" lon="3.73618">
        <ele>269</ele>
        <time>2022-06-03T23:53:41Z</time>
      </trkpt>
      <trkpt lat="47.26058" lon="3.73586">
        <ele>269</ele>
        <time>2022-06-03T23:53:46Z</time>
      </trkpt>
      <trkpt lat="47.26053" lon="3.73566">
        <ele>269</ele>
        <time>2022-06-03T23:53:49Z</time>
      </trkpt>
      <trkpt lat="47.26052" lon="3.7355">
        <ele>270</ele>
        <time>2022-06-03T23:53:51Z</time>
      </trkpt>
      <trkpt lat="47.26054" lon="3.73534">
        <ele>270</ele>
        <time>2022-06-03T23:53:53Z</time>
      </trkpt>
      <trkpt lat="47.26053" lon="3.73503">
        <ele>271</ele>
        <time>2022-06-03T23:53:56Z</time>
      </trkpt>
      <trkpt lat="47.26036" lon="3.73458">
        <ele>269</ele>
        <time>2022-06-03T23:54:03Z</time>
      </trkpt>
      <trkpt lat="47.2596" lon="3.73301">
        <ele>264</ele>
        <time>2022-06-03T23:54:26Z</time>
      </trkpt>
      <trkpt lat="47.25953" lon="3.73256">
        <ele>264</ele>
        <time>2022-06-03T23:54:31Z</time>
      </trkpt>
      <trkpt lat="47.2589" lon="3.72434">
        <ele>247</ele>
        <time>2022-06-03T23:56:11Z</time>
      </trkpt>
      <trkpt lat="47.25882" lon="3.72385">
        <ele>246</ele>
        <time>2022-06-03T23:56:17Z</time>
      </trkpt>
      <trkpt lat="47.25874" lon="3.72365">
        <ele>246</ele>
        <time>2022-06-03T23:56:20Z</time>
      </trkpt>
      <trkpt lat="47.25883" lon="3.72184">
        <ele>243</ele>
        <time>2022-06-03T23:56:42Z</time>
      </trkpt>
      <trkpt lat="47.25881" lon="3.72166">
        <ele>243</ele>
        <time>2022-06-03T23:56:44Z</time>
      </trkpt>
      <trkpt lat="47.25876" lon="3.72151">
        <ele>243</ele>
        <time>2022-06-03T23:56:46Z</time>
      </trkpt>
      <trkpt lat="47.25869" lon="3.72139">
        <ele>243</ele>
        <time>2022-06-03T23:56:48Z</time>
      </trkpt>
      <trkpt lat="47.25839" lon="3.72101">
        <ele>243</ele>
        <time>2022-06-03T23:56:55Z</time>
      </trkpt>
      <trkpt lat="47.2581" lon="3.72054">
        <ele>242</ele>
        <time>2022-06-03T23:57:03Z</time>
      </trkpt>
      <trkpt lat="47.25793" lon="3.72034">
        <ele>242</ele>
        <time>2022-06-03T23:57:07Z</time>
      </trkpt>
      <trkpt lat="47.25638" lon="3.71906">
        <ele>237</ele>
        <time>2022-06-03T23:57:38Z</time>
      </trkpt>
      <trkpt lat="47.25601" lon="3.71879">
        <ele>235</ele>
        <time>2022-06-03T23:57:46Z</time>
      </trkpt>
      <trkpt lat="47.25475" lon="3.71808">
        <ele>230</ele>
        <time>2022-06-03T23:58:10Z</time>
      </trkpt>
      <trkpt lat="47.25403" lon="3.71769">
        <ele>229</ele>
        <time>2022-06-03T23:58:23Z</time>
      </trkpt>
      <trkpt lat="47.25352" lon="3.71739">
        <ele>224</ele>
        <time>2022-06-03T23:58:33Z</time>
      </trkpt>
      <trkpt lat="47.25316" lon="3.71696">
        <ele>220</ele>
        <time>2022-06-03T23:58:41Z</time>
      </trkpt>
      <trkpt lat="47.25226" lon="3.71565">
        <ele>214</ele>
        <time>2022-06-03T23:59:04Z</time>
      </trkpt>
      <trkpt lat="47.25173" lon="3.71492">
        <ele>211</ele>
        <time>2022-06-03T23:59:17Z</time>
      </trkpt>
      <trkpt lat="47.251" lon="3.71333">
        <ele>202</ele>
        <time>2022-06-03T23:59:40Z</time>
      </trkpt>
      <trkpt lat="47.25059" lon="3.71215">
        <ele>202</ele>
        <time>2022-06-03T23:59:56Z</time>
      </trkpt>
      <trkpt lat="47.25035" lon="3.71155">
        <ele>202</ele>
        <time>2022-06-04T00:00:04Z</time>
      </trkpt>
      <trkpt lat="47.24989" lon="3.71055">
        <ele>202</ele>
        <time>2022-06-04T00:00:19Z</time>
      </trkpt>
      <trkpt lat="47.24959" lon="3.70951">
        <ele>203</ele>
        <time>2022-06-04T00:00:33Z</time>
      </trkpt>
      <trkpt lat="47.24952" lon="3.70935">
        <ele>203</ele>
        <time>2022-06-04T00:00:35Z</time>
      </trkpt>
      <trkpt lat="47.24937" lon="3.70906">
        <ele>203</ele>
        <time>2022-06-04T00:00:39Z</time>
      </trkpt>
      <trkpt lat="47.24914" lon="3.70877">
        <ele>202</ele>
        <time>2022-06-04T00:00:45Z</time>
      </trkpt>
      <trkpt lat="47.24941" lon="3.70711">
        <ele>201</ele>
        <time>2022-06-04T00:01:05Z</time>
      </trkpt>
      <trkpt lat="47.24953" lon="3.70656">
        <ele>201</ele>
        <time>2022-06-04T00:01:12Z</time>
      </trkpt>
      <trkpt lat="47.2497" lon="3.70617">
        <ele>200</ele>
        <time>2022-06-04T00:01:18Z</time>
      </trkpt>
      <trkpt lat="47.24984" lon="3.70593">
        <ele>200</ele>
        <time>2022-06-04T00:01:22Z</time>
      </trkpt>
      <trkpt lat="47.25025" lon="3.70531">
        <ele>201</ele>
        <time>2022-06-04T00:01:32Z</time>
      </trkpt>
      <trkpt lat="47.2505" lon="3.70498">
        <ele>202</ele>
        <time>2022-06-04T00:01:38Z</time>
      </trkpt>
      <trkpt lat="47.25101" lon="3.70439">
        <ele>202</ele>
        <time>2022-06-04T00:01:50Z</time>
      </trkpt>
      <trkpt lat="47.25272" lon="3.70207">
        <ele>201</ele>
        <time>2022-06-04T00:02:31Z</time>
      </trkpt>
      <trkpt lat="47.25306" lon="3.70159">
        <ele>200</ele>
        <time>2022-06-04T00:02:40Z</time>
      </trkpt>
      <trkpt lat="47.25317" lon="3.70139">
        <ele>200</ele>
        <time>2022-06-04T00:02:43Z</time>
      </trkpt>
      <trkpt lat="47.25332" lon="3.70113">
        <ele>200</ele>
        <time>2022-06-04T00:02:47Z</time>
      </trkpt>
      <trkpt lat="47.25357" lon="3.70059">
        <ele>201</ele>
        <time>2022-06-04T00:02:55Z</time>
      </trkpt>
      <trkpt lat="47.25379" lon="3.69998">
        <ele>201</ele>
        <time>2022-06-04T00:03:03Z</time>
      </trkpt>
      <trkpt lat="47.25417" lon="3.69875">
        <ele>199</ele>
        <time>2022-06-04T00:03:19Z</time>
      </trkpt>
      <trkpt lat="47.25431" lon="3.69827">
        <ele>198</ele>
        <time>2022-06-04T00:03:26Z</time>
      </trkpt>
      <trkpt lat="47.25448" lon="3.69756">
        <ele>199</ele>
        <time>2022-06-04T00:03:35Z</time>
      </trkpt>
      <trkpt lat="47.25475" lon="3.69629">
        <ele>197</ele>
        <time>2022-06-04T00:03:51Z</time>
      </trkpt>
      <trkpt lat="47.25507" lon="3.69523">
        <ele>197</ele>
        <time>2022-06-04T00:04:05Z</time>
      </trkpt>
      <trkpt lat="47.25571" lon="3.69349">
        <ele>198</ele>
        <time>2022-06-04T00:04:29Z</time>
      </trkpt>
      <trkpt lat="47.25588" lon="3.69308">
        <ele>198</ele>
        <time>2022-06-04T00:04:34Z</time>
      </trkpt>
      <trkpt lat="47.25644" lon="3.69185">
        <ele>198</ele>
        <time>2022-06-04T00:04:52Z</time>
      </trkpt>
      <trkpt lat="47.25655" lon="3.69153">
        <ele>198</ele>
        <time>2022-06-04T00:04:57Z</time>
      </trkpt>
      <trkpt lat="47.2567" lon="3.69093">
        <ele>197</ele>
        <time>2022-06-04T00:05:04Z</time>
      </trkpt>
      <trkpt lat="47.2569" lon="3.69028">
        <ele>197</ele>
        <time>2022-06-04T00:05:13Z</time>
      </trkpt>
      <trkpt lat="47.25712" lon="3.68967">
        <ele>197</ele>
        <time>2022-06-04T00:05:21Z</time>
      </trkpt>
      <trkpt lat="47.25727" lon="3.68926">
        <ele>197</ele>
        <time>2022-06-04T00:05:27Z</time>
      </trkpt>
      <trkpt lat="47.25735" lon="3.68902">
        <ele>197</ele>
        <time>2022-06-04T00:05:30Z</time>
      </trkpt>
      <trkpt lat="47.25768" lon="3.68757">
        <ele>197</ele>
        <time>2022-06-04T00:05:49Z</time>
      </trkpt>
      <trkpt lat="47.25774" lon="3.68741">
        <ele>197</ele>
        <time>2022-06-04T00:05:51Z</time>
      </trkpt>
      <trkpt lat="47.25782" lon="3.68724">
        <ele>197</ele>
        <time>2022-06-04T00:05:53Z</time>
      </trkpt>
      <trkpt lat="47.25792" lon="3.687">
        <ele>197</ele>
        <time>2022-06-04T00:05:57Z</time>
      </trkpt>
      <trkpt lat="47.25815" lon="3.68611">
        <ele>195</ele>
        <time>2022-06-04T00:06:08Z</time>
      </trkpt>
      <trkpt lat="47.25821" lon="3.68597">
        <ele>195</ele>
        <time>2022-06-04T00:06:10Z</time>
      </trkpt>
      <trkpt lat="47.25818" lon="3.68592">
        <ele>195</ele>
        <time>2022-06-04T00:06:11Z</time>
      </trkpt>
      <trkpt lat="47.25815" lon="3.68586">
        <ele>195</ele>
        <time>2022-06-04T00:06:12Z</time>
      </trkpt>
      <trkpt lat="47.25809" lon="3.68575">
        <ele>195</ele>
        <time>2022-06-04T00:06:14Z</time>
      </trkpt>
      <trkpt lat="47.258" lon="3.68561">
        <ele>196</ele>
        <time>2022-06-04T00:06:16Z</time>
      </trkpt>
      <trkpt lat="47.2578" lon="3.68533">
        <ele>196</ele>
        <time>2022-06-04T00:06:21Z</time>
      </trkpt>
      <trkpt lat="47.25773" lon="3.68522">
        <ele>197</ele>
        <time>2022-06-04T00:06:23Z</time>
      </trkpt>
      <trkpt lat="47.25745" lon="3.68484">
        <ele>198</ele>
        <time>2022-06-04T00:06:30Z</time>
      </trkpt>
      <trkpt lat="47.25741" lon="3.68471">
        <ele>198</ele>
        <time>2022-06-04T00:06:31Z</time>
      </trkpt>
      <trkpt lat="47.25737" lon="3.68446">
        <ele>199</ele>
        <time>2022-06-04T00:06:34Z</time>
      </trkpt>
      <trkpt lat="47.25736" lon="3.68436">
        <ele>199</ele>
        <time>2022-06-04T00:06:36Z</time>
      </trkpt>
      <trkpt lat="47.25738" lon="3.68425">
        <ele>199</ele>
        <time>2022-06-04T00:06:37Z</time>
      </trkpt>
      <trkpt lat="47.2575" lon="3.68421">
        <ele>199</ele>
        <time>2022-06-04T00:06:39Z</time>
      </trkpt>
      <trkpt lat="47.25764" lon="3.68411">
        <ele>198</ele>
        <time>2022-06-04T00:06:42Z</time>
      </trkpt>
      <trkpt lat="47.25817" lon="3.68359">
        <ele>198</ele>
        <time>2022-06-04T00:06:53Z</time>
      </trkpt>
      <trkpt lat="47.25826" lon="3.68346">
        <ele>198</ele>
        <time>2022-06-04T00:06:56Z</time>
      </trkpt>
      <trkpt lat="47.25829" lon="3.68342">
        <ele>199</ele>
        <time>2022-06-04T00:06:56Z</time>
      </trkpt>
      <trkpt lat="47.25831" lon="3.68336">
        <ele>199</ele>
        <time>2022-06-04T00:06:57Z</time>
      </trkpt>
      <trkpt lat="47.25833" lon="3.68321">
        <ele>199</ele>
        <time>2022-06-04T00:06:59Z</time>
      </trkpt>
      <trkpt lat="47.25835" lon="3.6831">
        <ele>199</ele>
        <time>2022-06-04T00:07:00Z</time>
      </trkpt>
      <trkpt lat="47.2584" lon="3.68286">
        <ele>199</ele>
        <time>2022-06-04T00:07:03Z</time>
      </trkpt>
      <trkpt lat="47.25854" lon="3.68251">
        <ele>199</ele>
        <time>2022-06-04T00:07:08Z</time>
      </trkpt>
      <trkpt lat="47.25858" lon="3.68243">
        <ele>199</ele>
        <time>2022-06-04T00:07:09Z</time>
      </trkpt>
      <trkpt lat="47.2587" lon="3.68233">
        <ele>199</ele>
        <time>2022-06-04T00:07:12Z</time>
      </trkpt>
      <trkpt lat="47.25945" lon="3.68181">
        <ele>199</ele>
        <time>2022-06-04T00:07:27Z</time>
      </trkpt>
      <trkpt lat="47.25958" lon="3.68171">
        <ele>198</ele>
        <time>2022-06-04T00:07:29Z</time>
      </trkpt>
      <trkpt lat="47.25971" lon="3.68162">
        <ele>197</ele>
        <time>2022-06-04T00:07:32Z</time>
      </trkpt>
      <trkpt lat="47.26026" lon="3.68133">
        <ele>196</ele>
        <time>2022-06-04T00:07:42Z</time>
      </trkpt>
      <trkpt lat="47.26046" lon="3.68126">
        <ele>196</ele>
        <time>2022-06-04T00:07:46Z</time>
      </trkpt>
      <trkpt lat="47.2615" lon="3.681">
        <ele>199</ele>
        <time>2022-06-04T00:08:05Z</time>
      </trkpt>
      <trkpt lat="47.26164" lon="3.68095">
        <ele>199</ele>
        <time>2022-06-04T00:08:07Z</time>
      </trkpt>
      <trkpt lat="47.26169" lon="3.68091">
        <ele>199</ele>
        <time>2022-06-04T00:08:08Z</time>
      </trkpt>
      <trkpt lat="47.26174" lon="3.68084">
        <ele>199</ele>
        <time>2022-06-04T00:08:09Z</time>
      </trkpt>
      <trkpt lat="47.2619" lon="3.68053">
        <ele>198</ele>
        <time>2022-06-04T00:08:14Z</time>
      </trkpt>
      <trkpt lat="47.26213" lon="3.6799">
        <ele>197</ele>
        <time>2022-06-04T00:08:23Z</time>
      </trkpt>
      <trkpt lat="47.26232" lon="3.67937">
        <ele>196</ele>
        <time>2022-06-04T00:08:30Z</time>
      </trkpt>
      <trkpt lat="47.26344" lon="3.6764">
        <ele>206</ele>
        <time>2022-06-04T00:09:11Z</time>
      </trkpt>
      <trkpt lat="47.26359" lon="3.67598">
        <ele>207</ele>
        <time>2022-06-04T00:09:17Z</time>
      </trkpt>
      <trkpt lat="47.26369" lon="3.67572">
        <ele>208</ele>
        <time>2022-06-04T00:09:20Z</time>
      </trkpt>
      <trkpt lat="47.2638" lon="3.67549">
        <ele>209</ele>
        <time>2022-06-04T00:09:24Z</time>
      </trkpt>
      <trkpt lat="47.26393" lon="3.67531">
        <ele>210</ele>
        <time>2022-06-04T00:09:27Z</time>
      </trkpt>
      <trkpt lat="47.2641" lon="3.67512">
        <ele>212</ele>
        <time>2022-06-04T00:09:31Z</time>
      </trkpt>
      <trkpt lat="47.26429" lon="3.67495">
        <ele>215</ele>
        <time>2022-06-04T00:09:35Z</time>
      </trkpt>
      <trkpt lat="47.26668" lon="3.67316">
        <ele>222</ele>
        <time>2022-06-04T00:10:22Z</time>
      </trkpt>
      <trkpt lat="47.26691" lon="3.67296">
        <ele>222</ele>
        <time>2022-06-04T00:10:27Z</time>
      </trkpt>
      <trkpt lat="47.26765" lon="3.67223">
        <ele>221</ele>
        <time>2022-06-04T00:10:43Z</time>
      </trkpt>
      <trkpt lat="47.26784" lon="3.67203">
        <ele>220</ele>
        <time>2022-06-04T00:10:47Z</time>
      </trkpt>
      <trkpt lat="47.27047" lon="3.66941">
        <ele>209</ele>
        <time>2022-06-04T00:11:44Z</time>
      </trkpt>
      <trkpt lat="47.27083" lon="3.6689">
        <ele>210</ele>
        <time>2022-06-04T00:11:52Z</time>
      </trkpt>
      <trkpt lat="47.27143" lon="3.66764">
        <ele>214</ele>
        <time>2022-06-04T00:12:11Z</time>
      </trkpt>
      <trkpt lat="47.27184" lon="3.66696">
        <ele>215</ele>
        <time>2022-06-04T00:12:22Z</time>
      </trkpt>
      <trkpt lat="47.27214" lon="3.66665">
        <ele>216</ele>
        <time>2022-06-04T00:12:29Z</time>
      </trkpt>
      <trkpt lat="47.27255" lon="3.66642">
        <ele>219</ele>
        <time>2022-06-04T00:12:36Z</time>
      </trkpt>
      <trkpt lat="47.27285" lon="3.66632">
        <ele>220</ele>
        <time>2022-06-04T00:12:42Z</time>
      </trkpt>
      <trkpt lat="47.27316" lon="3.66629">
        <ele>221</ele>
        <time>2022-06-04T00:12:47Z</time>
      </trkpt>
      <trkpt lat="47.27333" lon="3.66632">
        <ele>222</ele>
        <time>2022-06-04T00:12:50Z</time>
      </trkpt>
      <trkpt lat="47.27486" lon="3.6666">
        <ele>218</ele>
        <time>2022-06-04T00:13:18Z</time>
      </trkpt>
      <trkpt lat="47.27566" lon="3.66671">
        <ele>219</ele>
        <time>2022-06-04T00:13:32Z</time>
      </trkpt>
      <trkpt lat="47.27805" lon="3.6671">
        <ele>221</ele>
        <time>2022-06-04T00:14:15Z</time>
      </trkpt>
      <trkpt lat="47.28006" lon="3.66773">
        <ele>214</ele>
        <time>2022-06-04T00:14:51Z</time>
      </trkpt>
      <trkpt lat="47.28096" lon="3.66805">
        <ele>215</ele>
        <time>2022-06-04T00:15:08Z</time>
      </trkpt>
      <trkpt lat="47.28201" lon="3.66845">
        <ele>219</ele>
        <time>2022-06-04T00:15:27Z</time>
      </trkpt>
      <trkpt lat="47.28448" lon="3.66939">
        <ele>211</ele>
        <time>2022-06-04T00:16:13Z</time>
      </trkpt>
      <trkpt lat="47.28512" lon="3.66955">
        <ele>208</ele>
        <time>2022-06-04T00:16:24Z</time>
      </trkpt>
      <trkpt lat="47.28723" lon="3.66987">
        <ele>215</ele>
        <time>2022-06-04T00:17:02Z</time>
      </trkpt>
      <trkpt lat="47.28755" lon="3.66993">
        <ele>215</ele>
        <time>2022-06-04T00:17:08Z</time>
      </trkpt>
      <trkpt lat="47.2876" lon="3.66994">
        <ele>214</ele>
        <time>2022-06-04T00:17:09Z</time>
      </trkpt>
      <trkpt lat="47.28788" lon="3.67">
        <ele>214</ele>
        <time>2022-06-04T00:17:14Z</time>
      </trkpt>
      <trkpt lat="47.28849" lon="3.67022">
        <ele>211</ele>
        <time>2022-06-04T00:17:25Z</time>
      </trkpt>
      <trkpt lat="47.28875" lon="3.67035">
        <ele>210</ele>
        <time>2022-06-04T00:17:30Z</time>
      </trkpt>
      <trkpt lat="47.28895" lon="3.67044">
        <ele>209</ele>
        <time>2022-06-04T00:17:33Z</time>
      </trkpt>
      <trkpt lat="47.28974" lon="3.67083">
        <ele>204</ele>
        <time>2022-06-04T00:17:48Z</time>
      </trkpt>
      <trkpt lat="47.29032" lon="3.67094">
        <ele>200</ele>
        <time>2022-06-04T00:17:59Z</time>
      </trkpt>
      <trkpt lat="47.29073" lon="3.67091">
        <ele>198</ele>
        <time>2022-06-04T00:18:06Z</time>
      </trkpt>
      <trkpt lat="47.2911" lon="3.67078">
        <ele>197</ele>
        <time>2022-06-04T00:18:13Z</time>
      </trkpt>
      <trkpt lat="47.29168" lon="3.67033">
        <ele>194</ele>
        <time>2022-06-04T00:18:24Z</time>
      </trkpt>
      <trkpt lat="47.29195" lon="3.67012">
        <ele>192</ele>
        <time>2022-06-04T00:18:30Z</time>
      </trkpt>
      <trkpt lat="47.29225" lon="3.66997">
        <ele>190</ele>
        <time>2022-06-04T00:18:35Z</time>
      </trkpt>
      <trkpt lat="47.29304" lon="3.66986">
        <ele>188</ele>
        <time>2022-06-04T00:18:50Z</time>
      </trkpt>
      <trkpt lat="47.29629" lon="3.66997">
        <ele>183</ele>
        <time>2022-06-04T00:19:47Z</time>
      </trkpt>
      <trkpt lat="47.3019" lon="3.66934">
        <ele>176</ele>
        <time>2022-06-04T00:21:27Z</time>
      </trkpt>
      <trkpt lat="47.30412" lon="3.66909">
        <ele>180</ele>
        <time>2022-06-04T00:22:07Z</time>
      </trkpt>
      <trkpt lat="47.30511" lon="3.66897">
        <ele>182</ele>
        <time>2022-06-04T00:22:25Z</time>
      </trkpt>
      <trkpt lat="47.30816" lon="3.66875">
        <ele>183</ele>
        <time>2022-06-04T00:23:19Z</time>
      </trkpt>
      <trkpt lat="47.30863" lon="3.66873">
        <ele>183</ele>
        <time>2022-06-04T00:23:27Z</time>
      </trkpt>
      <trkpt lat="47.30867" lon="3.66873">
        <ele>183</ele>
        <time>2022-06-04T00:23:28Z</time>
      </trkpt>
      <trkpt lat="47.30878" lon="3.66872">
        <ele>183</ele>
        <time>2022-06-04T00:23:30Z</time>
      </trkpt>
      <trkpt lat="47.30924" lon="3.66869">
        <ele>184</ele>
        <time>2022-06-04T00:23:38Z</time>
      </trkpt>
      <trkpt lat="47.30944" lon="3.66867">
        <ele>184</ele>
        <time>2022-06-04T00:23:42Z</time>
      </trkpt>
      <trkpt lat="47.30954" lon="3.66866">
        <ele>184</ele>
        <time>2022-06-04T00:23:44Z</time>
      </trkpt>
      <trkpt lat="47.31007" lon="3.66861">
        <ele>185</ele>
        <time>2022-06-04T00:23:53Z</time>
      </trkpt>
      <trkpt lat="47.31017" lon="3.66861">
        <ele>185</ele>
        <time>2022-06-04T00:23:55Z</time>
      </trkpt>
      <trkpt lat="47.31287" lon="3.6684">
        <ele>183</ele>
        <time>2022-06-04T00:24:43Z</time>
      </trkpt>
      <trkpt lat="47.31516" lon="3.66822">
        <ele>177</ele>
        <time>2022-06-04T00:25:24Z</time>
      </trkpt>
      <trkpt lat="47.31516" lon="3.66817">
        <ele>177</ele>
        <time>2022-06-04T00:25:24Z</time>
      </trkpt>
      <trkpt lat="47.31513" lon="3.66794">
        <ele>177</ele>
        <time>2022-06-04T00:25:27Z</time>
      </trkpt>
      <trkpt lat="47.31494" lon="3.66747">
        <ele>177</ele>
        <time>2022-06-04T00:25:34Z</time>
      </trkpt>
      <trkpt lat="47.3148" lon="3.6672">
        <ele>177</ele>
        <time>2022-06-04T00:25:38Z</time>
      </trkpt>
      <trkpt lat="47.31419" lon="3.66621">
        <ele>175</ele>
        <time>2022-06-04T00:25:54Z</time>
      </trkpt>
      <trkpt lat="47.31405" lon="3.66596">
        <ele>174</ele>
        <time>2022-06-04T00:25:58Z</time>
      </trkpt>
      <trkpt lat="47.3139" lon="3.66561">
        <ele>173</ele>
        <time>2022-06-04T00:26:03Z</time>
      </trkpt>
      <trkpt lat="47.31373" lon="3.66514">
        <ele>172</ele>
        <time>2022-06-04T00:26:09Z</time>
      </trkpt>
      <trkpt lat="47.31368" lon="3.66494">
        <ele>171</ele>
        <time>2022-06-04T00:26:12Z</time>
      </trkpt>
      <trkpt lat="47.31366" lon="3.66476">
        <ele>171</ele>
        <time>2022-06-04T00:26:14Z</time>
      </trkpt>
      <trkpt lat="47.31367" lon="3.66449">
        <ele>171</ele>
        <time>2022-06-04T00:26:17Z</time>
      </trkpt>
      <trkpt lat="47.31465" lon="3.6576">
        <ele>172</ele>
        <time>2022-06-04T00:27:42Z</time>
      </trkpt>
      <trkpt lat="47.31467" lon="3.65721">
        <ele>173</ele>
        <time>2022-06-04T00:27:47Z</time>
      </trkpt>
      <trkpt lat="47.31463" lon="3.65672">
        <ele>174</ele>
        <time>2022-06-04T00:27:53Z</time>
      </trkpt>
      <trkpt lat="47.31458" lon="3.65649">
        <ele>174</ele>
        <time>2022-06-04T00:27:56Z</time>
      </trkpt>
      <trkpt lat="47.31456" lon="3.65638">
        <ele>175</ele>
        <time>2022-06-04T00:27:57Z</time>
      </trkpt>
      <trkpt lat="47.31455" lon="3.65629">
        <ele>175</ele>
        <time>2022-06-04T00:27:58Z</time>
      </trkpt>
      <trkpt lat="47.31452" lon="3.65614">
        <ele>175</ele>
        <time>2022-06-04T00:28:00Z</time>
      </trkpt>
      <trkpt lat="47.3145" lon="3.65592">
        <ele>176</ele>
        <time>2022-06-04T00:28:03Z</time>
      </trkpt>
      <trkpt lat="47.31449" lon="3.65578">
        <ele>176</ele>
        <time>2022-06-04T00:28:05Z</time>
      </trkpt>
      <trkpt lat="47.31447" lon="3.65408">
        <ele>179</ele>
        <time>2022-06-04T00:28:25Z</time>
      </trkpt>
      <trkpt lat="47.31451" lon="3.65391">
        <ele>179</ele>
        <time>2022-06-04T00:28:27Z</time>
      </trkpt>
      <trkpt lat="47.31455" lon="3.65386">
        <ele>179</ele>
        <time>2022-06-04T00:28:28Z</time>
      </trkpt>
      <trkpt lat="47.31464" lon="3.65382">
        <ele>179</ele>
        <time>2022-06-04T00:28:30Z</time>
      </trkpt>
      <trkpt lat="47.31502" lon="3.65382">
        <ele>178</ele>
        <time>2022-06-04T00:28:37Z</time>
      </trkpt>
      <trkpt lat="47.31544" lon="3.65387">
        <ele>178</ele>
        <time>2022-06-04T00:28:44Z</time>
      </trkpt>
      <trkpt lat="47.31557" lon="3.65385">
        <ele>178</ele>
        <time>2022-06-04T00:28:47Z</time>
      </trkpt>
      <trkpt lat="47.31569" lon="3.65378">
        <ele>178</ele>
        <time>2022-06-04T00:28:49Z</time>
      </trkpt>
      <trkpt lat="47.31628" lon="3.65371">
        <ele>177</ele>
        <time>2022-06-04T00:28:59Z</time>
      </trkpt>
      <trkpt lat="47.3164" lon="3.65374">
        <ele>177</ele>
        <time>2022-06-04T00:29:02Z</time>
      </trkpt>
      <trkpt lat="47.3166" lon="3.65393">
        <ele>177</ele>
        <time>2022-06-04T00:29:06Z</time>
      </trkpt>
      <trkpt lat="47.31683" lon="3.65433">
        <ele>175</ele>
        <time>2022-06-04T00:29:12Z</time>
      </trkpt>
      <trkpt lat="47.31714" lon="3.65498">
        <ele>174</ele>
        <time>2022-06-04T00:29:22Z</time>
      </trkpt>
      <trkpt lat="47.31723" lon="3.65514">
        <ele>174</ele>
        <time>2022-06-04T00:29:24Z</time>
      </trkpt>
      <trkpt lat="47.31757" lon="3.65532">
        <ele>174</ele>
        <time>2022-06-04T00:29:31Z</time>
      </trkpt>
      <trkpt lat="47.31819" lon="3.65555">
        <ele>173</ele>
        <time>2022-06-04T00:29:42Z</time>
      </trkpt>
      <trkpt lat="47.31932" lon="3.65586">
        <ele>176</ele>
        <time>2022-06-04T00:30:02Z</time>
      </trkpt>
    </trkseg>
  </trk>
</gpx>